Provisional Data: Chemung River at West Elmira, NY


Please select a monitoring station.
Please select start date.
Please select start date.

<
Toggle Unit: C/F Toggle Unit: C/F
Sample Time Temperature (C) Temperature (F) Specific Conductivity (mS/cm) pH   Turbidity (NTU+) DO (mg/L)
12/11/2021 12:00:00 AM 3.25 37.85 0.282 8.14 4.02 13.62
12/11/2021 12:15:00 AM 3.25 37.85 0.282 8.13 3.81 13.6
12/11/2021 12:30:00 AM 3.27 37.886 0.283 8.12 4.14 13.58
12/11/2021 12:45:00 AM 3.28 37.904 0.283 8.12 4.13 13.56
12/11/2021 1:00:00 AM 3.3 37.94 0.283 8.12 4.01 13.54
12/11/2021 1:15:00 AM 3.31 37.958 0.283 8.12 3.84 13.52
12/11/2021 1:30:00 AM 3.33 37.994 0.283 8.11 4.27 13.5
12/11/2021 1:45:00 AM 3.34 38.012 0.283 8.11 4.28 13.48
12/11/2021 2:00:00 AM 3.36 38.048 0.283 8.11 3.97 13.46
12/11/2021 2:15:00 AM 3.37 38.066 0.283 8.11 4.63 13.44
12/11/2021 2:30:00 AM 3.39 38.102 0.283 8.11 3.96 13.42
12/11/2021 2:45:00 AM 3.41 38.138 0.283 8.1 4.17 13.4
12/11/2021 3:00:00 AM 3.42 38.156 0.283 8.1 4.1 13.38
12/11/2021 3:15:00 AM 3.44 38.192 0.283 8.1 4.35 13.35
12/11/2021 3:30:00 AM 3.46 38.228 0.283 8.1 4.04 13.33
12/11/2021 3:45:00 AM 3.49 38.282 0.283 8.09 3.99 13.31
12/11/2021 4:00:00 AM 3.51 38.318 0.283 8.09 4.13 13.29
12/11/2021 4:15:00 AM 3.54 38.372 0.283 8.09 4.7 13.27
12/11/2021 4:30:00 AM 3.56 38.408 0.283 8.09 4.04 13.24
12/11/2021 4:45:00 AM 3.58 38.444 0.283 8.08 4.08 13.22
12/11/2021 5:00:00 AM 3.61 38.498 0.283 8.08 4.77 13.19
12/11/2021 5:15:00 AM 3.63 38.534 0.283 8.08 4.66 13.16
12/11/2021 5:30:00 AM 3.66 38.588 0.282 8.07 4.2 13.14
12/11/2021 5:45:00 AM 3.68 38.624 0.282 8.06 3.98 13.11
12/11/2021 6:00:00 AM 3.7 38.66 0.282 8.06 3.98 13.09
12/11/2021 6:15:00 AM 3.72 38.696 0.282 8.06 4.51 13.05
12/11/2021 6:30:00 AM 3.73 38.714 0.282 8.06 5.96 13.03
12/11/2021 6:45:00 AM 3.74 38.732 0.282 8.05 4.39 13
12/11/2021 7:00:00 AM 3.75 38.75 0.283 8.04 4.23 12.98
12/11/2021 7:15:00 AM 3.76 38.768 0.283 8.03 4.47 12.95
12/11/2021 7:30:00 AM 3.77 38.786 0.283 8.03 4.38 12.92
12/11/2021 7:45:00 AM 3.78 38.804 0.284 8.02 5.39 12.9
12/11/2021 8:00:00 AM 3.78 38.804 0.284 8.02 5.06 12.88
12/11/2021 8:15:00 AM 3.79 38.822 0.286 8.01 4.45 12.86
12/11/2021 8:30:00 AM 3.79 38.822 0.286 8 4.59 12.84
12/11/2021 8:45:00 AM 3.8 38.84 0.286 7.99 4.51 12.84
12/11/2021 9:00:00 AM 3.81 38.858 0.286 7.99 5.21 12.86
12/11/2021 9:15:00 AM 3.83 38.894 0.286 7.99 4.73 12.89
12/11/2021 9:30:00 AM 3.85 38.93 0.286 8 4.5 12.92
12/11/2021 9:45:00 AM 3.87 38.966 0.286 8.01 4.44 12.98
12/11/2021 10:00:00 AM 3.9 39.02 0.285 8.02 4.12 13.04
12/11/2021 10:15:00 AM 3.92 39.056 0.285 8.04 4.94 13.12
12/11/2021 10:30:00 AM 3.95 39.11 0.285 8.06 4.26 13.2
12/11/2021 10:45:00 AM 3.99 39.182 0.285 8.07 4.43 13.28
12/11/2021 11:00:00 AM 4.02 39.236 0.285 8.11 4.14 13.37
12/11/2021 11:15:00 AM 4.06 39.308 0.285 8.12 3.94 13.43
12/11/2021 11:30:00 AM 4.1 39.38 0.285 8.14 4.11 13.53
12/11/2021 11:45:00 AM 4.14 39.452 0.285 8.16 4.34 13.59
12/11/2021 12:00:00 PM 4.18 39.524 0.285 8.18 4.01 13.66
12/11/2021 12:15:00 PM 4.21 39.578 0.284 8.2 3.89 13.71
12/11/2021 12:30:00 PM 4.24 39.632 0.285 8.21 4.32 13.73
12/11/2021 12:45:00 PM 4.27 39.686 0.285 8.23 4.27 13.77
12/11/2021 1:00:00 PM 4.3 39.74 0.285 8.24 4.18 13.8
12/11/2021 1:15:00 PM 4.35 39.83 0.285 8.24 4.18 13.84
12/11/2021 1:30:00 PM 4.38 39.884 0.285 8.28 4.72 13.88
12/11/2021 1:45:00 PM 4.42 39.956 0.285 8.29 4.36 13.92
12/11/2021 2:00:00 PM 4.45 40.01 0.285 8.31 4.68 13.95
12/11/2021 2:15:00 PM 4.49 40.082 0.286 8.32 4.35 13.97
12/11/2021 2:30:00 PM 4.53 40.154 0.286 8.32 4.68 13.98
12/11/2021 2:45:00 PM 4.58 40.244 0.286 8.33 4.7 13.97
12/11/2021 3:00:00 PM 4.62 40.316 0.286 8.34 4.98 13.98
12/11/2021 3:15:00 PM 4.66 40.388 0.287 8.34 4.81 13.96
12/11/2021 3:30:00 PM 4.7 40.46 0.288 8.34 4.68 13.93
12/11/2021 3:45:00 PM 4.73 40.514 0.29 8.34 5.33 13.89
12/11/2021 4:00:00 PM 4.76 40.568 0.291 8.33 5.03 13.84
12/11/2021 4:15:00 PM 4.79 40.622 0.293 8.31 5.3 13.76
12/11/2021 4:30:00 PM 4.82 40.676 0.295 8.3 5.68 13.68
12/11/2021 4:45:00 PM 4.86 40.748 0.296 8.28 5.75 13.6
12/11/2021 5:00:00 PM 4.89 40.802 0.297 8.26 5.79 13.51
12/11/2021 5:15:00 PM 4.93 40.874 0.297 8.24 6.6 13.43
12/11/2021 5:30:00 PM 4.96 40.928 0.297 8.22 6.22 13.34
12/11/2021 5:45:00 PM 4.99 40.982 0.298 8.2 6.78 13.27
12/11/2021 6:00:00 PM 5.01 41.018 0.298 8.19 7.9 13.2
12/11/2021 6:15:00 PM 5.04 41.072 0.299 8.17 8.48 13.14
12/11/2021 6:30:00 PM 5.08 41.144 0.299 8.15 8.09 13.1
12/11/2021 6:45:00 PM 5.11 41.198 0.299 8.15 7.79 13.05
12/11/2021 7:00:00 PM 5.14 41.252 0.298 8.13 7.59 13.01
12/11/2021 7:15:00 PM 5.16 41.288 0.296 8.13 7.56 12.98
12/11/2021 7:30:00 PM 5.17 41.306 0.294 8.13 7.45 12.96
12/11/2021 7:45:00 PM 5.16 41.288 0.292 8.12 8.73 12.93
12/11/2021 8:00:00 PM 5.15 41.27 0.29 8.13 7.86 12.91
12/11/2021 8:15:00 PM 5.14 41.252 0.288 8.13 9.13 12.9
12/11/2021 8:30:00 PM 5.14 41.252 0.287 8.13 9.3 12.87
12/11/2021 8:45:00 PM 5.13 41.234 0.286 8.12 9.52 12.85
12/11/2021 9:00:00 PM 5.13 41.234 0.285 8.12 9.22 12.84
12/11/2021 9:15:00 PM 5.13 41.234 0.284 8.11 10.77 12.82
12/11/2021 9:30:00 PM 5.12 41.216 0.282 8.11 9.47 12.81
12/11/2021 9:45:00 PM 5.12 41.216 0.28 8.11 9.91 12.79
12/11/2021 10:00:00 PM 5.12 41.216 0.278 8.11 10.5 12.77
12/11/2021 10:15:00 PM 5.11 41.198 0.276 8.1 10.85 12.75
12/11/2021 10:30:00 PM 5.12 41.216 0.274 8.09 11.14 12.72
12/11/2021 10:45:00 PM 5.11 41.198 0.272 8.08 12.75 12.69
12/11/2021 11:00:00 PM 5.1 41.18 0.27 8.07 13.42 12.66
12/11/2021 11:15:00 PM 5.09 41.162 0.268 8.05 14.3 12.62
12/11/2021 11:30:00 PM 5.08 41.144 0.265 8.04 14.65 12.58
12/11/2021 11:45:00 PM 5.07 41.126 0.263 8.03 15.58 12.54
12/12/2021 12:00:00 AM 5.05 41.09 0.262 8.02 20.86 12.52
12/12/2021 12:15:00 AM 5.03 41.054 0.26 8.01 18.83 12.49
12/12/2021 12:30:00 AM 5.01 41.018 0.259 8 20.79 12.47
12/12/2021 12:45:00 AM 4.99 40.982 0.257 7.98 20.6 12.45
12/12/2021 1:00:00 AM 4.98 40.964 0.256 7.98 15.37 12.43
12/12/2021 1:15:00 AM 4.97 40.946 0.254 7.97 20.27 12.41
12/12/2021 1:30:00 AM 4.97 40.946 0.252 7.97 21.2 12.39
12/12/2021 1:45:00 AM 4.97 40.946 0.25 7.95 17.98 12.36
12/12/2021 2:00:00 AM 4.96 40.928 0.248 7.95 24.11 12.34
12/12/2021 2:15:00 AM 4.95 40.91 0.246 7.94 30.15 12.32
12/12/2021 2:30:00 AM 4.93 40.874 0.245 7.93 30.06 12.3
12/12/2021 2:45:00 AM 4.92 40.856 0.243 7.92 38.13 12.29
12/12/2021 3:00:00 AM 4.9 40.82 0.242 7.91 34.68 12.27
12/12/2021 3:15:00 AM 4.89 40.802 0.241 7.91 51.73 12.27
12/12/2021 3:30:00 AM 4.87 40.766 0.24 7.9 50.51 12.26
12/12/2021 3:45:00 AM 4.86 40.748 0.239 7.9 44.58 12.26
12/12/2021 4:00:00 AM 4.85 40.73 0.238 7.9 38.82 12.26
12/12/2021 4:15:00 AM 4.83 40.694 0.238 7.89 42.9 12.26
12/12/2021 4:30:00 AM 4.8 40.64 0.237 7.89 46.07 12.26
12/12/2021 4:45:00 AM 4.78 40.604 0.237 7.88 42.78 12.26
12/12/2021 5:00:00 AM 4.75 40.55 0.236 7.88 54.13 12.26
12/12/2021 5:15:00 AM 4.73 40.514 0.234 7.88 53 12.26
12/12/2021 5:30:00 AM 4.7 40.46 0.233 7.87 63.56 12.26
12/12/2021 5:45:00 AM 4.68 40.424 0.233 7.87 53.63 12.27
12/12/2021 6:00:00 AM 4.66 40.388 0.232 7.87 53.72 12.27
12/12/2021 6:15:00 AM 4.63 40.334 0.231 7.87 59.45 12.27
12/12/2021 6:30:00 AM 4.61 40.298 0.231 7.86 50.2 12.28
12/12/2021 6:45:00 AM 4.59 40.262 0.23 7.86 45.96 12.29
12/12/2021 7:00:00 AM 4.57 40.226 0.23 7.86 44.46 12.29
12/12/2021 7:15:00 AM 4.54 40.172 0.229 7.86 39.7 12.3
12/12/2021 7:30:00 AM 4.52 40.136 0.229 7.86 62.17 12.31
12/12/2021 7:45:00 AM 4.5 40.1 0.228 7.86 49.39 12.32
12/12/2021 8:00:00 AM 4.48 40.064 0.228 7.86 55.22 12.32
12/12/2021 8:15:00 AM 4.45 40.01 0.228 7.85 33.84 12.33
12/12/2021 8:30:00 AM 4.43 39.974 0.228 7.86 41.65 12.34
12/12/2021 8:45:00 AM 4.41 39.938 0.228 7.86 35.87 12.35
12/12/2021 9:00:00 AM 4.4 39.92 0.228 7.86 37.75 12.37
12/12/2021 9:15:00 AM 4.39 39.902 0.228 7.86 40.55 12.38
12/12/2021 9:30:00 AM 4.38 39.884 0.228 7.86 37.5 12.4
12/12/2021 9:45:00 AM 4.38 39.884 0.228 7.86 32.47 12.42
12/12/2021 10:00:00 AM 4.38 39.884 0.228 7.86 26.03 12.44
12/12/2021 10:15:00 AM 4.39 39.902 0.228 7.87 25.61 12.46
12/12/2021 10:30:00 AM 4.39 39.902 0.228 7.87 30.05 12.49
12/12/2021 10:45:00 AM 4.39 39.902 0.228 7.86 26.88 12.51
12/12/2021 11:00:00 AM 4.39 39.902 0.228 7.88 28.4 12.54
12/12/2021 11:15:00 AM 4.39 39.902 0.228 7.88 25.01 12.57
12/12/2021 11:30:00 AM 4.4 39.92 0.228 7.89 29.72 12.59
12/12/2021 11:45:00 AM 4.4 39.92 0.228 7.9 27.39 12.63
12/12/2021 12:00:00 PM 4.4 39.92 0.228 7.9 24.28 12.65
12/12/2021 12:15:00 PM 4.4 39.92 0.228 7.9 27.27 12.69
12/12/2021 12:30:00 PM 4.39 39.902 0.227 7.91 21.35 12.72
12/12/2021 12:45:00 PM 4.39 39.902 0.227 7.92 29.5 12.75
12/12/2021 1:00:00 PM 4.39 39.902 0.227 7.93 18.99 12.78
12/12/2021 1:15:00 PM 4.4 39.92 0.227 7.93 22.83 12.81
12/12/2021 1:30:00 PM 4.4 39.92 0.227 7.94 23.99 12.84
12/12/2021 1:45:00 PM 4.4 39.92 0.227 7.95 16.98 12.87
12/12/2021 2:00:00 PM 4.4 39.92 0.227 7.96 19.38 12.89
12/12/2021 2:15:00 PM 4.41 39.938 0.227 7.96 17.04 12.91
12/12/2021 2:30:00 PM 4.41 39.938 0.227 7.96 20.53 12.93
12/12/2021 2:45:00 PM 4.41 39.938 0.227 7.97 16.9 12.95
12/12/2021 3:00:00 PM 4.41 39.938 0.227 7.97 17.93 12.97
12/12/2021 3:15:00 PM 4.41 39.938 0.227 7.98 18.63 12.97
12/12/2021 3:30:00 PM 4.4 39.92 0.226 7.98 17.91 12.99
12/12/2021 3:45:00 PM 4.39 39.902 0.226 7.98 17.01 13.01
12/12/2021 4:00:00 PM 4.39 39.902 0.226 7.98 17.16 13.02
12/12/2021 4:15:00 PM 4.37 39.866 0.227 7.99 38.4 13.03
12/12/2021 4:30:00 PM 4.36 39.848 0.227 7.99 17.51 13.04
12/12/2021 4:45:00 PM 4.35 39.83 0.227 7.97 16.21 13.04
12/12/2021 5:00:00 PM 4.33 39.794 0.227 7.98 19.7 13.05
12/12/2021 5:15:00 PM 4.32 39.776 0.227 7.98 16.28 13.05
12/12/2021 5:30:00 PM 4.3 39.74 0.227 7.99 16.15 13.06
12/12/2021 5:45:00 PM 4.28 39.704 0.227 7.99 15.66 13.07
12/12/2021 6:00:00 PM 4.27 39.686 0.227 7.98 15.5 13.08
12/12/2021 6:15:00 PM 4.25 39.65 0.227 7.99 15.74 13.08
12/12/2021 6:30:00 PM 4.24 39.632 0.227 7.99 15.69 13.08
12/12/2021 6:45:00 PM 4.22 39.596 0.227 7.99 14.86 13.09
12/12/2021 7:00:00 PM 4.21 39.578 0.227 7.98 14.21 13.09
12/12/2021 7:15:00 PM 4.19 39.542 0.228 7.98 15.31 13.1
12/12/2021 7:30:00 PM 4.17 39.506 0.228 7.99 14.14 13.1
12/12/2021 7:45:00 PM 4.16 39.488 0.228 7.98 15.29 13.1
12/12/2021 8:00:00 PM 4.14 39.452 0.228 7.98 15.62 13.09
12/12/2021 8:15:00 PM 4.12 39.416 0.228 7.98 17.59 13.09
12/12/2021 8:30:00 PM 4.1 39.38 0.228 7.98 15.85 13.08
12/12/2021 8:45:00 PM 4.09 39.362 0.228 7.98 14.71 13.08
12/12/2021 9:00:00 PM 4.07 39.326 0.227 7.96 16.11 13.06
12/12/2021 9:15:00 PM 4.05 39.29 0.227 7.97 17.61 13.06
12/12/2021 9:30:00 PM 4.04 39.272 0.227 7.97 17.05 13.05
12/12/2021 9:45:00 PM 4.03 39.254 0.227 7.97 15.1 13.04
12/12/2021 10:00:00 PM 4.02 39.236 0.227 7.97 17.93 13.04
12/12/2021 10:15:00 PM 4.01 39.218 0.227 7.95 15.91 13.03
12/12/2021 10:30:00 PM 4 39.2 0.227 7.96 20.55 13.03
12/12/2021 10:45:00 PM 3.99 39.182 0.227 7.96 17.64 13.02
12/12/2021 11:00:00 PM 3.98 39.164 0.227 7.94 16.67 13.01
12/12/2021 11:15:00 PM 3.97 39.146 0.227 7.96 17.58 13.01
12/12/2021 11:30:00 PM 3.96 39.128 0.227 7.95 19.92 12.99
12/12/2021 11:45:00 PM 3.95 39.11 0.227 7.94 17.63 12.99
12/13/2021 12:00:00 AM 3.93 39.074 0.227 7.95 17.79 12.98
12/13/2021 12:15:00 AM 3.92 39.056 0.227 7.94 18.2 12.97
12/13/2021 12:30:00 AM 3.9 39.02 0.227 7.93 19.62 12.96
12/13/2021 12:45:00 AM 3.88 38.984 0.228 7.93 22.17 12.95
12/13/2021 1:00:00 AM 3.87 38.966 0.228 7.93 17.41 12.94
12/13/2021 1:15:00 AM 3.86 38.948 0.228 7.93 20.07 12.94
12/13/2021 1:30:00 AM 3.85 38.93 0.228 7.92 20.79 12.93
12/13/2021 1:45:00 AM 3.84 38.912 0.229 7.92 19.54 12.91
12/13/2021 2:00:00 AM 3.83 38.894 0.229 7.92 14.37 12.91
12/13/2021 2:15:00 AM 3.81 38.858 0.229 7.9 21.29 12.9
12/13/2021 2:30:00 AM 3.8 38.84 0.23 7.91 22.17 12.89
12/13/2021 2:45:00 AM 3.79 38.822 0.23 7.91 20.31 12.88
12/13/2021 3:00:00 AM 3.78 38.804 0.23 7.89 19.5 12.87
12/13/2021 3:15:00 AM 3.77 38.786 0.231 7.9 18.97 12.86
12/13/2021 3:30:00 AM 3.76 38.768 0.231 7.89 21.27 12.86
12/13/2021 3:45:00 AM 3.76 38.768 0.232 7.88 18.38 12.85
12/13/2021 4:00:00 AM 3.75 38.75 0.232 7.89 20.95 12.85
12/13/2021 4:15:00 AM 3.74 38.732 0.233 7.89 15.98 12.84
12/13/2021 4:30:00 AM 3.73 38.714 0.233 7.88 18.09 12.84
12/13/2021 4:45:00 AM 3.72 38.696 0.234 7.88 16.71 12.83
12/13/2021 5:00:00 AM 3.71 38.678 0.234 7.88 17.92 12.82
12/13/2021 5:15:00 AM 3.7 38.66 0.235 7.88 17.58 12.82
12/13/2021 5:30:00 AM 3.7 38.66 0.236 7.87 16.78 12.81
12/13/2021 5:45:00 AM 3.69 38.642 0.236 7.87 17.26 12.8
12/13/2021 6:00:00 AM 3.69 38.642 0.237 7.87 17.23 12.8
12/13/2021 6:15:00 AM 3.68 38.624 0.237 7.85 15.85 12.79
12/13/2021 6:30:00 AM 3.67 38.606 0.238 7.86 17.45 12.8
12/13/2021 6:45:00 AM 3.67 38.606 0.238 7.86 20.55 12.79
12/13/2021 7:00:00 AM 3.66 38.588 0.239 7.86 15.88 12.79
12/13/2021 7:15:00 AM 3.65 38.57 0.239 7.86 15.01 12.79
12/13/2021 7:30:00 AM 3.64 38.552 0.239 7.85 15.7 12.79
12/13/2021 7:45:00 AM 3.63 38.534 0.24 7.85 14.28 12.78
12/13/2021 8:00:00 AM 3.62 38.516 0.24 7.84 14.24 12.78
12/13/2021 8:15:00 AM 3.61 38.498 0.24 7.85 13.77 12.79
12/13/2021 8:30:00 AM 3.61 38.498 0.241 7.84 12.81 12.79
12/13/2021 8:45:00 AM 3.6 38.48 0.241 7.85 13.41 12.83
12/13/2021 9:00:00 AM 3.6 38.48 0.241 7.85 12.08 12.85
12/13/2021 9:15:00 AM 3.58 38.444 0.241 7.86 13.04 12.87
12/13/2021 9:30:00 AM 3.57 38.426 0.241 7.87 12.63 12.92
12/13/2021 9:45:00 AM 3.56 38.408 0.242 7.87 11.94 12.96
12/13/2021 10:00:00 AM 3.56 38.408 0.242 7.88 11.01 13
12/13/2021 10:15:00 AM 3.56 38.408 0.242 7.89 11.87 13.06
12/13/2021 10:30:00 AM 3.58 38.444 0.242 7.91 10.93 13.13
12/13/2021 10:45:00 AM 3.59 38.462 0.242 7.93 10.1 13.2
12/13/2021 11:00:00 AM 3.61 38.498 0.242 7.93 9.27 13.28
12/13/2021 11:15:00 AM 3.63 38.534 0.243 7.96 10.99 13.35
12/13/2021 11:30:00 AM 3.64 38.552 0.243 7.97 9.35 13.39
12/13/2021 11:45:00 AM 3.65 38.57 0.243 7.99 9.75 13.45
12/13/2021 12:00:00 PM 3.66 38.588 0.243 8 9.54 13.5
12/13/2021 12:15:00 PM 3.67 38.606 0.243 8.02 9.56 13.55
12/13/2021 12:30:00 PM 3.68 38.624 0.243 8.02 9.61 13.59
12/13/2021 12:45:00 PM 3.69 38.642 0.243 8.04 8.95 13.64
12/13/2021 1:00:00 PM 3.7 38.66 0.243 8.06 8.52 13.69
12/13/2021 1:15:00 PM 3.71 38.678 0.243 8.08 9.01 13.73
12/13/2021 1:30:00 PM 3.72 38.696 0.243 8.1 8.09 13.78
12/13/2021 1:45:00 PM 3.73 38.714 0.243 8.11 8.07 13.82
12/13/2021 2:00:00 PM 3.74 38.732 0.242 8.12 8.02 13.85
12/13/2021 2:15:00 PM 3.75 38.75 0.242 8.13 8.21 13.88
12/13/2021 2:30:00 PM 3.75 38.75 0.242 8.14 8.37 13.9
12/13/2021 2:45:00 PM 3.75 38.75 0.241 8.15 7.36 13.93
12/13/2021 3:00:00 PM 3.75 38.75 0.241 8.15 7.9 13.93
12/13/2021 3:15:00 PM 3.74 38.732 0.241 8.15 7.36 13.94
12/13/2021 3:30:00 PM 3.73 38.714 0.241 8.16 7.02 13.94
12/13/2021 3:45:00 PM 3.73 38.714 0.241 8.16 7.31 13.93
12/13/2021 4:00:00 PM 3.72 38.696 0.241 8.16 7.65 13.93
12/13/2021 4:15:00 PM 3.71 38.678 0.241 8.15 7.08 13.91
12/13/2021 4:30:00 PM 3.71 38.678 0.241 8.15 7.38 13.89
12/13/2021 4:45:00 PM 3.7 38.66 0.241 8.15 7.21 13.87
12/13/2021 5:00:00 PM 3.69 38.642 0.241 8.14 8.07 13.85
12/13/2021 5:15:00 PM 3.69 38.642 0.241 8.13 7.48 13.83
12/13/2021 5:30:00 PM 3.68 38.624 0.241 8.13 7.71 13.81
12/13/2021 5:45:00 PM 3.68 38.624 0.241 8.12 7.28 13.78
12/13/2021 6:00:00 PM 3.67 38.606 0.241 8.11 7.12 13.77
12/13/2021 6:15:00 PM 3.67 38.606 0.241 8.11 7.28 13.75
12/13/2021 6:30:00 PM 3.66 38.588 0.241 8.1 7.26 13.73
12/13/2021 6:45:00 PM 3.66 38.588 0.241 8.1 7.55 13.72
12/13/2021 7:00:00 PM 3.66 38.588 0.242 8.1 6.77 13.71
12/13/2021 7:15:00 PM 3.65 38.57 0.242 8.09 7.17 13.69
12/13/2021 7:30:00 PM 3.65 38.57 0.242 8.09 7.38 13.69
12/13/2021 7:45:00 PM 3.65 38.57 0.242 8.09 6.79 13.69
12/13/2021 8:00:00 PM 3.64 38.552 0.242 8.09 7.27 13.67
12/13/2021 8:15:00 PM 3.64 38.552 0.242 8.09 6.67 13.67
12/13/2021 8:30:00 PM 3.63 38.534 0.242 8.08 6.93 13.65
12/13/2021 8:45:00 PM 3.63 38.534 0.242 8.08 6.99 13.64
12/13/2021 9:00:00 PM 3.62 38.516 0.243 8.08 7.22 13.63
12/13/2021 9:15:00 PM 3.61 38.498 0.243 8.08 6.74 13.62
12/13/2021 9:30:00 PM 3.6 38.48 0.243 8.07 7.07 13.61
12/13/2021 9:45:00 PM 3.59 38.462 0.243 8.07 6.31 13.59
12/13/2021 10:00:00 PM 3.58 38.444 0.243 8.06 6.94 13.57
12/13/2021 10:15:00 PM 3.58 38.444 0.243 8.06 6.27 13.55
12/13/2021 10:30:00 PM 3.57 38.426 0.243 8.06 6.91 13.54
12/13/2021 10:45:00 PM 3.57 38.426 0.244 8.05 6.69 13.52
12/13/2021 11:00:00 PM 3.56 38.408 0.244 8.05 6.26 13.51
12/13/2021 11:15:00 PM 3.56 38.408 0.244 8.05 6.75 13.49
12/13/2021 11:30:00 PM 3.55 38.39 0.244 8.04 6.3 13.48
12/13/2021 11:45:00 PM 3.54 38.372 0.244 8.04 6.2 13.47
12/14/2021 12:00:00 AM 3.54 38.372 0.244 8.04 6.05 13.46
12/14/2021 12:15:00 AM 3.53 38.354 0.244 8.04 6.86 13.45
12/14/2021 12:30:00 AM 3.52 38.336 0.245 8.03 6.53 13.42
12/14/2021 12:45:00 AM 3.51 38.318 0.245 8.03 6.33 13.4
12/14/2021 1:00:00 AM 3.5 38.3 0.245 8.03 6.13 13.4
12/14/2021 1:15:00 AM 3.49 38.282 0.246 8.01 5.98 13.38
12/14/2021 1:30:00 AM 3.49 38.282 0.246 8.02 6.11 13.36
12/14/2021 1:45:00 AM 3.48 38.264 0.246 8.02 6.2 13.34
12/14/2021 2:00:00 AM 3.46 38.228 0.247 8.01 5.8 13.32
12/14/2021 2:15:00 AM 3.46 38.228 0.247 8.01 6.11 13.31
12/14/2021 2:30:00 AM 3.44 38.192 0.248 8.01 5.84 13.29
12/14/2021 2:45:00 AM 3.43 38.174 0.249 8 5.86 13.28
12/14/2021 3:00:00 AM 3.42 38.156 0.249 8 6.3 13.26
12/14/2021 3:15:00 AM 3.41 38.138 0.25 8 5.99 13.24
12/14/2021 3:30:00 AM 3.4 38.12 0.25 7.99 5.74 13.22
12/14/2021 3:45:00 AM 3.39 38.102 0.251 7.99 5.76 13.21
12/14/2021 4:00:00 AM 3.37 38.066 0.251 7.98 5.32 13.19
12/14/2021 4:15:00 AM 3.36 38.048 0.252 7.98 5.97 13.18
12/14/2021 4:30:00 AM 3.35 38.03 0.252 7.97 5.83 13.16
12/14/2021 4:45:00 AM 3.33 37.994 0.253 7.97 5.79 13.14
12/14/2021 5:00:00 AM 3.32 37.976 0.253 7.96 5.48 13.13
12/14/2021 5:15:00 AM 3.3 37.94 0.254 7.96 5.45 13.12
12/14/2021 5:30:00 AM 3.28 37.904 0.254 7.95 5.72 13.11
12/14/2021 5:45:00 AM 3.26 37.868 0.254 7.95 5.94 13.1
12/14/2021 6:00:00 AM 3.24 37.832 0.255 7.94 5.94 13.08
12/14/2021 6:15:00 AM 3.22 37.796 0.255 7.93 5.62 13.07
12/14/2021 6:30:00 AM 3.2 37.76 0.255 7.93 5.78 13.07
12/14/2021 6:45:00 AM 3.18 37.724 0.255 7.93 5.18 13.06
12/14/2021 7:00:00 AM 3.15 37.67 0.256 7.92 5.81 13.05
12/14/2021 7:15:00 AM 3.13 37.634 0.256 7.92 5.52 13.05
12/14/2021 7:30:00 AM 3.11 37.598 0.256 7.9 5.31 13.04
12/14/2021 7:45:00 AM 3.09 37.562 0.257 7.91 5.57 13.04
12/14/2021 8:00:00 AM 3.08 37.544 0.257 7.91 5.51 13.05
12/14/2021 8:15:00 AM 3.07 37.526 0.257 7.91 5.73 13.07
12/14/2021 8:30:00 AM 3.06 37.508 0.257 7.91 5.15 13.1
12/14/2021 8:45:00 AM 3.06 37.508 0.257 7.9 5.46 13.15
12/14/2021 9:00:00 AM 3.06 37.508 0.257 7.92 5.36 13.19
12/14/2021 9:15:00 AM 3.07 37.526 0.257 7.93 5.16 13.26
12/14/2021 9:30:00 AM 3.08 37.544 0.257 7.94 5.16 13.33
12/14/2021 9:45:00 AM 3.09 37.562 0.257 7.96 5.34 13.4
12/14/2021 10:00:00 AM 3.1 37.58 0.257 7.96 5.34 13.48
12/14/2021 10:15:00 AM 3.11 37.598 0.257 7.99 5.3 13.57
12/14/2021 10:30:00 AM 3.13 37.634 0.257 8.01 5.02 13.67
12/14/2021 10:45:00 AM 3.16 37.688 0.257 8.03 5.28 13.76
12/14/2021 11:00:00 AM 3.18 37.724 0.257 8.06 5.11 13.86
12/14/2021 11:15:00 AM 3.2 37.76 0.257 8.08 5.12 13.96
12/14/2021 11:30:00 AM 3.21 37.778 0.257 8.1 5.16 14.03
12/14/2021 11:45:00 AM 3.21 37.778 0.257 8.13 5.27 14.1
12/14/2021 12:00:00 PM 3.22 37.796 0.257 8.15 4.94 14.17
12/14/2021 12:15:00 PM 3.24 37.832 0.257 8.17 5.14 14.23
12/14/2021 12:30:00 PM 3.26 37.868 0.258 8.19 5 14.29
12/14/2021 12:45:00 PM 3.28 37.904 0.258 8.21 5.06 14.35
12/14/2021 1:00:00 PM 3.3 37.94 0.258 8.23 5.22 14.4
12/14/2021 1:15:00 PM 3.33 37.994 0.257 8.25 5.2 14.46
12/14/2021 1:30:00 PM 3.34 38.012 0.257 8.27 5.08 14.5
12/14/2021 1:45:00 PM 3.35 38.03 0.257 8.27 5.14 14.54
12/14/2021 2:00:00 PM 3.35 38.03 0.257 8.29 4.9 14.57
12/14/2021 2:15:00 PM 3.35 38.03 0.257 8.3 4.68 14.59
12/14/2021 2:30:00 PM 3.34 38.012 0.257 8.31 4.75 14.61
12/14/2021 2:45:00 PM 3.33 37.994 0.258 8.31 5.25 14.61
12/14/2021 3:00:00 PM 3.32 37.976 0.258 8.31 5.01 14.61
12/14/2021 3:15:00 PM 3.31 37.958 0.258 8.32 4.7 14.62
12/14/2021 3:30:00 PM 3.3 37.94 0.257 8.32 4.95 14.61
12/14/2021 3:45:00 PM 3.29 37.922 0.258 8.32 4.73 14.6
12/14/2021 4:00:00 PM 3.28 37.904 0.257 8.32 4.82 14.59
12/14/2021 4:15:00 PM 3.27 37.886 0.257 8.31 4.98 14.57
12/14/2021 4:30:00 PM 3.26 37.868 0.258 8.3 4.74 14.54
12/14/2021 4:45:00 PM 3.25 37.85 0.258 8.29 4.79 14.5
12/14/2021 5:00:00 PM 3.24 37.832 0.258 8.28 4.66 14.46
12/14/2021 5:15:00 PM 3.23 37.814 0.258 8.27 4.73 14.42
12/14/2021 5:30:00 PM 3.22 37.796 0.258 8.26 4.89 14.38
12/14/2021 5:45:00 PM 3.21 37.778 0.258 8.24 4.83 14.34
12/14/2021 6:00:00 PM 3.2 37.76 0.258 8.24 4.83 14.31
12/14/2021 6:15:00 PM 3.19 37.742 0.258 8.23 4.38 14.28
12/14/2021 6:30:00 PM 3.17 37.706 0.258 8.22 5 14.25
12/14/2021 6:45:00 PM 3.16 37.688 0.258 8.2 4.51 14.22
12/14/2021 7:00:00 PM 3.15 37.67 0.259 8.2 4.75 14.2
12/14/2021 7:15:00 PM 3.15 37.67 0.259 8.19 4.64 14.17
12/14/2021 7:30:00 PM 3.14 37.652 0.259 8.18 4.86 14.15
12/14/2021 7:45:00 PM 3.13 37.634 0.259 8.18 4.87 14.14
12/14/2021 8:00:00 PM 3.13 37.634 0.259 8.16 4.75 14.13
12/14/2021 8:15:00 PM 3.13 37.634 0.259 8.17 4.48 14.12
12/14/2021 8:30:00 PM 3.13 37.634 0.259 8.17 4.62 14.11
12/14/2021 8:45:00 PM 3.13 37.634 0.259 8.16 5.04 14.1
12/14/2021 9:00:00 PM 3.12 37.616 0.259 8.16 4.71 14.09
12/14/2021 9:15:00 PM 3.12 37.616 0.259 8.16 4.84 14.08
12/14/2021 9:30:00 PM 3.11 37.598 0.259 8.15 4.61 14.07
12/14/2021 9:45:00 PM 3.11 37.598 0.259 8.15 4.66 14.06
12/14/2021 10:00:00 PM 3.1 37.58 0.259 8.15 4.72 14.04
12/14/2021 10:15:00 PM 3.09 37.562 0.259 8.15 5.34 14.03
12/14/2021 10:30:00 PM 3.08 37.544 0.26 8.14 4.63 14.01
12/14/2021 10:45:00 PM 3.07 37.526 0.26 8.14 4.66 14
12/14/2021 11:00:00 PM 3.05 37.49 0.26 8.14 4.71 13.98
12/14/2021 11:15:00 PM 3.04 37.472 0.26 8.13 4.68 13.97
12/14/2021 11:30:00 PM 3.03 37.454 0.26 8.13 4.73 13.96
12/14/2021 11:45:00 PM 3.02 37.436 0.26 8.12 4.61 13.94
12/15/2021 12:00:00 AM 3 37.4 0.26 8.12 4.78 13.93
12/15/2021 12:15:00 AM 2.99 37.382 0.26 8.12 4.8 13.92
12/15/2021 12:30:00 AM 2.98 37.364 0.26 8.11 4.4 13.9
12/15/2021 12:45:00 AM 2.97 37.346 0.26 8.11 4.9 13.89
12/15/2021 1:00:00 AM 2.95 37.31 0.26 8.1 4.81 13.87
12/15/2021 1:15:00 AM 2.94 37.292 0.26 8.1 4.87 13.86
12/15/2021 1:30:00 AM 2.93 37.274 0.26 8.1 4.84 13.84
12/15/2021 1:45:00 AM 2.92 37.256 0.26 8.09 4.52 13.82
12/15/2021 2:00:00 AM 2.91 37.238 0.26 8.09 4.47 13.8
12/15/2021 2:15:00 AM 2.9 37.22 0.26 8.08 4.57 13.79
12/15/2021 2:30:00 AM 2.88 37.184 0.26 8.07 4.53 13.77
12/15/2021 2:45:00 AM 2.88 37.184 0.26 8.08 4.72 13.75
12/15/2021 3:00:00 AM 2.86 37.148 0.261 8.07 4.66 13.73
12/15/2021 3:15:00 AM 2.85 37.13 0.261 8.05 4.77 13.71
12/15/2021 3:30:00 AM 2.84 37.112 0.261 8.05 4.62 13.69
12/15/2021 3:45:00 AM 2.83 37.094 0.261 8.05 5.04 13.67
12/15/2021 4:00:00 AM 2.81 37.058 0.261 8.04 4.8 13.64
12/15/2021 4:15:00 AM 2.8 37.04 0.261 8.04 4.66 13.63
12/15/2021 4:30:00 AM 2.79 37.022 0.261 8.03 4.71 13.6
12/15/2021 4:45:00 AM 2.77 36.986 0.261 8.02 4.4 13.58
12/15/2021 5:00:00 AM 2.76 36.968 0.261 8.02 4.48 13.56
12/15/2021 5:15:00 AM 2.74 36.932 0.261 8 4.51 13.55
12/15/2021 5:30:00 AM 2.72 36.896 0.261 8 4.5 13.52
12/15/2021 5:45:00 AM 2.71 36.878 0.261 7.99 4.9 13.5
12/15/2021 6:00:00 AM 2.69 36.842 0.261 7.99 4.72 13.49
12/15/2021 6:15:00 AM 2.68 36.824 0.261 7.98 4.44 13.47
12/15/2021 6:30:00 AM 2.67 36.806 0.261 7.97 4.75 13.45
12/15/2021 6:45:00 AM 2.65 36.77 0.261 7.97 4.42 13.44
12/15/2021 7:00:00 AM 2.64 36.752 0.261 7.96 4.49 13.43
12/15/2021 7:15:00 AM 2.63 36.734 0.261 7.95 4.42 13.42
12/15/2021 7:30:00 AM 2.62 36.716 0.261 7.95 4.92 13.4
12/15/2021 7:45:00 AM 2.61 36.698 0.261 7.94 4.98 13.39
12/15/2021 8:00:00 AM 2.6 36.68 0.261 7.94 4.8 13.4
12/15/2021 8:15:00 AM 2.6 36.68 0.261 7.94 4.56 13.41
12/15/2021 8:30:00 AM 2.6 36.68 0.261 7.94 4.62 13.45
12/15/2021 8:45:00 AM 2.6 36.68 0.261 7.95 4.69 13.49
12/15/2021 9:00:00 AM 2.61 36.698 0.261 7.96 4.63 13.56
12/15/2021 9:15:00 AM 2.62 36.716 0.261 7.97 4.09 13.63
12/15/2021 9:30:00 AM 2.63 36.734 0.261 7.99 4.37 13.71
12/15/2021 9:45:00 AM 2.66 36.788 0.261 8.01 4.58 13.8
12/15/2021 10:00:00 AM 2.68 36.824 0.261 8.02 4.3 13.88
12/15/2021 10:15:00 AM 2.71 36.878 0.261 8.05 4.66 13.97
12/15/2021 10:30:00 AM 2.74 36.932 0.261 8.07 4.47 14.07
12/15/2021 10:45:00 AM 2.76 36.968 0.261 8.09 4.42 14.14
12/15/2021 11:00:00 AM 2.78 37.004 0.26 8.11 4.43 14.22
12/15/2021 11:15:00 AM 2.8 37.04 0.26 8.13 4.31 14.28
12/15/2021 11:30:00 AM 2.82 37.076 0.26 8.15 4.32 14.34
12/15/2021 11:45:00 AM 2.83 37.094 0.26 8.16 4.29 14.37
12/15/2021 12:00:00 PM 2.84 37.112 0.26 8.18 4.68 14.41
12/15/2021 12:15:00 PM 2.86 37.148 0.26 8.19 4.53 14.45
12/15/2021 12:30:00 PM 2.87 37.166 0.26 8.2 4.5 14.45
12/15/2021 12:45:00 PM 2.88 37.184 0.26 8.2 4.42 14.45
12/15/2021 1:00:00 PM 2.89 37.202 0.26 8.21 4.01 14.47
12/15/2021 1:15:00 PM 2.9 37.22 0.26 8.21 4.6 14.47
12/15/2021 1:30:00 PM 2.91 37.238 0.26 8.21 4.51 14.46
12/15/2021 1:45:00 PM 2.91 37.238 0.26 8.2 4.44 14.43
12/15/2021 2:00:00 PM 2.92 37.256 0.259 8.19 4.45 14.4
12/15/2021 2:15:00 PM 2.92 37.256 0.259 8.19 4.72 14.37
12/15/2021 2:30:00 PM 2.93 37.274 0.259 8.19 4.31 14.35
12/15/2021 2:45:00 PM 2.93 37.274 0.259 8.18 4.48 14.32
12/15/2021 3:00:00 PM 2.94 37.292 0.259 8.17 4.36 14.31
12/15/2021 3:15:00 PM 2.95 37.31 0.259 8.16 4.46 14.28
12/15/2021 3:30:00 PM 2.96 37.328 0.259 8.16 4.49 14.26
12/15/2021 3:45:00 PM 2.97 37.346 0.259 8.16 4.36 14.24
12/15/2021 4:00:00 PM 2.97 37.346 0.259 8.15 4.33 14.21
12/15/2021 4:15:00 PM 2.98 37.364 0.259 8.14 4.21 14.18
12/15/2021 4:30:00 PM 2.99 37.382 0.259 8.13 4.27 14.13
12/15/2021 4:45:00 PM 3 37.4 0.259 8.12 4.89 14.07
12/15/2021 5:00:00 PM 3.01 37.418 0.259 8.1 4.73 14.04
12/15/2021 5:15:00 PM 3.02 37.436 0.259 8.09 4.15 13.99
12/15/2021 5:30:00 PM 3.03 37.454 0.259 8.08 4.36 13.94
12/15/2021 5:45:00 PM 3.04 37.472 0.26 8.07 4.42 13.91
12/15/2021 6:00:00 PM 3.05 37.49 0.26 8.05 4.43 13.87
12/15/2021 6:15:00 PM 3.06 37.508 0.26 8.05 4.36 13.83
12/15/2021 6:30:00 PM 3.07 37.526 0.26 8.03 4.48 13.8
12/15/2021 6:45:00 PM 3.08 37.544 0.26 8.03 4.32 13.77
12/15/2021 7:00:00 PM 3.08 37.544 0.26 8.02 4.2 13.74
12/15/2021 7:15:00 PM 3.09 37.562 0.26 8.01 4.37 13.71
12/15/2021 7:30:00 PM 3.09 37.562 0.26 8.01 4.23 13.69
12/15/2021 7:45:00 PM 3.1 37.58 0.26 8 4.08 13.67
12/15/2021 8:00:00 PM 3.1 37.58 0.26 7.98 4.34 13.64
12/15/2021 8:15:00 PM 3.11 37.598 0.26 7.99 4.32 13.63
12/15/2021 8:30:00 PM 3.12 37.616 0.26 7.98 4.16 13.61
12/15/2021 8:45:00 PM 3.13 37.634 0.26 7.97 4.08 13.6
12/15/2021 9:00:00 PM 3.14 37.652 0.26 7.97 4.15 13.59
12/15/2021 9:15:00 PM 3.14 37.652 0.26 7.97 4.26 13.57
12/15/2021 9:30:00 PM 3.14 37.652 0.261 7.97 4.64 13.55
12/15/2021 9:45:00 PM 3.14 37.652 0.261 7.97 4.3 13.54
12/15/2021 10:00:00 PM 3.14 37.652 0.261 7.96 4.43 13.53
12/15/2021 10:15:00 PM 3.15 37.67 0.261 7.96 4.24 13.52
12/15/2021 10:30:00 PM 3.14 37.652 0.261 7.96 4.19 13.5
12/15/2021 10:45:00 PM 3.14 37.652 0.261 7.95 4.39 13.49
12/15/2021 11:00:00 PM 3.14 37.652 0.262 7.96 4.51 13.48
12/15/2021 11:15:00 PM 3.15 37.67 0.262 7.95 4.3 13.46
12/15/2021 11:30:00 PM 3.15 37.67 0.262 7.95 4.19 13.46
12/15/2021 11:45:00 PM 3.15 37.67 0.263 7.95 4.07 13.44
12/16/2021 12:00:00 AM 3.16 37.688 0.263 7.95 4.14 13.42
12/16/2021 12:15:00 AM 3.16 37.688 0.263 7.95 4.47 13.41
12/16/2021 12:30:00 AM 3.17 37.706 0.264 7.94 4.16 13.4
12/16/2021 12:45:00 AM 3.18 37.724 0.264 7.94 4.37 13.38
12/16/2021 1:00:00 AM 3.19 37.742 0.264 7.94 4.57 13.36
12/16/2021 1:15:00 AM 3.2 37.76 0.264 7.94 4.59 13.35
12/16/2021 1:30:00 AM 3.2 37.76 0.264 7.94 4.3 13.33
12/16/2021 1:45:00 AM 3.21 37.778 0.264 7.93 4.48 13.32
12/16/2021 2:00:00 AM 3.22 37.796 0.265 7.93 4.45 13.29
12/16/2021 2:15:00 AM 3.24 37.832 0.265 7.93 4.56 13.27
12/16/2021 2:30:00 AM 3.25 37.85 0.265 7.93 4.57 13.26
12/16/2021 2:45:00 AM 3.27 37.886 0.265 7.91 4.29 13.23
12/16/2021 3:00:00 AM 3.29 37.922 0.265 7.92 4.33 13.21
12/16/2021 3:15:00 AM 3.31 37.958 0.265 7.92 4.24 13.19
12/16/2021 3:30:00 AM 3.33 37.994 0.265 7.91 4.54 13.17
12/16/2021 3:45:00 AM 3.35 38.03 0.265 7.91 4.38 13.15
12/16/2021 4:00:00 AM 3.36 38.048 0.265 7.91 4.72 13.13
12/16/2021 4:15:00 AM 3.37 38.066 0.265 7.9 4.51 13.11
12/16/2021 4:30:00 AM 3.39 38.102 0.265 7.9 4.41 13.09
12/16/2021 4:45:00 AM 3.4 38.12 0.265 7.89 4.38 13.06
12/16/2021 5:00:00 AM 3.41 38.138 0.264 7.88 4.85 13.04
12/16/2021 5:15:00 AM 3.43 38.174 0.264 7.89 4.32 13.03
12/16/2021 5:30:00 AM 3.44 38.192 0.264 7.88 4.52 13
12/16/2021 5:45:00 AM 3.45 38.21 0.263 7.88 4.61 12.99
12/16/2021 6:00:00 AM 3.46 38.228 0.263 7.88 4.66 12.98
12/16/2021 6:15:00 AM 3.47 38.246 0.263 7.87 4.79 12.96
12/16/2021 6:30:00 AM 3.49 38.282 0.262 7.86 4.51 12.94
12/16/2021 6:45:00 AM 3.5 38.3 0.262 7.86 4.72 12.93
12/16/2021 7:00:00 AM 3.51 38.318 0.262 7.86 4.9 12.91
12/16/2021 7:15:00 AM 3.52 38.336 0.261 7.86 4.83 12.9
12/16/2021 7:30:00 AM 3.53 38.354 0.261 7.86 4.9 12.88
12/16/2021 7:45:00 AM 3.54 38.372 0.261 7.85 4.87 12.87
12/16/2021 8:00:00 AM 3.55 38.39 0.261 7.85 4.74 12.87
12/16/2021 8:15:00 AM 3.56 38.408 0.26 7.85 5.16 12.87
12/16/2021 8:30:00 AM 3.57 38.426 0.26 7.84 4.81 12.89
12/16/2021 8:45:00 AM 3.59 38.462 0.259 7.86 5.31 12.93
12/16/2021 9:00:00 AM 3.6 38.48 0.259 7.87 5.38 12.97
12/16/2021 9:15:00 AM 3.62 38.516 0.259 7.88 4.9 13.03
12/16/2021 9:30:00 AM 3.65 38.57 0.258 7.89 5.27 13.1
12/16/2021 9:45:00 AM 3.68 38.624 0.258 7.92 5.24 13.18
12/16/2021 10:00:00 AM 3.72 38.696 0.258 7.94 5.13 13.28
12/16/2021 10:15:00 AM 3.77 38.786 0.257 7.97 4.96 13.39
12/16/2021 10:30:00 AM 3.83 38.894 0.257 8 5.52 13.5
12/16/2021 10:45:00 AM 3.88 38.984 0.256 8.03 5.21 13.61
12/16/2021 11:00:00 AM 3.94 39.092 0.256 8.06 5.48 13.7
12/16/2021 11:15:00 AM 4 39.2 0.256 8.08 5.07 13.78
12/16/2021 11:30:00 AM 4.06 39.308 0.255 8.13 5.13 13.86
12/16/2021 11:45:00 AM 4.13 39.434 0.255 8.16 4.91 13.94
12/16/2021 12:00:00 PM 4.21 39.578 0.255 8.19 5.07 14.04
12/16/2021 12:15:00 PM 4.28 39.704 0.254 8.22 4.94 14.12
12/16/2021 12:30:00 PM 4.34 39.812 0.254 8.25 5.35 14.2
12/16/2021 12:45:00 PM 4.4 39.92 0.254 8.29 5.05 14.28
12/16/2021 1:00:00 PM 4.46 40.028 0.253 8.32 4.85 14.35
12/16/2021 1:15:00 PM 4.53 40.154 0.253 8.35 5.34 14.41
12/16/2021 1:30:00 PM 4.59 40.262 0.253 8.38 4.92 14.47
12/16/2021 1:45:00 PM 4.63 40.334 0.253 8.41 4.96 14.51
12/16/2021 2:00:00 PM 4.67 40.406 0.252 8.43 5.12 14.56
12/16/2021 2:15:00 PM 4.7 40.46 0.252 8.44 4.89 14.57
12/16/2021 2:30:00 PM 4.72 40.496 0.252 8.46 5.08 14.58
12/16/2021 2:45:00 PM 4.75 40.55 0.252 8.47 5.12 14.58
12/16/2021 3:00:00 PM 4.78 40.604 0.252 8.48 5.18 14.58
12/16/2021 3:15:00 PM 4.8 40.64 0.252 8.48 5.07 14.56
12/16/2021 3:30:00 PM 4.82 40.676 0.253 8.48 5.23 14.53
12/16/2021 3:45:00 PM 4.85 40.73 0.253 8.48 5.15 14.49
12/16/2021 4:00:00 PM 4.86 40.748 0.253 8.47 4.9 14.43
12/16/2021 4:15:00 PM 4.88 40.784 0.253 8.45 4.82 14.35
12/16/2021 4:30:00 PM 4.9 40.82 0.253 8.44 5.15 14.27
12/16/2021 4:45:00 PM 4.92 40.856 0.254 8.42 5.35 14.19
12/16/2021 5:00:00 PM 4.94 40.892 0.254 8.39 5.44 14.1
12/16/2021 5:15:00 PM 4.95 40.91 0.254 8.38 5.3 14.03
12/16/2021 5:30:00 PM 4.97 40.946 0.254 8.36 5.46 13.96
12/16/2021 5:45:00 PM 4.99 40.982 0.254 8.35 5.51 13.89
12/16/2021 6:00:00 PM 5.02 41.036 0.254 8.33 5.13 13.82
12/16/2021 6:15:00 PM 5.04 41.072 0.254 8.32 5.27 13.76
12/16/2021 6:30:00 PM 5.07 41.126 0.254 8.31 5.16 13.71
12/16/2021 6:45:00 PM 5.09 41.162 0.254 8.3 5.05 13.67
12/16/2021 7:00:00 PM 5.12 41.216 0.254 8.29 5.66 13.63
12/16/2021 7:15:00 PM 5.16 41.288 0.254 8.28 5.1 13.58
12/16/2021 7:30:00 PM 5.2 41.36 0.254 8.28 4.98 13.54
12/16/2021 7:45:00 PM 5.24 41.432 0.254 8.27 5.23 13.51
12/16/2021 8:00:00 PM 5.27 41.486 0.254 8.26 5.33 13.47
12/16/2021 8:15:00 PM 5.31 41.558 0.254 8.26 5.24 13.43
12/16/2021 8:30:00 PM 5.34 41.612 0.254 8.25 5.35 13.4
12/16/2021 8:45:00 PM 5.37 41.666 0.255 8.25 5.14 13.36
12/16/2021 9:00:00 PM 5.4 41.72 0.255 8.24 5.04 13.33
12/16/2021 9:15:00 PM 5.42 41.756 0.255 8.24 5.35 13.3
12/16/2021 9:30:00 PM 5.44 41.792 0.255 8.23 5.09 13.26
12/16/2021 9:45:00 PM 5.46 41.828 0.255 8.22 5.45 13.23
12/16/2021 10:00:00 PM 5.48 41.864 0.255 8.22 5.19 13.2
12/16/2021 10:15:00 PM 5.51 41.918 0.255 8.2 6.92 13.16
12/16/2021 10:30:00 PM 5.53 41.954 0.255 8.21 6.3 13.13
12/16/2021 10:45:00 PM 5.55 41.99 0.256 8.2 5.57 13.1
12/16/2021 11:00:00 PM 5.58 42.044 0.256 8.2 4.99 13.06
12/16/2021 11:15:00 PM 5.61 42.098 0.256 8.19 5.15 13.03
12/16/2021 11:30:00 PM 5.64 42.152 0.256 8.19 4.78 12.99
12/16/2021 11:45:00 PM 5.66 42.188 0.256 8.18 5.11 12.96
12/17/2021 12:00:00 AM 5.68 42.224 0.256 8.18 4.86 12.92
12/17/2021 12:15:00 AM 5.7 42.26 0.256 8.18 5.14 12.89
12/17/2021 12:30:00 AM 5.72 42.296 0.256 8.16 4.87 12.85
12/17/2021 12:45:00 AM 5.74 42.332 0.255 8.17 4.93 12.81
12/17/2021 1:00:00 AM 5.75 42.35 0.255 8.16 5.28 12.78
12/17/2021 1:15:00 AM 5.77 42.386 0.255 8.16 4.91 12.74
12/17/2021 1:30:00 AM 5.78 42.404 0.255 8.14 4.92 12.7
12/17/2021 1:45:00 AM 5.78 42.404 0.256 8.14 5.28 12.66
12/17/2021 2:00:00 AM 5.79 42.422 0.256 8.13 5.63 12.62
12/17/2021 2:15:00 AM 5.78 42.404 0.256 8.12 5.29 12.58
12/17/2021 2:30:00 AM 5.78 42.404 0.256 8.11 5.35 12.54
12/17/2021 2:45:00 AM 5.77 42.386 0.256 8.1 5.43 12.51
12/17/2021 3:00:00 AM 5.76 42.368 0.256 8.09 5.69 12.48
12/17/2021 3:15:00 AM 5.75 42.35 0.256 8.08 5.24 12.44
12/17/2021 3:30:00 AM 5.73 42.314 0.256 8.06 6.2 12.41
12/17/2021 3:45:00 AM 5.72 42.296 0.256 8.06 5.76 12.38
12/17/2021 4:00:00 AM 5.7 42.26 0.256 8.05 5.16 12.35
12/17/2021 4:15:00 AM 5.69 42.242 0.256 8.04 5.63 12.33
12/17/2021 4:30:00 AM 5.67 42.206 0.256 8.04 5.48 12.3
12/17/2021 4:45:00 AM 5.65 42.17 0.256 8.03 5.35 12.28
12/17/2021 5:00:00 AM 5.64 42.152 0.256 8.02 5.35 12.25
12/17/2021 5:15:00 AM 5.62 42.116 0.256 8.01 5.23 12.23
12/17/2021 5:30:00 AM 5.6 42.08 0.256 8 5.46 12.21
12/17/2021 5:45:00 AM 5.58 42.044 0.256 7.99 5.11 12.18
12/17/2021 6:00:00 AM 5.57 42.026 0.255 7.98 5.33 12.17
12/17/2021 6:15:00 AM 5.55 41.99 0.256 7.98 5.2 12.15
12/17/2021 6:30:00 AM 5.53 41.954 0.256 7.97 5.22 12.13
12/17/2021 6:45:00 AM 5.51 41.918 0.256 7.96 4.89 12.12
12/17/2021 7:00:00 AM 5.5 41.9 0.256 7.95 5.08 12.1
12/17/2021 7:15:00 AM 5.48 41.864 0.256 7.95 5.53 12.09
12/17/2021 7:30:00 AM 5.47 41.846 0.256 7.94 5.15 12.08
12/17/2021 7:45:00 AM 5.45 41.81 0.256 7.94 5.26 12.07
12/17/2021 8:00:00 AM 5.44 41.792 0.256 7.93 5.27 12.07
12/17/2021 8:15:00 AM 5.44 41.792 0.256 7.93 4.68 12.08
12/17/2021 8:30:00 AM 5.42 41.756 0.256 7.93 5.06 12.09
12/17/2021 8:45:00 AM 5.42 41.756 0.255 7.94 4.97 12.13
12/17/2021 9:00:00 AM 5.41 41.738 0.255 7.94 4.95 12.17
12/17/2021 9:15:00 AM 5.41 41.738 0.255 7.95 5.01 12.23
12/17/2021 9:30:00 AM 5.41 41.738 0.255 7.96 5.13 12.3
12/17/2021 9:45:00 AM 5.42 41.756 0.255 7.98 4.76 12.37
12/17/2021 10:00:00 AM 5.43 41.774 0.255 8 5.13 12.47
12/17/2021 10:15:00 AM 5.43 41.774 0.254 8.03 4.7 12.58
12/17/2021 10:30:00 AM 5.45 41.81 0.254 8.04 4.94 12.67
12/17/2021 10:45:00 AM 5.46 41.828 0.254 8.08 4.77 12.77
12/17/2021 11:00:00 AM 5.47 41.846 0.254 8.11 4.73 12.87
12/17/2021 11:15:00 AM 5.48 41.864 0.254 8.13 4.57 12.95
12/17/2021 11:30:00 AM 5.49 41.882 0.254 8.15 4.55 13.02
12/17/2021 11:45:00 AM 5.5 41.9 0.254 8.18 4.58 13.1
12/17/2021 12:00:00 PM 5.51 41.918 0.254 8.2 4.69 13.17
12/17/2021 12:15:00 PM 5.52 41.936 0.254 8.23 4.63 13.24
12/17/2021 12:30:00 PM 5.52 41.936 0.254 8.25 4.54 13.31
12/17/2021 12:45:00 PM 5.53 41.954 0.253 8.27 4.6 13.37
12/17/2021 1:00:00 PM 5.54 41.972 0.253 8.29 4.8 13.43
12/17/2021 1:15:00 PM 5.54 41.972 0.253 8.31 4.91 13.49
12/17/2021 1:30:00 PM 5.55 41.99 0.253 8.33 4.72 13.55
12/17/2021 1:45:00 PM 5.55 41.99 0.253 8.36 4.85 13.61
12/17/2021 2:00:00 PM 5.55 41.99 0.253 8.37 4.43 13.65
12/17/2021 2:15:00 PM 5.55 41.99 0.253 8.38 4.57 13.69
12/17/2021 2:30:00 PM 5.55 41.99 0.253 8.4 4.93 13.73
12/17/2021 2:45:00 PM 5.54 41.972 0.252 8.42 4.76 13.76
12/17/2021 3:00:00 PM 5.54 41.972 0.252 8.42 4.54 13.79
12/17/2021 3:15:00 PM 5.53 41.954 0.252 8.44 4.72 13.82
12/17/2021 3:30:00 PM 5.53 41.954 0.252 8.44 4.51 13.83
12/17/2021 3:45:00 PM 5.52 41.936 0.252 8.45 4.72 13.85
12/17/2021 4:00:00 PM 5.51 41.918 0.252 8.45 4.53 13.84
12/17/2021 4:15:00 PM 5.5 41.9 0.252 8.45 5.08 13.82
12/17/2021 4:30:00 PM 5.49 41.882 0.252 8.44 4.57 13.78
12/17/2021 4:45:00 PM 5.48 41.864 0.252 8.43 4.78 13.74
12/17/2021 5:00:00 PM 5.47 41.846 0.252 8.42 5.07 13.71
12/17/2021 5:15:00 PM 5.46 41.828 0.252 8.42 4.81 13.68
12/17/2021 5:30:00 PM 5.46 41.828 0.252 8.41 4.85 13.65
12/17/2021 5:45:00 PM 5.45 41.81 0.252 8.4 4.61 13.61
12/17/2021 6:00:00 PM 5.44 41.792 0.252 8.39 5.6 13.57
12/17/2021 6:15:00 PM 5.43 41.774 0.252 8.37 5.8 13.52
12/17/2021 6:30:00 PM 5.42 41.756 0.252 8.36 4.89 13.48
12/17/2021 6:45:00 PM 5.41 41.738 0.252 8.35 5.08 13.45
12/17/2021 7:00:00 PM 5.4 41.72 0.252 8.34 4.82 13.41
12/17/2021 7:15:00 PM 5.38 41.684 0.252 8.33 4.81 13.38
12/17/2021 7:30:00 PM 5.37 41.666 0.252 8.33 4.94 13.37
12/17/2021 7:45:00 PM 5.35 41.63 0.252 8.32 5.26 13.34
12/17/2021 8:00:00 PM 5.33 41.594 0.252 8.32 4.98 13.32
12/17/2021 8:15:00 PM 5.32 41.576 0.252 8.31 4.8 13.3
12/17/2021 8:30:00 PM 5.3 41.54 0.253 8.3 5.1 13.28
12/17/2021 8:45:00 PM 5.28 41.504 0.253 8.3 4.98 13.26
12/17/2021 9:00:00 PM 5.26 41.468 0.253 8.28 4.68 13.23
12/17/2021 9:15:00 PM 5.24 41.432 0.253 8.28 4.9 13.21
12/17/2021 9:30:00 PM 5.22 41.396 0.253 8.28 5.34 13.19
12/17/2021 9:45:00 PM 5.21 41.378 0.254 8.26 5.24 13.16
12/17/2021 10:00:00 PM 5.19 41.342 0.254 8.26 4.79 13.14
12/17/2021 10:15:00 PM 5.17 41.306 0.254 8.25 4.92 13.12
12/17/2021 10:30:00 PM 5.16 41.288 0.254 8.24 4.86 13.1
12/17/2021 10:45:00 PM 5.14 41.252 0.254 8.24 5.01 13.08
12/17/2021 11:00:00 PM 5.13 41.234 0.255 8.23 4.92 13.06
12/17/2021 11:15:00 PM 5.12 41.216 0.255 8.22 4.98 13.05
12/17/2021 11:30:00 PM 5.1 41.18 0.255 8.22 4.77 13.03
12/17/2021 11:45:00 PM 5.08 41.144 0.255 8.21 5.11 13.01
12/18/2021 12:00:00 AM 5.07 41.126 0.255 8.21 4.82 13
12/18/2021 12:15:00 AM 5.06 41.108 0.256 8.2 5.24 12.99
12/18/2021 12:30:00 AM 5.04 41.072 0.256 8.19 4.74 12.96
12/18/2021 12:45:00 AM 5.03 41.054 0.256 8.19 4.72 12.95
12/18/2021 1:00:00 AM 5.02 41.036 0.256 8.18 4.77 12.93
12/18/2021 1:15:00 AM 5 41 0.256 8.18 4.91 12.91
12/18/2021 1:30:00 AM 4.99 40.982 0.257 8.17 4.84 12.89
12/18/2021 1:45:00 AM 4.98 40.964 0.257 8.17 5.1 12.87
12/18/2021 2:00:00 AM 4.97 40.946 0.257 8.16 4.72 12.86
12/18/2021 2:15:00 AM 4.96 40.928 0.258 8.16 4.92 12.83
12/18/2021 2:30:00 AM 4.96 40.928 0.258 8.14 4.67 12.82
12/18/2021 2:45:00 AM 4.95 40.91 0.258 8.15 4.69 12.8
12/18/2021 3:00:00 AM 4.94 40.892 0.258 8.14 4.53 12.77
12/18/2021 3:15:00 AM 4.93 40.874 0.259 8.13 4.73 12.75
12/18/2021 3:30:00 AM 4.93 40.874 0.259 8.12 4.62 12.72
12/18/2021 3:45:00 AM 4.92 40.856 0.259 8.11 4.63 12.71
12/18/2021 4:00:00 AM 4.91 40.838 0.259 8.11 4.52 12.69
12/18/2021 4:15:00 AM 4.9 40.82 0.26 8.1 4.77 12.66
12/18/2021 4:30:00 AM 4.89 40.802 0.26 8.09 4.71 12.64
12/18/2021 4:45:00 AM 4.87 40.766 0.26 8.08 4.84 12.62
12/18/2021 5:00:00 AM 4.86 40.748 0.26 8.07 4.86 12.6
12/18/2021 5:15:00 AM 4.85 40.73 0.26 8.06 4.59 12.58
12/18/2021 5:30:00 AM 4.84 40.712 0.26 8.05 4.92 12.56
12/18/2021 5:45:00 AM 4.83 40.694 0.26 8.03 4.56 12.54
12/18/2021 6:00:00 AM 4.81 40.658 0.26 8.03 4.74 12.53
12/18/2021 6:15:00 AM 4.8 40.64 0.26 8.02 4.55 12.5
12/18/2021 6:30:00 AM 4.78 40.604 0.26 8.01 5.14 12.49
12/18/2021 6:45:00 AM 4.76 40.568 0.26 8.01 4.41 12.47
12/18/2021 7:00:00 AM 4.75 40.55 0.26 8 4.85 12.45
12/18/2021 7:15:00 AM 4.73 40.514 0.26 7.99 5.03 12.44
12/18/2021 7:30:00 AM 4.72 40.496 0.261 7.98 4.86 12.42
12/18/2021 7:45:00 AM 4.7 40.46 0.261 7.97 4.94 12.41
12/18/2021 8:00:00 AM 4.69 40.442 0.261 7.97 5 12.41
12/18/2021 8:15:00 AM 4.67 40.406 0.261 7.96 4.98 12.41
12/18/2021 8:30:00 AM 4.66 40.388 0.261 7.96 4.8 12.43
12/18/2021 8:45:00 AM 4.65 40.37 0.261 7.96 4.69 12.45
12/18/2021 9:00:00 AM 4.63 40.334 0.261 7.96 4.75 12.47
12/18/2021 9:15:00 AM 4.62 40.316 0.26 7.97 4.65 12.51
12/18/2021 9:30:00 AM 4.61 40.298 0.26 7.96 4.81 12.55
12/18/2021 9:45:00 AM 4.6 40.28 0.261 7.97 4.74 12.58
12/18/2021 10:00:00 AM 4.59 40.262 0.26 7.97 4.58 12.63
12/18/2021 10:15:00 AM 4.57 40.226 0.26 7.99 4.36 12.67
12/18/2021 10:30:00 AM 4.56 40.208 0.26 7.99 4.41 12.7
12/18/2021 10:45:00 AM 4.55 40.19 0.26 7.98 4.25 12.75
12/18/2021 11:00:00 AM 4.54 40.172 0.26 8.01 4.45 12.81
12/18/2021 11:15:00 AM 4.53 40.154 0.259 8.01 4.35 12.87
12/18/2021 11:30:00 AM 4.53 40.154 0.259 8.04 4.05 12.93
12/18/2021 11:45:00 AM 4.52 40.136 0.26 8.05 4.28 13
12/18/2021 12:00:00 PM 4.52 40.136 0.26 8.07 4.07 13.09
12/18/2021 12:15:00 PM 4.52 40.136 0.26 8.09 3.98 13.15
12/18/2021 12:30:00 PM 4.52 40.136 0.26 8.1 4.24 13.21
12/18/2021 12:45:00 PM 4.51 40.118 0.26 8.12 4.24 13.27
12/18/2021 1:00:00 PM 4.5 40.1 0.26 8.13 4.23 13.32
12/18/2021 1:15:00 PM 4.49 40.082 0.26 8.14 4.15 13.34
12/18/2021 1:30:00 PM 4.49 40.082 0.26 8.15 4.2 13.38
12/18/2021 1:45:00 PM 4.48 40.064 0.26 8.15 3.91 13.38
12/18/2021 2:00:00 PM 4.48 40.064 0.26 8.16 4.11 13.4
12/18/2021 2:15:00 PM 4.47 40.046 0.26 8.17 3.95 13.42
12/18/2021 2:30:00 PM 4.47 40.046 0.26 8.15 4.25 13.41
12/18/2021 2:45:00 PM 4.46 40.028 0.26 8.16 4.12 13.4
12/18/2021 3:00:00 PM 4.46 40.028 0.26 8.16 4.2 13.39
12/18/2021 3:15:00 PM 4.45 40.01 0.26 8.15 4.19 13.37
12/18/2021 3:30:00 PM 4.45 40.01 0.261 8.14 4.09 13.35
12/18/2021 3:45:00 PM 4.44 39.992 0.261 8.14 4.33 13.33
12/18/2021 4:00:00 PM 4.44 39.992 0.261 8.14 3.93 13.31
12/18/2021 4:15:00 PM 4.44 39.992 0.261 8.12 3.92 13.29
12/18/2021 4:30:00 PM 4.43 39.974 0.261 8.12 4.16 13.26
12/18/2021 4:45:00 PM 4.43 39.974 0.26 8.11 3.81 13.22
12/18/2021 5:00:00 PM 4.43 39.974 0.26 8.1 4.2 13.18
12/18/2021 5:15:00 PM 4.42 39.956 0.26 8.09 4.15 13.14
12/18/2021 5:30:00 PM 4.42 39.956 0.26 8.08 4.21 13.1
12/18/2021 5:45:00 PM 4.41 39.938 0.26 8.07 4.13 13.06
12/18/2021 6:00:00 PM 4.41 39.938 0.26 8.05 3.96 13.03
12/18/2021 6:15:00 PM 4.41 39.938 0.26 8.04 3.85 13.01
12/18/2021 6:30:00 PM 4.41 39.938 0.261 8.02 4.09 12.98
12/18/2021 6:45:00 PM 4.4 39.92 0.261 8.03 4.11 12.96
12/18/2021 7:00:00 PM 4.4 39.92 0.262 8.03 4.11 12.94
12/18/2021 7:15:00 PM 4.4 39.92 0.262 8.01 4.23 12.93
12/18/2021 7:30:00 PM 4.4 39.92 0.263 8.01 4.04 12.92
12/18/2021 7:45:00 PM 4.4 39.92 0.264 8.01 4.3 12.91
12/18/2021 8:00:00 PM 4.4 39.92 0.264 8.01 4.13 12.9
12/18/2021 8:15:00 PM 4.39 39.902 0.265 8 4.12 12.89
12/18/2021 8:30:00 PM 4.39 39.902 0.265 8 4.53 12.87
12/18/2021 8:45:00 PM 4.39 39.902 0.265 8 4.04 12.87
12/18/2021 9:00:00 PM 4.39 39.902 0.265 7.99 4.21 12.86
12/18/2021 9:15:00 PM 4.39 39.902 0.265 7.99 4.21 12.85
12/18/2021 9:30:00 PM 4.38 39.884 0.265 7.99 4.38 12.84
12/18/2021 9:45:00 PM 4.38 39.884 0.265 7.98 4.14 12.83
12/18/2021 10:00:00 PM 4.38 39.884 0.265 7.98 4.43 12.82
12/18/2021 10:15:00 PM 4.38 39.884 0.265 7.98 4.14 12.81
12/18/2021 10:30:00 PM 4.38 39.884 0.265 7.98 4.43 12.81
12/18/2021 10:45:00 PM 4.38 39.884 0.266 7.97 4.28 12.8
12/18/2021 11:00:00 PM 4.37 39.866 0.265 7.97 4.18 12.79
12/18/2021 11:15:00 PM 4.37 39.866 0.265 7.97 4.3 12.79
12/18/2021 11:30:00 PM 4.36 39.848 0.265 7.97 4.29 12.78
12/18/2021 11:45:00 PM 4.36 39.848 0.265 7.96 4.42 12.77
12/19/2021 12:00:00 AM 4.36 39.848 0.265 7.96 4.52 12.77
12/19/2021 12:15:00 AM 4.35 39.83 0.265 7.96 7.21 12.76
12/19/2021 12:30:00 AM 4.35 39.83 0.265 7.96 4.48 12.75
12/19/2021 12:45:00 AM 4.34 39.812 0.265 7.95 4.45 12.75
12/19/2021 1:00:00 AM 4.33 39.794 0.265 7.96 4.51 12.74
12/19/2021 1:15:00 AM 4.32 39.776 0.264 7.96 4.48 12.74
12/19/2021 1:30:00 AM 4.31 39.758 0.264 7.96 4.54 12.73
12/19/2021 1:45:00 AM 4.3 39.74 0.264 7.95 4.39 12.72
12/19/2021 2:00:00 AM 4.28 39.704 0.264 7.95 4.34 12.72
12/19/2021 2:15:00 AM 4.27 39.686 0.264 7.95 4.58 12.71
12/19/2021 2:30:00 AM 4.26 39.668 0.264 7.95 4.53 12.7
12/19/2021 2:45:00 AM 4.25 39.65 0.263 7.95 4.9 12.69
12/19/2021 3:00:00 AM 4.24 39.632 0.263 7.94 4.57 12.68
12/19/2021 3:15:00 AM 4.23 39.614 0.262 7.94 4.68 12.67
12/19/2021 3:30:00 AM 4.22 39.596 0.262 7.94 4.64 12.66
12/19/2021 3:45:00 AM 4.2 39.56 0.261 7.94 4.88 12.65
12/19/2021 4:00:00 AM 4.18 39.524 0.261 7.93 4.85 12.64
12/19/2021 4:15:00 AM 4.17 39.506 0.26 7.93 4.77 12.63
12/19/2021 4:30:00 AM 4.15 39.47 0.26 7.92 5.11 12.62
12/19/2021 4:45:00 AM 4.15 39.47 0.259 7.92 5.27 12.61
12/19/2021 5:00:00 AM 4.13 39.434 0.259 7.92 5.72 12.6
12/19/2021 5:15:00 AM 4.12 39.416 0.258 7.91 4.86 12.58
12/19/2021 5:30:00 AM 4.11 39.398 0.257 7.91 5.83 12.58
12/19/2021 5:45:00 AM 4.1 39.38 0.257 7.9 4.99 12.56
12/19/2021 6:00:00 AM 4.08 39.344 0.257 7.9 5.02 12.56
12/19/2021 6:15:00 AM 4.06 39.308 0.256 7.9 5.02 12.55
12/19/2021 6:30:00 AM 4.05 39.29 0.256 7.89 5.18 12.54
12/19/2021 6:45:00 AM 4.02 39.236 0.256 7.89 5.28 12.54
12/19/2021 7:00:00 AM 4 39.2 0.255 7.88 5.15 12.53
12/19/2021 7:15:00 AM 3.98 39.164 0.255 7.88 5.77 12.53
12/19/2021 7:30:00 AM 3.96 39.128 0.255 7.88 5.29 12.53
12/19/2021 7:45:00 AM 3.94 39.092 0.255 7.87 5.49 12.53
12/19/2021 8:00:00 AM 3.91 39.038 0.254 7.87 5.38 12.54
12/19/2021 8:15:00 AM 3.89 39.002 0.254 7.87 5.84 12.54
12/19/2021 8:30:00 AM 3.87 38.966 0.254 7.87 5.83 12.56
12/19/2021 8:45:00 AM 3.85 38.93 0.254 7.87 5.64 12.59
12/19/2021 9:00:00 AM 3.84 38.912 0.254 7.88 5.82 12.62
12/19/2021 9:15:00 AM 3.83 38.894 0.254 7.88 5.61 12.66
12/19/2021 9:30:00 AM 3.82 38.876 0.254 7.89 6.28 12.72
12/19/2021 9:45:00 AM 3.81 38.858 0.254 7.9 5.93 12.79
12/19/2021 10:00:00 AM 3.81 38.858 0.254 7.92 6.18 12.86
12/19/2021 10:15:00 AM 3.81 38.858 0.254 7.94 5.83 12.95
12/19/2021 10:30:00 AM 3.8 38.84 0.255 7.96 5.87 13.03
12/19/2021 10:45:00 AM 3.79 38.822 0.256 7.98 5.7 13.14
12/19/2021 11:00:00 AM 3.79 38.822 0.256 8.01 6.11 13.22
12/19/2021 11:15:00 AM 3.79 38.822 0.256 8.04 5.88 13.33
12/19/2021 11:30:00 AM 3.79 38.822 0.257 8.06 6.09 13.43
12/19/2021 11:45:00 AM 3.81 38.858 0.257 8.1 6.18 13.54
12/19/2021 12:00:00 PM 3.83 38.894 0.257 8.13 5.99 13.65
12/19/2021 12:15:00 PM 3.85 38.93 0.257 8.17 5.63 13.76
12/19/2021 12:30:00 PM 3.87 38.966 0.257 8.2 6.11 13.86
12/19/2021 12:45:00 PM 3.88 38.984 0.256 8.23 5.97 13.92
12/19/2021 1:00:00 PM 3.88 38.984 0.256 8.24 6.07 13.95
12/19/2021 1:15:00 PM 3.86 38.948 0.256 8.24 6.06 13.98
12/19/2021 1:30:00 PM 3.84 38.912 0.256 8.26 6.06 14
12/19/2021 1:45:00 PM 3.82 38.876 0.255 8.27 6.44 14.01
12/19/2021 2:00:00 PM 3.79 38.822 0.255 8.27 6.45 14.01
12/19/2021 2:15:00 PM 3.78 38.804 0.255 8.27 6.58 14.02
12/19/2021 2:30:00 PM 3.76 38.768 0.254 8.27 6.99 14.02
12/19/2021 2:45:00 PM 3.74 38.732 0.254 8.27 7 14.02
12/19/2021 3:00:00 PM 3.72 38.696 0.254 8.27 7.09 14.01
12/19/2021 3:15:00 PM 3.69 38.642 0.254 8.26 7.25 13.99
12/19/2021 3:30:00 PM 3.67 38.606 0.254 8.25 8.11 13.96
12/19/2021 3:45:00 PM 3.64 38.552 0.254 8.24 8.49 13.93
12/19/2021 4:00:00 PM 3.61 38.498 0.254 8.23 8.33 13.9
12/19/2021 4:15:00 PM 3.59 38.462 0.254 8.21 8.64 13.87
12/19/2021 4:30:00 PM 3.57 38.426 0.254 8.2 8.08 13.83
12/19/2021 4:45:00 PM 3.55 38.39 0.255 8.19 8.6 13.79
12/19/2021 5:00:00 PM 3.53 38.354 0.255 8.16 10.08 13.75
12/19/2021 5:15:00 PM 3.51 38.318 0.255 8.16 8.65 13.71
12/19/2021 5:30:00 PM 3.48 38.264 0.255 8.15 9.91 13.69
12/19/2021 5:45:00 PM 3.46 38.228 0.255 8.14 9.04 13.67
12/19/2021 6:00:00 PM 3.44 38.192 0.255 8.13 9.26 13.65
12/19/2021 6:15:00 PM 3.41 38.138 0.255 8.13 9.26 13.64
12/19/2021 6:30:00 PM 3.39 38.102 0.255 8.12 9.95 13.63
12/19/2021 6:45:00 PM 3.37 38.066 0.255 8.12 8.83 13.63
12/19/2021 7:00:00 PM 3.35 38.03 0.256 8.1 9.51 13.63
12/19/2021 7:15:00 PM 3.32 37.976 0.256 8.11 9.31 13.63
12/19/2021 7:30:00 PM 3.3 37.94 0.256 8.11 9.6 13.62
12/19/2021 7:45:00 PM 3.28 37.904 0.256 8.11 9.22 13.62
12/19/2021 8:00:00 PM 3.25 37.85 0.257 8.1 9.07 13.61
12/19/2021 8:15:00 PM 3.22 37.796 0.257 8.1 9.57 13.61
12/19/2021 8:30:00 PM 3.19 37.742 0.257 8.08 9.08 13.6
12/19/2021 8:45:00 PM 3.15 37.67 0.257 8.1 8.56 13.6
12/19/2021 9:00:00 PM 3.11 37.598 0.257 8.09 9.99 13.59
12/19/2021 9:15:00 PM 3.08 37.544 0.257 8.09 8.69 13.59
12/19/2021 9:30:00 PM 3.05 37.49 0.257 8.09 8.82 13.59
12/19/2021 9:45:00 PM 3.02 37.436 0.257 8.08 9.24 13.58
12/19/2021 10:00:00 PM 2.98 37.364 0.257 8.07 8.77 13.58
12/19/2021 10:15:00 PM 2.95 37.31 0.256 8.08 8.35 13.58
12/19/2021 10:30:00 PM 2.92 37.256 0.256 8.07 8.29 13.57
12/19/2021 10:45:00 PM 2.9 37.22 0.256 8.07 8.59 13.57
12/19/2021 11:00:00 PM 2.88 37.184 0.256 8.06 8.58 13.57
12/19/2021 11:15:00 PM 2.86 37.148 0.255 8.07 8.48 13.56
12/19/2021 11:30:00 PM 2.83 37.094 0.255 8.06 8.28 13.56
12/19/2021 11:45:00 PM 2.81 37.058 0.255 8.06 8.01 13.55
12/20/2021 12:00:00 AM 2.79 37.022 0.255 8.05 8.08 13.54
12/20/2021 12:15:00 AM 2.76 36.968 0.254 8.06 7.72 13.54
12/20/2021 12:30:00 AM 2.73 36.914 0.254 8.05 8 13.53
12/20/2021 12:45:00 AM 2.71 36.878 0.254 8.05 7.86 13.53
12/20/2021 1:00:00 AM 2.69 36.842 0.254 8.03 7.62 13.53
12/20/2021 1:15:00 AM 2.66 36.788 0.255 8.04 7.55 13.52
12/20/2021 1:30:00 AM 2.64 36.752 0.255 8.03 7.57 13.51
12/20/2021 1:45:00 AM 2.62 36.716 0.255 8.03 7.64 13.5
12/20/2021 2:00:00 AM 2.59 36.662 0.255 8.02 8.02 13.49
12/20/2021 2:15:00 AM 2.57 36.626 0.255 8.01 7.25 13.48
12/20/2021 2:30:00 AM 2.54 36.572 0.255 8.01 7.52 13.47
12/20/2021 2:45:00 AM 2.52 36.536 0.255 8 7.11 13.46
12/20/2021 3:00:00 AM 2.49 36.482 0.255 8 6.97 13.45
12/20/2021 3:15:00 AM 2.46 36.428 0.255 8 7.51 13.45
12/20/2021 3:30:00 AM 2.44 36.392 0.255 7.98 7.15 13.44
12/20/2021 3:45:00 AM 2.4 36.32 0.255 7.98 7.2 13.43
12/20/2021 4:00:00 AM 2.37 36.266 0.255 7.98 7.49 13.42
12/20/2021 4:15:00 AM 2.35 36.23 0.255 7.97 7.32 13.42
12/20/2021 4:30:00 AM 2.32 36.176 0.255 7.96 7.22 13.42
12/20/2021 4:45:00 AM 2.29 36.122 0.255 7.96 7.58 13.42
12/20/2021 5:00:00 AM 2.26 36.068 0.255 7.95 7.25 13.41
12/20/2021 5:15:00 AM 2.23 36.014 0.255 7.95 7.21 13.41
12/20/2021 5:30:00 AM 2.2 35.96 0.255 7.94 7.68 13.39
12/20/2021 5:45:00 AM 2.17 35.906 0.255 7.93 7.18 13.39
12/20/2021 6:00:00 AM 2.14 35.852 0.255 7.93 6.94 13.39
12/20/2021 6:15:00 AM 2.11 35.798 0.255 7.92 7.47 13.38
12/20/2021 6:30:00 AM 2.08 35.744 0.255 7.92 7.51 13.38
12/20/2021 6:45:00 AM 2.06 35.708 0.255 7.91 6.81 13.39
12/20/2021 7:00:00 AM 2.03 35.654 0.255 7.91 7.06 13.39
12/20/2021 7:15:00 AM 2 35.6 0.255 7.91 7.78 13.39
12/20/2021 7:30:00 AM 1.97 35.546 0.254 7.9 7.75 13.39
12/20/2021 7:45:00 AM 1.94 35.492 0.254 7.9 8.09 13.4
12/20/2021 8:00:00 AM 1.92 35.456 0.254 7.9 7.78 13.41
12/20/2021 8:15:00 AM 1.9 35.42 0.254 7.9 7.42 13.43
12/20/2021 8:30:00 AM 1.89 35.402 0.254 7.9 7.88 13.46
12/20/2021 8:45:00 AM 1.87 35.366 0.254 7.9 7.99 13.5
12/20/2021 9:00:00 AM 1.86 35.348 0.254 7.91 7.87 13.55
12/20/2021 9:15:00 AM 1.85 35.33 0.254 7.91 8.34 13.59
12/20/2021 9:30:00 AM 1.84 35.312 0.254 7.93 8.2 13.64
12/20/2021 9:45:00 AM 1.83 35.294 0.254 7.93 7.69 13.7
12/20/2021 10:00:00 AM 1.84 35.312 0.253 7.95 8.05 13.77
12/20/2021 10:15:00 AM 1.87 35.366 0.253 7.97 8.12 13.86
12/20/2021 10:30:00 AM 1.89 35.402 0.253 7.99 8.13 13.95
12/20/2021 10:45:00 AM 1.91 35.438 0.253 8 8.21 14.05
12/20/2021 11:00:00 AM 1.95 35.51 0.253 8.04 7.68 14.14
12/20/2021 11:15:00 AM 1.95 35.51 0.253 8.05 8.22 14.2
12/20/2021 11:30:00 AM 1.95 35.51 0.253 8.06 7.71 14.26
12/20/2021 11:45:00 AM 1.95 35.51 0.253 8.09 7.64 14.31
12/20/2021 12:00:00 PM 1.94 35.492 0.253 8.1 9.2 14.34
12/20/2021 12:15:00 PM 1.95 35.51 0.253 8.11 8.41 14.39
12/20/2021 12:30:00 PM 1.96 35.528 0.252 8.12 8.92 14.46
12/20/2021 12:45:00 PM 1.98 35.564 0.252 8.13 8.42 14.51
12/20/2021 1:00:00 PM 2 35.6 0.252 8.16 8.57 14.56
12/20/2021 1:15:00 PM 2 35.6 0.252 8.17 11.09 14.6
12/20/2021 1:30:00 PM 2.01 35.618 0.252 8.19 8.54 14.64
12/20/2021 1:45:00 PM 2.02 35.636 0.252 8.2 8.14 14.68
12/20/2021 2:00:00 PM 2.03 35.654 0.252 8.22 8.85 14.72
12/20/2021 2:15:00 PM 2.04 35.672 0.251 8.22 7.84 14.76
12/20/2021 2:30:00 PM 2.04 35.672 0.251 8.25 8.12 14.8
12/20/2021 2:45:00 PM 2.04 35.672 0.251 8.26 8.4 14.83
12/20/2021 3:00:00 PM 2.04 35.672 0.251 8.26 8.62 14.84
12/20/2021 3:15:00 PM 2.03 35.654 0.251 8.27 8.61 14.84
12/20/2021 3:30:00 PM 2.03 35.654 0.251 8.27 7.75 14.83
12/20/2021 3:45:00 PM 2.02 35.636 0.251 8.27 8.18 14.83
12/20/2021 4:00:00 PM 2.01 35.618 0.251 8.27 8.04 14.82
12/20/2021 4:15:00 PM 2.01 35.618 0.251 8.26 7.93 14.82
12/20/2021 4:30:00 PM 2 35.6 0.251 8.25 7.86 14.8
12/20/2021 4:45:00 PM 1.99 35.582 0.251 8.25 8.02 14.77
12/20/2021 5:00:00 PM 1.98 35.564 0.251 8.24 7.47 14.74
12/20/2021 5:15:00 PM 1.97 35.546 0.251 8.23 7.99 14.71
12/20/2021 5:30:00 PM 1.96 35.528 0.251 8.22 7.5 14.68
12/20/2021 5:45:00 PM 1.95 35.51 0.251 8.21 7.87 14.64
12/20/2021 6:00:00 PM 1.94 35.492 0.251 8.2 7.71 14.62
12/20/2021 6:15:00 PM 1.93 35.474 0.251 8.19 7.59 14.59
12/20/2021 6:30:00 PM 1.93 35.474 0.251 8.19 7.89 14.57
12/20/2021 6:45:00 PM 1.92 35.456 0.251 8.18 7.65 14.55
12/20/2021 7:00:00 PM 1.91 35.438 0.251 8.17 7.2 14.53
12/20/2021 7:15:00 PM 1.91 35.438 0.251 8.17 7.58 14.51
12/20/2021 7:30:00 PM 1.9 35.42 0.251 8.17 7.81 14.5
12/20/2021 7:45:00 PM 1.89 35.402 0.251 8.15 7.35 14.48
12/20/2021 8:00:00 PM 1.89 35.402 0.25 8.16 7.24 14.48
12/20/2021 8:15:00 PM 1.88 35.384 0.25 8.16 7.62 14.46
12/20/2021 8:30:00 PM 1.87 35.366 0.25 8.16 7.45 14.45
12/20/2021 8:45:00 PM 1.86 35.348 0.25 8.15 7.58 14.45
12/20/2021 9:00:00 PM 1.86 35.348 0.25 8.15 7.16 14.43
12/20/2021 9:15:00 PM 1.85 35.33 0.251 8.15 7.4 14.42
12/20/2021 9:30:00 PM 1.84 35.312 0.251 8.15 6.99 14.4
12/20/2021 9:45:00 PM 1.83 35.294 0.251 8.14 7.15 14.39
12/20/2021 10:00:00 PM 1.81 35.258 0.251 8.14 6.6 14.37
12/20/2021 10:15:00 PM 1.8 35.24 0.251 8.13 6.75 14.35
12/20/2021 10:30:00 PM 1.79 35.222 0.251 8.12 7.34 14.34
12/20/2021 10:45:00 PM 1.77 35.186 0.251 8.12 7.2 14.32
12/20/2021 11:00:00 PM 1.76 35.168 0.251 8.12 7.05 14.3
12/20/2021 11:15:00 PM 1.75 35.15 0.251 8.11 6.99 14.29
12/20/2021 11:30:00 PM 1.73 35.114 0.251 8.11 7.47 14.27
12/20/2021 11:45:00 PM 1.72 35.096 0.252 8.11 7.39 14.26
12/21/2021 12:00:00 AM 1.71 35.078 0.252 8.1 7.02 14.25
12/21/2021 12:15:00 AM 1.7 35.06 0.252 8.1 7.21 14.24
12/21/2021 12:30:00 AM 1.68 35.024 0.252 8.09 7.13 14.22
12/21/2021 12:45:00 AM 1.67 35.006 0.252 8.09 7.28 14.21
12/21/2021 1:00:00 AM 1.65 34.97 0.252 8.09 7.28 14.19
12/21/2021 1:15:00 AM 1.64 34.952 0.252 8.08 7.65 14.17
12/21/2021 1:30:00 AM 1.62 34.916 0.252 8.08 7.13 14.16
12/21/2021 1:45:00 AM 1.61 34.898 0.253 8.07 6.84 14.13
12/21/2021 2:00:00 AM 1.6 34.88 0.253 8.07 7.32 14.12
12/21/2021 2:15:00 AM 1.59 34.862 0.253 8.07 7.33 14.1
12/21/2021 2:30:00 AM 1.57 34.826 0.253 8.06 6.85 14.08
12/21/2021 2:45:00 AM 1.56 34.808 0.253 8.05 7.83 14.06
12/21/2021 3:00:00 AM 1.56 34.808 0.253 8.05 7.36 14.04
12/21/2021 3:15:00 AM 1.54 34.772 0.254 8.04 7.25 14.02
12/21/2021 3:30:00 AM 1.54 34.772 0.254 8.04 7.26 14.01
12/21/2021 3:45:00 AM 1.52 34.736 0.254 8.03 7.08 13.98
12/21/2021 4:00:00 AM 1.52 34.736 0.254 8.03 6.9 13.95
12/21/2021 4:15:00 AM 1.52 34.736 0.254 8.01 7.42 13.94
12/21/2021 4:30:00 AM 1.52 34.736 0.254 8.01 7.46 13.92
12/21/2021 4:45:00 AM 1.52 34.736 0.254 8 7.06 13.89
12/21/2021 5:00:00 AM 1.52 34.736 0.254 8 7.05 13.87
12/21/2021 5:15:00 AM 1.52 34.736 0.254 7.99 7.14 13.85
12/21/2021 5:30:00 AM 1.51 34.718 0.254 7.98 6.69 13.83
12/21/2021 5:45:00 AM 1.51 34.718 0.254 7.97 7.92 13.81
12/21/2021 6:00:00 AM 1.51 34.718 0.254 7.97 7.22 13.79
12/21/2021 6:15:00 AM 1.51 34.718 0.254 7.96 7.8 13.77
12/21/2021 6:30:00 AM 1.5 34.7 0.254 7.95 7.26 13.76
12/21/2021 6:45:00 AM 1.5 34.7 0.254 7.95 7.23 13.74
12/21/2021 7:00:00 AM 1.5 34.7 0.254 7.94 6.53 13.73
12/21/2021 7:15:00 AM 1.5 34.7 0.255 7.93 6.28 13.71
12/21/2021 7:30:00 AM 1.5 34.7 0.255 7.93 6.31 13.7
12/21/2021 7:45:00 AM 1.49 34.682 0.255 7.92 6.08 13.69
12/21/2021 8:00:00 AM 1.48 34.664 0.255 7.9 7.24 13.7
12/21/2021 8:15:00 AM 1.48 34.664 0.255 7.92 6.32 13.71
12/21/2021 8:30:00 AM 1.48 34.664 0.256 7.91 6.37 13.73
12/21/2021 8:45:00 AM 1.49 34.682 0.256 7.93 6.5 13.8
12/21/2021 9:00:00 AM 1.5 34.7 0.256 7.94 6.41 13.86
12/21/2021 9:15:00 AM 1.51 34.718 0.256 7.96 6.01 13.94
12/21/2021 9:30:00 AM 1.53 34.754 0.256 7.97 5.95 14.02
12/21/2021 9:45:00 AM 1.53 34.754 0.257 7.99 5.79 14.1
12/21/2021 10:00:00 AM 1.54 34.772 0.257 8 5.52 14.18
12/21/2021 10:15:00 AM 1.56 34.808 0.257 8.03 5.7 14.26
12/21/2021 10:30:00 AM 1.57 34.826 0.257 8.05 5.66 14.36
12/21/2021 10:45:00 AM 1.58 34.844 0.257 8.08 5.83 14.45
12/21/2021 11:00:00 AM 1.6 34.88 0.258 8.1 5.37 14.56
12/21/2021 11:15:00 AM 1.64 34.952 0.258 8.12 5.45 14.66
12/21/2021 11:30:00 AM 1.67 35.006 0.258 8.16 5.3 14.76
12/21/2021 11:45:00 AM 1.71 35.078 0.258 8.19 5.34 14.85
12/21/2021 12:00:00 PM 1.74 35.132 0.258 8.22 5.17 14.93
12/21/2021 12:15:00 PM 1.76 35.168 0.259 8.25 5.08 15
12/21/2021 12:30:00 PM 1.78 35.204 0.259 8.27 5.12 15.05
12/21/2021 12:45:00 PM 1.79 35.222 0.259 8.29 5.37 15.1
12/21/2021 1:00:00 PM 1.81 35.258 0.259 8.31 4.91 15.15
12/21/2021 1:15:00 PM 1.83 35.294 0.259 8.33 5.3 15.2
12/21/2021 1:30:00 PM 1.84 35.312 0.259 8.35 5.2 15.23
12/21/2021 1:45:00 PM 1.85 35.33 0.259 8.36 5.31 15.27
12/21/2021 2:00:00 PM 1.85 35.33 0.259 8.38 5.13 15.3
12/21/2021 2:15:00 PM 1.86 35.348 0.26 8.4 4.74 15.33
12/21/2021 2:30:00 PM 1.87 35.366 0.26 8.41 5.08 15.36
12/21/2021 2:45:00 PM 1.88 35.384 0.26 8.42 5.3 15.37
12/21/2021 3:00:00 PM 1.88 35.384 0.26 8.43 4.79 15.39
12/21/2021 3:15:00 PM 1.88 35.384 0.26 8.44 4.53 15.39
12/21/2021 3:30:00 PM 1.88 35.384 0.26 8.44 4.46 15.38
12/21/2021 3:45:00 PM 1.87 35.366 0.26 8.44 4.65 15.36
12/21/2021 4:00:00 PM 1.87 35.366 0.26 8.44 4.42 15.34
12/21/2021 4:15:00 PM 1.87 35.366 0.26 8.43 4.62 15.31
12/21/2021 4:30:00 PM 1.87 35.366 0.26 8.43 4.49 15.27
12/21/2021 4:45:00 PM 1.86 35.348 0.26 8.41 5.08 15.22
12/21/2021 5:00:00 PM 1.86 35.348 0.261 8.4 4.6 15.16
12/21/2021 5:15:00 PM 1.85 35.33 0.261 8.38 4.67 15.1
12/21/2021 5:30:00 PM 1.85 35.33 0.261 8.37 4.57 15.03
12/21/2021 5:45:00 PM 1.84 35.312 0.261 8.35 4.66 14.97
12/21/2021 6:00:00 PM 1.83 35.294 0.261 8.33 4.35 14.92
12/21/2021 6:15:00 PM 1.82 35.276 0.262 8.32 4.8 14.86
12/21/2021 6:30:00 PM 1.81 35.258 0.262 8.3 4.55 14.81
12/21/2021 6:45:00 PM 1.81 35.258 0.262 8.28 4.68 14.76
12/21/2021 7:00:00 PM 1.8 35.24 0.262 8.26 4.63 14.73
12/21/2021 7:15:00 PM 1.8 35.24 0.262 8.26 4.42 14.68
12/21/2021 7:30:00 PM 1.8 35.24 0.263 8.25 4.89 14.66
12/21/2021 7:45:00 PM 1.8 35.24 0.263 8.24 4.61 14.63
12/21/2021 8:00:00 PM 1.8 35.24 0.263 8.24 4.68 14.61
12/21/2021 8:15:00 PM 1.8 35.24 0.263 8.24 4.58 14.59
12/21/2021 8:30:00 PM 1.8 35.24 0.263 8.23 4.32 14.57
12/21/2021 8:45:00 PM 1.8 35.24 0.263 8.23 4.71 14.55
12/21/2021 9:00:00 PM 1.81 35.258 0.263 8.23 4.77 14.53
12/21/2021 9:15:00 PM 1.81 35.258 0.263 8.23 4.68 14.51
12/21/2021 9:30:00 PM 1.81 35.258 0.263 8.22 4.63 14.49
12/21/2021 9:45:00 PM 1.81 35.258 0.263 8.22 4.61 14.47
12/21/2021 10:00:00 PM 1.81 35.258 0.263 8.22 4.29 14.45
12/21/2021 10:15:00 PM 1.81 35.258 0.264 8.21 4.5 14.43
12/21/2021 10:30:00 PM 1.8 35.24 0.264 8.21 4.84 14.4
12/21/2021 10:45:00 PM 1.8 35.24 0.264 8.2 4.42 14.38
12/21/2021 11:00:00 PM 1.79 35.222 0.264 8.2 4.57 14.34
12/21/2021 11:15:00 PM 1.78 35.204 0.264 8.19 4.57 14.32
12/21/2021 11:30:00 PM 1.77 35.186 0.264 8.19 4.86 14.3
12/21/2021 11:45:00 PM 1.77 35.186 0.264 8.18 4.77 14.27
12/22/2021 12:00:00 AM 1.76 35.168 0.264 8.18 4.93 14.24
12/22/2021 12:15:00 AM 1.75 35.15 0.264 8.17 4.95 14.23
12/22/2021 12:30:00 AM 1.74 35.132 0.264 8.16 4.92 14.2
12/22/2021 12:45:00 AM 1.73 35.114 0.264 8.16 5.15 14.17
12/22/2021 1:00:00 AM 1.73 35.114 0.264 8.15 5.18 14.15
12/22/2021 1:15:00 AM 1.72 35.096 0.264 8.15 5.5 14.13
12/22/2021 1:30:00 AM 1.71 35.078 0.264 8.14 4.99 14.11
12/22/2021 1:45:00 AM 1.7 35.06 0.264 8.14 5.6 14.09
12/22/2021 2:00:00 AM 1.69 35.042 0.264 8.13 5.13 14.06
12/22/2021 2:15:00 AM 1.68 35.024 0.264 8.13 5.01 14.05
12/22/2021 2:30:00 AM 1.68 35.024 0.264 8.13 4.95 14.02
12/22/2021 2:45:00 AM 1.67 35.006 0.264 8.12 5.12 14
12/22/2021 3:00:00 AM 1.66 34.988 0.264 8.12 4.85 13.97
12/22/2021 3:15:00 AM 1.66 34.988 0.264 8.11 4.83 13.96
12/22/2021 3:30:00 AM 1.65 34.97 0.264 8.11 4.7 13.94
12/22/2021 3:45:00 AM 1.64 34.952 0.264 8.1 4.48 13.91
12/22/2021 4:00:00 AM 1.64 34.952 0.265 8.09 4.88 13.89
12/22/2021 4:15:00 AM 1.63 34.934 0.265 8.09 4.59 13.85
12/22/2021 4:30:00 AM 1.63 34.934 0.265 8.08 4.95 13.83
12/22/2021 4:45:00 AM 1.63 34.934 0.265 8.07 4.54 13.8
12/22/2021 5:00:00 AM 1.63 34.934 0.265 8.07 4.35 13.78
12/22/2021 5:15:00 AM 1.63 34.934 0.265 8.05 4.73 13.74
12/22/2021 5:30:00 AM 1.63 34.934 0.266 8.04 4.45 13.72
12/22/2021 5:45:00 AM 1.63 34.934 0.266 8.04 4.68 13.7
12/22/2021 6:00:00 AM 1.63 34.934 0.266 8.02 4.45 13.67
12/22/2021 6:15:00 AM 1.63 34.934 0.266 8.02 4.46 13.64
12/22/2021 6:30:00 AM 1.62 34.916 0.266 8.01 4.4 13.62
12/22/2021 6:45:00 AM 1.62 34.916 0.266 8 4.18 13.6
12/22/2021 7:00:00 AM 1.62 34.916 0.266 7.99 4.35 13.57
12/22/2021 7:15:00 AM 1.63 34.934 0.266 7.98 4.34 13.55
12/22/2021 7:30:00 AM 1.62 34.916 0.266 7.97 4.12 13.53
12/22/2021 7:45:00 AM 1.62 34.916 0.266 7.97 4.64 13.51
12/22/2021 8:00:00 AM 1.62 34.916 0.266 7.96 4.65 13.49
12/22/2021 8:15:00 AM 1.63 34.934 0.266 7.95 4.26 13.48
12/22/2021 8:30:00 AM 1.63 34.934 0.267 7.95 4.36 13.47
12/22/2021 8:45:00 AM 1.63 34.934 0.267 7.95 4.37 13.47
12/22/2021 9:00:00 AM 1.64 34.952 0.267 7.95 4.37 13.49
12/22/2021 9:15:00 AM 1.65 34.97 0.267 7.94 5.1 13.53
12/22/2021 9:30:00 AM 1.66 34.988 0.267 7.96 4.54 13.57
12/22/2021 9:45:00 AM 1.68 35.024 0.267 7.98 4.47 13.67
12/22/2021 10:00:00 AM 1.71 35.078 0.267 7.99 4.15 13.76
12/22/2021 10:15:00 AM 1.74 35.132 0.267 8.02 4.23 13.85
12/22/2021 10:30:00 AM 1.75 35.15 0.267 8.02 4.21 13.92
12/22/2021 10:45:00 AM 1.77 35.186 0.267 8.05 4.5 14
12/22/2021 11:00:00 AM 1.79 35.222 0.267 8.07 4.19 14.06
12/22/2021 11:15:00 AM 1.82 35.276 0.267 8.09 4.34 14.13
12/22/2021 11:30:00 AM 1.83 35.294 0.267 8.1 5.95 14.17
12/22/2021 11:45:00 AM 1.86 35.348 0.267 8.13 4.69 14.3
12/22/2021 12:00:00 PM 1.86 35.348 0.267 8.15 4.48 14.36
12/22/2021 12:15:00 PM 1.88 35.384 0.267 8.18 4.3 14.44
12/22/2021 12:30:00 PM 1.9 35.42 0.267 8.19 4.02 14.5
12/22/2021 12:45:00 PM 1.92 35.456 0.267 8.22 4.21 14.56
12/22/2021 1:00:00 PM 1.94 35.492 0.267 8.25 4.39 14.64
12/22/2021 1:15:00 PM 1.96 35.528 0.267 8.27 4.02 14.72
12/22/2021 1:30:00 PM 1.96 35.528 0.267 8.29 3.83 14.8
12/22/2021 1:45:00 PM 1.97 35.546 0.267 8.33 3.97 14.87
12/22/2021 2:00:00 PM 1.96 35.528 0.267 8.34 3.91 14.91
12/22/2021 2:15:00 PM 1.95 35.51 0.267 8.36 4.31 14.95
12/22/2021 2:30:00 PM 1.95 35.51 0.268 8.38 4.04 15
12/22/2021 2:45:00 PM 1.93 35.474 0.268 8.4 4.03 15.04
12/22/2021 3:00:00 PM 1.92 35.456 0.268 8.41 4.22 15.07
12/22/2021 3:15:00 PM 1.91 35.438 0.268 8.42 4.24 15.09
12/22/2021 3:30:00 PM 1.9 35.42 0.268 8.43 4.05 15.1
12/22/2021 3:45:00 PM 1.89 35.402 0.268 8.43 4.04 15.1
12/22/2021 4:00:00 PM 1.88 35.384 0.268 8.43 4.01 15.08
12/22/2021 4:15:00 PM 1.87 35.366 0.268 8.43 4.09 15.05
12/22/2021 4:30:00 PM 1.85 35.33 0.268 8.42 4.16 15.01
12/22/2021 4:45:00 PM 1.84 35.312 0.268 8.41 4.13 14.97
12/22/2021 5:00:00 PM 1.82 35.276 0.268 8.4 3.93 14.91
12/22/2021 5:15:00 PM 1.81 35.258 0.269 8.38 3.79 14.86
12/22/2021 5:30:00 PM 1.8 35.24 0.269 8.35 4.27 14.8
12/22/2021 5:45:00 PM 1.78 35.204 0.269 8.34 4.24 14.73
12/22/2021 6:00:00 PM 1.77 35.186 0.269 8.33 4.14 14.67
12/22/2021 6:15:00 PM 1.76 35.168 0.269 8.31 4.23 14.62
12/22/2021 6:30:00 PM 1.75 35.15 0.269 8.29 4.2 14.57
12/22/2021 6:45:00 PM 1.74 35.132 0.27 8.27 4.12 14.52
12/22/2021 7:00:00 PM 1.73 35.114 0.27 8.26 4.01 14.47
12/22/2021 7:15:00 PM 1.73 35.114 0.27 8.24 4.15 14.43
12/22/2021 7:30:00 PM 1.73 35.114 0.27 8.23 4.13 14.4
12/22/2021 7:45:00 PM 1.72 35.096 0.27 8.22 4.06 14.37
12/22/2021 8:00:00 PM 1.71 35.078 0.27 8.21 4.39 14.34
12/22/2021 8:15:00 PM 1.7 35.06 0.27 8.2 4.02 14.31
12/22/2021 8:30:00 PM 1.68 35.024 0.27 8.18 4.14 14.29
12/22/2021 8:45:00 PM 1.66 34.988 0.27 8.18 4.21 14.26
12/22/2021 9:00:00 PM 1.64 34.952 0.27 8.18 3.98 14.24
12/22/2021 9:15:00 PM 1.63 34.934 0.27 8.17 4.2 14.23
12/22/2021 9:30:00 PM 1.63 34.934 0.27 8.17 3.94 14.21
12/22/2021 9:45:00 PM 1.62 34.916 0.27 8.16 3.96 14.2
12/22/2021 10:00:00 PM 1.61 34.898 0.27 8.16 3.92 14.18
12/22/2021 10:15:00 PM 1.59 34.862 0.27 8.15 3.81 14.17
12/22/2021 10:30:00 PM 1.57 34.826 0.27 8.15 3.78 14.15
12/22/2021 10:45:00 PM 1.55 34.79 0.27 8.14 4.11 14.14
12/22/2021 11:00:00 PM 1.54 34.772 0.27 8.13 7.3 14.13
12/22/2021 11:15:00 PM 1.52 34.736 0.27 8.13 4.02 14.11
12/22/2021 11:30:00 PM 1.5 34.7 0.27 8.13 3.82 14.09
12/22/2021 11:45:00 PM 1.48 34.664 0.271 8.12 6.56 14.09
12/23/2021 12:00:00 AM 1.45 34.61 0.271 8.12 3.94 14.07
12/23/2021 12:15:00 AM 1.42 34.556 0.271 8.12 4.14 14.06
12/23/2021 12:30:00 AM 1.4 34.52 0.271 8.11 3.76 14.06
12/23/2021 12:45:00 AM 1.39 34.502 0.271 8.11 4.19 14.05
12/23/2021 1:00:00 AM 1.37 34.466 0.271 8.1 4.34 14.05
12/23/2021 1:15:00 AM 1.35 34.43 0.271 8.1 4.2 14.02
12/23/2021 1:30:00 AM 1.33 34.394 0.271 8.1 3.98 14.03
12/23/2021 1:45:00 AM 1.31 34.358 0.271 8.09 4.06 14.02
12/23/2021 2:00:00 AM 1.29 34.322 0.271 8.09 3.97 14.02
12/23/2021 2:15:00 AM 1.27 34.286 0.271 8.09 5.55 14
12/23/2021 2:30:00 AM 1.26 34.268 0.272 8.08 3.96 14
12/23/2021 2:45:00 AM 1.25 34.25 0.272 8.08 4.21 13.98
12/23/2021 3:00:00 AM 1.24 34.232 0.272 8.08 4.6 13.98
12/23/2021 3:15:00 AM 1.23 34.214 0.272 8.07 3.94 13.96
12/23/2021 3:30:00 AM 1.23 34.214 0.272 8.07 4.12 13.95
12/23/2021 3:45:00 AM 1.22 34.196 0.272 8.07 4.05 13.94
12/23/2021 4:00:00 AM 1.21 34.178 0.273 8.06 4.14 13.93
12/23/2021 4:15:00 AM 1.2 34.16 0.273 8.06 4.21 13.91
12/23/2021 4:30:00 AM 1.19 34.142 0.273 8.05 3.99 13.91
12/23/2021 4:45:00 AM 1.18 34.124 0.273 8.04 4.22 13.88
12/23/2021 5:00:00 AM 1.16 34.088 0.273 8.04 4.7 13.86
12/23/2021 5:15:00 AM 1.15 34.07 0.273 8.03 4.06 13.86
12/23/2021 5:30:00 AM 1.14 34.052 0.273 8.03 4.16 13.84
12/23/2021 5:45:00 AM 1.12 34.016 0.273 8.02 4.21 13.83
12/23/2021 6:00:00 AM 1.11 33.998 0.274 8.01 4.21 13.81
12/23/2021 6:15:00 AM 1.09 33.962 0.274 8.01 4.54 13.81
12/23/2021 6:30:00 AM 1.08 33.944 0.274 8 4.08 13.78
12/23/2021 6:45:00 AM 1.07 33.926 0.274 7.99 4.12 13.77
12/23/2021 7:00:00 AM 1.05 33.89 0.274 7.99 4.12 13.76
12/23/2021 7:15:00 AM 1.03 33.854 0.274 7.98 3.91 13.76
12/23/2021 7:30:00 AM 1.02 33.836 0.274 7.98 4.06 13.75
12/23/2021 7:45:00 AM 1 33.8 0.274 7.97 3.84 13.75
12/23/2021 8:00:00 AM 0.99 33.782 0.274 7.97 4.15 13.75
12/23/2021 8:15:00 AM 0.97 33.746 0.274 7.97 4.36 13.76
12/23/2021 8:30:00 AM 0.96 33.728 0.275 7.97 4.39 13.8
12/23/2021 8:45:00 AM 0.95 33.71 0.275 7.98 4.12 13.83
12/23/2021 9:00:00 AM 0.94 33.692 0.275 7.98 3.85 13.89
12/23/2021 9:15:00 AM 0.94 33.692 0.274 7.99 4.04 13.96
12/23/2021 9:30:00 AM 0.94 33.692 0.274 8.01 3.91 14.05
12/23/2021 9:45:00 AM 0.95 33.71 0.274 8.03 4.09 14.15
12/23/2021 10:00:00 AM 0.97 33.746 0.274 8.05 4.34 14.26
12/23/2021 10:15:00 AM 0.99 33.782 0.274 8.07 4.02 14.37
12/23/2021 10:30:00 AM 1.02 33.836 0.274 8.1 3.74 14.48
12/23/2021 10:45:00 AM 1.04 33.872 0.274 8.13 3.87 14.58
12/23/2021 11:00:00 AM 1.06 33.908 0.274 8.15 3.82 14.69
12/23/2021 11:15:00 AM 1.1 33.98 0.273 8.18 4.34 14.79
12/23/2021 11:30:00 AM 1.13 34.034 0.273 8.2 4.64 14.86
12/23/2021 11:45:00 AM 1.16 34.088 0.273 8.23 4.04 14.93
12/23/2021 12:00:00 PM 1.17 34.106 0.273 8.26 3.8 15.03
12/23/2021 12:15:00 PM 1.19 34.142 0.273 8.28 3.8 15.12
12/23/2021 12:30:00 PM 1.2 34.16 0.273 8.31 3.86 15.18
12/23/2021 12:45:00 PM 1.22 34.196 0.273 8.33 3.9 15.25
12/23/2021 1:00:00 PM 1.24 34.232 0.273 8.35 3.84 15.32
12/23/2021 1:15:00 PM 1.26 34.268 0.273 8.38 3.58 15.4
12/23/2021 1:30:00 PM 1.29 34.322 0.272 8.41 3.79 15.49
12/23/2021 1:45:00 PM 1.32 34.376 0.272 8.43 3.63 15.56
12/23/2021 2:00:00 PM 1.34 34.412 0.272 8.46 3.74 15.62
12/23/2021 2:15:00 PM 1.37 34.466 0.272 8.48 3.6 15.7
12/23/2021 2:30:00 PM 1.4 34.52 0.272 8.51 3.98 15.76
12/23/2021 2:45:00 PM 1.41 34.538 0.272 8.53 3.67 15.82
12/23/2021 3:00:00 PM 1.42 34.556 0.272 8.54 3.82 15.83
12/23/2021 3:15:00 PM 1.42 34.556 0.272 8.55 3.86 15.85
12/23/2021 3:30:00 PM 1.42 34.556 0.272 8.56 3.66 15.88
12/23/2021 3:45:00 PM 1.43 34.574 0.271 8.57 3.85 15.88
12/23/2021 4:00:00 PM 1.42 34.556 0.271 8.57 3.38 15.86
12/23/2021 4:15:00 PM 1.42 34.556 0.271 8.57 3.49 15.85
12/23/2021 4:30:00 PM 1.42 34.556 0.271 8.57 3.61 15.82
12/23/2021 4:45:00 PM 1.41 34.538 0.271 8.56 3.98 15.76
12/23/2021 5:00:00 PM 1.41 34.538 0.272 8.55 3.54 15.69
12/23/2021 5:15:00 PM 1.41 34.538 0.272 8.53 3.83 15.62
12/23/2021 5:30:00 PM 1.4 34.52 0.272 8.52 3.77 15.55
12/23/2021 5:45:00 PM 1.41 34.538 0.272 8.5 3.86 15.47
12/23/2021 6:00:00 PM 1.41 34.538 0.272 8.48 3.98 15.4
12/23/2021 6:15:00 PM 1.41 34.538 0.272 8.47 4.02 15.35
12/23/2021 6:30:00 PM 1.42 34.556 0.273 8.45 4.05 15.29
12/23/2021 6:45:00 PM 1.43 34.574 0.273 8.44 3.76 15.24
12/23/2021 7:00:00 PM 1.44 34.592 0.273 8.43 4.07 15.18
12/23/2021 7:15:00 PM 1.45 34.61 0.273 8.41 3.89 15.13
12/23/2021 7:30:00 PM 1.46 34.628 0.273 8.4 3.92 15.08
12/23/2021 7:45:00 PM 1.46 34.628 0.274 8.39 3.98 15.03
12/23/2021 8:00:00 PM 1.47 34.646 0.274 8.38 3.98 15
12/23/2021 8:15:00 PM 1.47 34.646 0.274 8.37 4.15 14.96
12/23/2021 8:30:00 PM 1.48 34.664 0.274 8.36 3.88 14.92
12/23/2021 8:45:00 PM 1.48 34.664 0.274 8.35 4.2 14.89
12/23/2021 9:00:00 PM 1.48 34.664 0.275 8.34 4.17 14.86
12/23/2021 9:15:00 PM 1.48 34.664 0.275 8.33 3.97 14.82
12/23/2021 9:30:00 PM 1.48 34.664 0.275 8.32 4.03 14.79
12/23/2021 9:45:00 PM 1.47 34.646 0.275 8.31 4.39 14.76
12/23/2021 10:00:00 PM 1.46 34.628 0.275 8.31 4.21 14.73
12/23/2021 10:15:00 PM 1.46 34.628 0.276 8.3 4.05 14.7
12/23/2021 10:30:00 PM 1.45 34.61 0.276 8.29 4.11 14.67
12/23/2021 10:45:00 PM 1.45 34.61 0.276 8.28 4.12 14.65
12/23/2021 11:00:00 PM 1.44 34.592 0.276 8.27 4.36 14.62
12/23/2021 11:15:00 PM 1.44 34.592 0.277 8.26 4.2 14.58
12/23/2021 11:30:00 PM 1.45 34.61 0.277 8.26 3.76 14.57
12/23/2021 11:45:00 PM 1.45 34.61 0.277 8.25 3.92 14.54
12/24/2021 12:00:00 AM 1.45 34.61 0.277 8.24 4.09 14.52
12/24/2021 12:15:00 AM 1.44 34.592 0.277 8.24 4.01 14.49
12/24/2021 12:30:00 AM 1.44 34.592 0.277 8.23 3.96 14.46
12/24/2021 12:45:00 AM 1.44 34.592 0.277 8.23 3.92 14.43
12/24/2021 1:00:00 AM 1.44 34.592 0.277 8.22 4.1 14.41
12/24/2021 1:15:00 AM 1.45 34.61 0.277 8.22 4.03 14.39
12/24/2021 1:30:00 AM 1.45 34.61 0.277 8.22 3.99 14.36
12/24/2021 1:45:00 AM 1.45 34.61 0.277 8.21 3.9 14.34
12/24/2021 2:00:00 AM 1.46 34.628 0.277 8.21 3.91 14.32
12/24/2021 2:15:00 AM 1.46 34.628 0.277 8.2 4.11 14.29
12/24/2021 2:30:00 AM 1.47 34.646 0.277 8.2 4.16 14.27
12/24/2021 2:45:00 AM 1.47 34.646 0.277 8.19 4.03 14.25
12/24/2021 3:00:00 AM 1.47 34.646 0.277 8.18 3.97 14.23
12/24/2021 3:15:00 AM 1.48 34.664 0.277 8.18 4.13 14.2
12/24/2021 3:30:00 AM 1.48 34.664 0.277 8.17 4.28 14.18
12/24/2021 3:45:00 AM 1.48 34.664 0.277 8.17 4.07 14.15
12/24/2021 4:00:00 AM 1.49 34.682 0.277 8.16 3.94 14.12
12/24/2021 4:15:00 AM 1.49 34.682 0.277 8.16 4.01 14.11
12/24/2021 4:30:00 AM 1.49 34.682 0.277 8.15 3.8 14.07
12/24/2021 4:45:00 AM 1.49 34.682 0.277 8.14 3.93 14.05
12/24/2021 5:00:00 AM 1.5 34.7 0.277 8.13 3.99 14.02
12/24/2021 5:15:00 AM 1.5 34.7 0.277 8.13 4.17 14
12/24/2021 5:30:00 AM 1.51 34.718 0.277 8.12 4.1 13.97
12/24/2021 5:45:00 AM 1.51 34.718 0.277 8.11 3.93 13.94
12/24/2021 6:00:00 AM 1.51 34.718 0.277 8.1 3.88 13.92
12/24/2021 6:15:00 AM 1.52 34.736 0.277 8.09 3.95 13.9
12/24/2021 6:30:00 AM 1.52 34.736 0.277 8.08 4.28 13.87
12/24/2021 6:45:00 AM 1.53 34.754 0.277 8.07 3.89 13.85
12/24/2021 7:00:00 AM 1.53 34.754 0.276 8.07 4 13.82
12/24/2021 7:15:00 AM 1.53 34.754 0.276 8.06 3.96 13.8
12/24/2021 7:30:00 AM 1.54 34.772 0.276 8.05 3.63 13.78
12/24/2021 7:45:00 AM 1.54 34.772 0.276 8.04 3.99 13.76
12/24/2021 8:00:00 AM 1.55 34.79 0.276 8.03 4.02 13.74
12/24/2021 8:15:00 AM 1.55 34.79 0.276 8.03 3.92 13.74
12/24/2021 8:30:00 AM 1.56 34.808 0.276 8.02 3.96 13.74
12/24/2021 8:45:00 AM 1.57 34.826 0.276 8.02 3.9 13.76
12/24/2021 9:00:00 AM 1.58 34.844 0.276 8.03 4.17 13.79
12/24/2021 9:15:00 AM 1.59 34.862 0.276 8.03 4.19 13.83
12/24/2021 9:30:00 AM 1.6 34.88 0.276 8.04 3.89 13.87
12/24/2021 9:45:00 AM 1.61 34.898 0.276 8.04 4.12 13.92
12/24/2021 10:00:00 AM 1.62 34.916 0.276 8.05 3.84 13.97
12/24/2021 10:15:00 AM 1.64 34.952 0.276 8.06 4.55 14.04
12/24/2021 10:30:00 AM 1.65 34.97 0.276 8.08 3.99 14.11
12/24/2021 10:45:00 AM 1.68 35.024 0.275 8.09 4.03 14.19
12/24/2021 11:00:00 AM 1.69 35.042 0.275 8.11 3.62 14.27
12/24/2021 11:15:00 AM 1.72 35.096 0.275 8.13 4.18 14.36
12/24/2021 11:30:00 AM 1.74 35.132 0.275 8.16 3.66 14.45
12/24/2021 11:45:00 AM 1.77 35.186 0.275 8.18 3.92 14.55
12/24/2021 12:00:00 PM 1.8 35.24 0.275 8.21 4.07 14.63
12/24/2021 12:15:00 PM 1.83 35.294 0.274 8.24 4.03 14.72
12/24/2021 12:30:00 PM 1.86 35.348 0.274 8.27 4.07 14.82
12/24/2021 12:45:00 PM 1.89 35.402 0.274 8.29 3.89 14.9
12/24/2021 1:00:00 PM 1.91 35.438 0.274 8.32 3.78 14.98
12/24/2021 1:15:00 PM 1.93 35.474 0.274 8.35 3.62 15.07
12/24/2021 1:30:00 PM 1.94 35.492 0.274 8.37 3.9 15.14
12/24/2021 1:45:00 PM 1.97 35.546 0.274 8.4 3.86 15.22
12/24/2021 2:00:00 PM 1.99 35.582 0.274 8.42 3.9 15.26
12/24/2021 2:15:00 PM 2.01 35.618 0.274 8.44 3.74 15.33
12/24/2021 2:30:00 PM 2.04 35.672 0.274 8.47 4.03 15.39
12/24/2021 2:45:00 PM 2.06 35.708 0.274 8.49 3.74 15.45
12/24/2021 3:00:00 PM 2.07 35.726 0.274 8.51 3.76 15.48
12/24/2021 3:15:00 PM 2.09 35.762 0.273 8.52 3.74 15.52
12/24/2021 3:30:00 PM 2.09 35.762 0.273 8.54 3.86 15.55
12/24/2021 3:45:00 PM 2.09 35.762 0.273 8.55 3.48 15.56
12/24/2021 4:00:00 PM 2.09 35.762 0.273 8.55 4.08 15.55
12/24/2021 4:15:00 PM 2.09 35.762 0.273 8.55 3.78 15.53
12/24/2021 4:30:00 PM 2.08 35.744 0.273 8.55 3.81 15.5
12/24/2021 4:45:00 PM 2.07 35.726 0.273 8.54 3.6 15.44
12/24/2021 5:00:00 PM 2.07 35.726 0.273 8.53 3.63 15.37
12/24/2021 5:15:00 PM 2.07 35.726 0.273 8.51 3.7 15.3
12/24/2021 5:30:00 PM 2.07 35.726 0.274 8.5 3.64 15.21
12/24/2021 5:45:00 PM 2.07 35.726 0.274 8.48 3.56 15.15
12/24/2021 6:00:00 PM 2.07 35.726 0.274 8.46 3.54 15.07
12/24/2021 6:15:00 PM 2.08 35.744 0.274 8.45 3.89 15.01
12/24/2021 6:30:00 PM 2.08 35.744 0.274 8.43 3.85 14.94
12/24/2021 6:45:00 PM 2.09 35.762 0.274 8.41 3.81 14.88
12/24/2021 7:00:00 PM 2.09 35.762 0.274 8.4 3.74 14.82
12/24/2021 7:15:00 PM 2.1 35.78 0.274 8.38 3.51 14.76
12/24/2021 7:30:00 PM 2.11 35.798 0.274 8.37 3.74 14.71
12/24/2021 7:45:00 PM 2.12 35.816 0.274 8.35 3.91 14.66
12/24/2021 8:00:00 PM 2.13 35.834 0.274 8.34 3.85 14.61
12/24/2021 8:15:00 PM 2.14 35.852 0.274 8.33 3.63 14.57
12/24/2021 8:30:00 PM 2.16 35.888 0.275 8.32 3.84 14.53
12/24/2021 8:45:00 PM 2.17 35.906 0.275 8.31 3.68 14.5
12/24/2021 9:00:00 PM 2.19 35.942 0.275 8.3 4.15 14.46
12/24/2021 9:15:00 PM 2.2 35.96 0.275 8.29 4.42 14.42
12/24/2021 9:30:00 PM 2.22 35.996 0.275 8.28 3.82 14.4
12/24/2021 9:45:00 PM 2.23 36.014 0.275 8.27 3.83 14.36
12/24/2021 10:00:00 PM 2.25 36.05 0.275 8.27 4.19 14.33
12/24/2021 10:15:00 PM 2.26 36.068 0.275 8.26 3.64 14.29
12/24/2021 10:30:00 PM 2.28 36.104 0.275 8.25 3.64 14.27
12/24/2021 10:45:00 PM 2.3 36.14 0.275 8.24 3.71 14.24
12/24/2021 11:00:00 PM 2.31 36.158 0.275 8.23 3.65 14.2
12/24/2021 11:15:00 PM 2.33 36.194 0.275 8.23 4.01 14.18
12/24/2021 11:30:00 PM 2.34 36.212 0.276 8.22 3.85 14.14
12/24/2021 11:45:00 PM 2.36 36.248 0.276 8.21 3.81 14.11
12/25/2021 12:00:00 AM 2.37 36.266 0.276 8.21 3.91 14.08
12/25/2021 12:15:00 AM 2.38 36.284 0.276 8.2 3.96 14.05
12/25/2021 12:30:00 AM 2.4 36.32 0.276 8.2 3.92 14.03
12/25/2021 12:45:00 AM 2.41 36.338 0.276 8.19 3.98 14
12/25/2021 1:00:00 AM 2.42 36.356 0.276 8.18 4.11 13.97
12/25/2021 1:15:00 AM 2.44 36.392 0.276 8.18 3.8 13.94
12/25/2021 1:30:00 AM 2.45 36.41 0.276 8.17 4.13 13.91
12/25/2021 1:45:00 AM 2.46 36.428 0.276 8.17 3.87 13.88
12/25/2021 2:00:00 AM 2.48 36.464 0.276 8.16 4.02 13.85
12/25/2021 2:15:00 AM 2.49 36.482 0.276 8.16 3.81 13.83
12/25/2021 2:30:00 AM 2.5 36.5 0.276 8.15 4.03 13.81
12/25/2021 2:45:00 AM 2.51 36.518 0.276 8.15 4.17 13.78
12/25/2021 3:00:00 AM 2.53 36.554 0.276 8.14 4.05 13.75
12/25/2021 3:15:00 AM 2.54 36.572 0.276 8.14 3.72 13.73
12/25/2021 3:30:00 AM 2.55 36.59 0.276 8.13 4.12 13.7
12/25/2021 3:45:00 AM 2.56 36.608 0.276 8.13 4.1 13.67
12/25/2021 4:00:00 AM 2.58 36.644 0.276 8.12 3.77 13.64
12/25/2021 4:15:00 AM 2.59 36.662 0.276 8.12 4.01 13.61
12/25/2021 4:30:00 AM 2.6 36.68 0.276 8.11 4.01 13.6
12/25/2021 4:45:00 AM 2.61 36.698 0.276 8.11 3.8 13.56
12/25/2021 5:00:00 AM 2.62 36.716 0.276 8.1 3.79 13.54
12/25/2021 5:15:00 AM 2.63 36.734 0.276 8.09 4.03 13.5
12/25/2021 5:30:00 AM 2.65 36.77 0.276 8.09 4.08 13.47
12/25/2021 5:45:00 AM 2.66 36.788 0.276 8.08 3.78 13.44
12/25/2021 6:00:00 AM 2.67 36.806 0.276 8.07 3.94 13.41
12/25/2021 6:15:00 AM 2.68 36.824 0.275 8.06 3.94 13.38
12/25/2021 6:30:00 AM 2.68 36.824 0.275 8.06 4.11 13.35
12/25/2021 6:45:00 AM 2.69 36.842 0.275 8.05 3.92 13.32
12/25/2021 7:00:00 AM 2.7 36.86 0.275 8.04 3.91 13.28
12/25/2021 7:15:00 AM 2.71 36.878 0.276 8.03 4.04 13.26
12/25/2021 7:30:00 AM 2.72 36.896 0.276 8.02 4.09 13.22
12/25/2021 7:45:00 AM 2.72 36.896 0.276 8.01 4.16 13.2
12/25/2021 8:00:00 AM 2.72 36.896 0.277 8 4.23 13.17
12/25/2021 8:15:00 AM 2.73 36.914 0.277 7.99 4.33 13.15
12/25/2021 8:30:00 AM 2.74 36.932 0.276 7.98 4.55 13.14
12/25/2021 8:45:00 AM 2.74 36.932 0.277 7.98 4.59 13.13
12/25/2021 9:00:00 AM 2.75 36.95 0.276 7.98 4.74 13.14
12/25/2021 9:15:00 AM 2.76 36.968 0.276 7.97 4.46 13.14
12/25/2021 9:30:00 AM 2.78 37.004 0.276 7.97 4.74 13.16
12/25/2021 9:45:00 AM 2.79 37.022 0.275 7.98 4.67 13.17
12/25/2021 10:00:00 AM 2.8 37.04 0.275 7.98 4.62 13.2
12/25/2021 10:15:00 AM 2.83 37.094 0.275 7.99 4.67 13.25
12/25/2021 10:30:00 AM 2.85 37.13 0.275 8 4.43 13.3
12/25/2021 10:45:00 AM 2.88 37.184 0.275 8.01 4.55 13.39
12/25/2021 11:00:00 AM 2.91 37.238 0.275 8.03 4.9 13.49
12/25/2021 11:15:00 AM 2.93 37.274 0.275 8.05 5.09 13.59
12/25/2021 11:30:00 AM 2.95 37.31 0.276 8.08 5.47 13.69
12/25/2021 11:45:00 AM 2.98 37.364 0.276 8.1 6.2 13.77
12/25/2021 12:00:00 PM 3.01 37.418 0.275 8.13 6.16 13.85
12/25/2021 12:15:00 PM 3.02 37.436 0.276 8.14 6.14 13.9
12/25/2021 12:30:00 PM 3.05 37.49 0.275 8.16 5.95 13.95
12/25/2021 12:45:00 PM 3.08 37.544 0.275 8.18 5.95 14.01
12/25/2021 1:00:00 PM 3.11 37.598 0.274 8.2 5.4 14.06
12/25/2021 1:15:00 PM 3.13 37.634 0.274 8.22 5.07 14.1
12/25/2021 1:30:00 PM 3.17 37.706 0.274 8.24 4.95 14.17
12/25/2021 1:45:00 PM 3.2 37.76 0.274 8.26 4.51 14.2
12/25/2021 2:00:00 PM 3.22 37.796 0.274 8.28 4.4 14.24
12/25/2021 2:15:00 PM 3.26 37.868 0.274 8.29 4.39 14.3
12/25/2021 2:30:00 PM 3.28 37.904 0.274 8.31 4.37 14.33
12/25/2021 2:45:00 PM 3.3 37.94 0.274 8.33 4.28 14.37
12/25/2021 3:00:00 PM 3.32 37.976 0.274 8.34 4.27 14.4
12/25/2021 3:15:00 PM 3.35 38.03 0.275 8.36 4.19 14.43
12/25/2021 3:30:00 PM 3.37 38.066 0.275 8.38 3.92 14.47
12/25/2021 3:45:00 PM 3.39 38.102 0.275 8.38 3.89 14.47
12/25/2021 4:00:00 PM 3.4 38.12 0.276 8.39 4.1 14.46
12/25/2021 4:15:00 PM 3.42 38.156 0.277 8.39 4.1 14.45
12/25/2021 4:30:00 PM 3.43 38.174 0.278 8.39 3.89 14.39
12/25/2021 4:45:00 PM 3.44 38.192 0.278 8.37 3.93 14.33
12/25/2021 5:00:00 PM 3.46 38.228 0.279 8.36 3.82 14.26
12/25/2021 5:15:00 PM 3.47 38.246 0.28 8.35 3.88 14.21
12/25/2021 5:30:00 PM 3.48 38.264 0.281 8.33 4.21 14.14
12/25/2021 5:45:00 PM 3.5 38.3 0.281 8.32 3.75 14.08
12/25/2021 6:00:00 PM 3.51 38.318 0.282 8.3 4.08 14.01
12/25/2021 6:15:00 PM 3.52 38.336 0.283 8.29 3.86 13.94
12/25/2021 6:30:00 PM 3.54 38.372 0.283 8.27 3.95 13.89
12/25/2021 6:45:00 PM 3.54 38.372 0.283 8.25 3.8 13.83
12/25/2021 7:00:00 PM 3.56 38.408 0.284 8.24 3.88 13.77
12/25/2021 7:15:00 PM 3.57 38.426 0.284 8.23 3.82 13.73
12/25/2021 7:30:00 PM 3.58 38.444 0.284 8.21 4.23 13.68
12/25/2021 7:45:00 PM 3.6 38.48 0.284 8.2 3.83 13.63
12/25/2021 8:00:00 PM 3.61 38.498 0.285 8.19 3.95 13.59
12/25/2021 8:15:00 PM 3.63 38.534 0.286 8.18 3.93 13.56
12/25/2021 8:30:00 PM 3.66 38.588 0.286 8.17 3.82 13.52
12/25/2021 8:45:00 PM 3.69 38.642 0.287 8.16 4.14 13.48
12/25/2021 9:00:00 PM 3.71 38.678 0.287 8.16 4.31 13.44
12/25/2021 9:15:00 PM 3.73 38.714 0.286 8.15 4.23 13.41
12/25/2021 9:30:00 PM 3.75 38.75 0.286 8.14 4.25 13.38
12/25/2021 9:45:00 PM 3.77 38.786 0.285 8.13 4.23 13.35
12/25/2021 10:00:00 PM 3.79 38.822 0.285 8.13 4.46 13.33
12/25/2021 10:15:00 PM 3.81 38.858 0.284 8.12 4.3 13.3
12/25/2021 10:30:00 PM 3.82 38.876 0.284 8.12 4.33 13.28
12/25/2021 10:45:00 PM 3.83 38.894 0.283 8.11 4.08 13.25
12/25/2021 11:00:00 PM 3.85 38.93 0.283 8.1 4.24 13.23
12/25/2021 11:15:00 PM 3.86 38.948 0.282 8.1 4.44 13.21
12/25/2021 11:30:00 PM 3.87 38.966 0.281 8.1 4.37 13.19
12/25/2021 11:45:00 PM 3.88 38.984 0.281 8.09 4.53 13.16
12/26/2021 12:00:00 AM 3.89 39.002 0.28 8.08 4.25 13.15
12/26/2021 12:15:00 AM 3.9 39.02 0.28 8.08 4.39 13.13
12/26/2021 12:30:00 AM 3.91 39.038 0.279 8.08 4.44 13.11
12/26/2021 12:45:00 AM 3.91 39.038 0.279 8.07 4.53 13.09
12/26/2021 1:00:00 AM 3.93 39.074 0.278 8.07 4.49 13.07
12/26/2021 1:15:00 AM 3.93 39.074 0.277 8.06 4.5 13.05
12/26/2021 1:30:00 AM 3.94 39.092 0.276 8.06 4.64 13.03
12/26/2021 1:45:00 AM 3.94 39.092 0.276 8.06 4.64 13.02
12/26/2021 2:00:00 AM 3.94 39.092 0.275 8.06 4.93 13.01
12/26/2021 2:15:00 AM 3.95 39.11 0.275 8.06 4.76 12.98
12/26/2021 2:30:00 AM 3.95 39.11 0.274 8.05 4.99 12.96
12/26/2021 2:45:00 AM 3.95 39.11 0.274 8.05 4.92 12.94
12/26/2021 3:00:00 AM 3.95 39.11 0.273 8.04 4.72 12.92
12/26/2021 3:15:00 AM 3.96 39.128 0.272 8.04 4.63 12.89
12/26/2021 3:30:00 AM 3.96 39.128 0.272 8.03 4.53 12.87
12/26/2021 3:45:00 AM 3.96 39.128 0.271 8.03 4.81 12.84
12/26/2021 4:00:00 AM 3.96 39.128 0.27 8.02 4.57 12.83
12/26/2021 4:15:00 AM 3.97 39.146 0.27 8.01 4.67 12.8
12/26/2021 4:30:00 AM 3.97 39.146 0.269 8.01 5.03 12.76
12/26/2021 4:45:00 AM 3.97 39.146 0.268 8 4.82 12.75
12/26/2021 5:00:00 AM 3.98 39.164 0.267 7.99 5.17 12.73
12/26/2021 5:15:00 AM 3.98 39.164 0.267 7.99 5.18 12.7
12/26/2021 5:30:00 AM 3.98 39.164 0.266 7.98 5.03 12.68
12/26/2021 5:45:00 AM 3.98 39.164 0.265 7.97 5.25 12.65
12/26/2021 6:00:00 AM 3.98 39.164 0.264 7.96 5.37 12.64
12/26/2021 6:15:00 AM 3.98 39.164 0.264 7.95 5.01 12.61
12/26/2021 6:30:00 AM 3.98 39.164 0.263 7.94 5.51 12.59
12/26/2021 6:45:00 AM 3.98 39.164 0.263 7.94 5.07 12.58
12/26/2021 7:00:00 AM 3.98 39.164 0.263 7.93 5.12 12.57
12/26/2021 7:15:00 AM 3.98 39.164 0.263 7.92 5.54 12.55
12/26/2021 7:30:00 AM 3.98 39.164 0.263 7.92 5.13 12.55
12/26/2021 7:45:00 AM 3.98 39.164 0.263 7.91 5.36 12.53
12/26/2021 8:00:00 AM 3.98 39.164 0.263 7.91 5.72 12.53
12/26/2021 8:15:00 AM 3.98 39.164 0.263 7.91 5.52 12.54
12/26/2021 8:30:00 AM 3.97 39.146 0.263 7.91 5.66 12.57
12/26/2021 8:45:00 AM 3.97 39.146 0.263 7.92 5.72 12.61
12/26/2021 9:00:00 AM 3.96 39.128 0.262 7.93 5.5 12.67
12/26/2021 9:15:00 AM 3.97 39.146 0.262 7.94 5.77 12.73
12/26/2021 9:30:00 AM 3.97 39.146 0.262 7.95 5.42 12.79
12/26/2021 9:45:00 AM 3.98 39.164 0.262 7.97 5.12 12.88
12/26/2021 10:00:00 AM 3.99 39.182 0.262 7.99 5.16 12.95
12/26/2021 10:15:00 AM 4 39.2 0.262 8 5.47 13
12/26/2021 10:30:00 AM 4 39.2 0.262 8.01 5.21 13.04
12/26/2021 10:45:00 AM 4.01 39.218 0.262 8.02 5.35 13.08
12/26/2021 11:00:00 AM 4.01 39.218 0.262 8.03 5.28 13.11
12/26/2021 11:15:00 AM 4.02 39.236 0.262 8.04 5.38 13.14
12/26/2021 11:30:00 AM 4.03 39.254 0.262 8.05 5.44 13.19
12/26/2021 11:45:00 AM 4.04 39.272 0.262 8.07 5.51 13.25
12/26/2021 12:00:00 PM 4.06 39.308 0.262 8.09 5.27 13.34
12/26/2021 12:15:00 PM 4.09 39.362 0.261 8.12 5.25 13.44
12/26/2021 12:30:00 PM 4.11 39.398 0.261 8.15 5.04 13.54
12/26/2021 12:45:00 PM 4.12 39.416 0.261 8.18 5.32 13.64
12/26/2021 1:00:00 PM 4.13 39.434 0.261 8.21 5.01 13.71
12/26/2021 1:15:00 PM 4.13 39.434 0.261 8.22 4.92 13.75
12/26/2021 1:30:00 PM 4.14 39.452 0.261 8.24 4.89 13.8
12/26/2021 1:45:00 PM 4.14 39.452 0.261 8.25 5.05 13.83
12/26/2021 2:00:00 PM 4.14 39.452 0.261 8.27 4.95 13.87
12/26/2021 2:15:00 PM 4.14 39.452 0.261 8.29 5.59 13.93
12/26/2021 2:30:00 PM 4.13 39.434 0.26 8.3 4.87 13.96
12/26/2021 2:45:00 PM 4.12 39.416 0.26 8.31 5.46 13.99
12/26/2021 3:00:00 PM 4.11 39.398 0.26 8.32 5.11 14
12/26/2021 3:15:00 PM 4.11 39.398 0.26 8.33 5.06 14.02
12/26/2021 3:30:00 PM 4.11 39.398 0.26 8.35 5.12 14.06
12/26/2021 3:45:00 PM 4.11 39.398 0.26 8.36 5.03 14.1
12/26/2021 4:00:00 PM 4.11 39.398 0.26 8.37 5.21 14.1
12/26/2021 4:15:00 PM 4.1 39.38 0.26 8.37 5.5 14.09
12/26/2021 4:30:00 PM 4.09 39.362 0.26 8.36 5.26 14.05
12/26/2021 4:45:00 PM 4.08 39.344 0.261 8.35 5.54 14.01
12/26/2021 5:00:00 PM 4.07 39.326 0.261 8.33 5.39 13.95
12/26/2021 5:15:00 PM 4.05 39.29 0.261 8.31 5.41 13.88
12/26/2021 5:30:00 PM 4.05 39.29 0.261 8.29 5.65 13.82
12/26/2021 5:45:00 PM 4.03 39.254 0.261 8.27 5.64 13.76
12/26/2021 6:00:00 PM 4.02 39.236 0.261 8.25 5.92 13.7
12/26/2021 6:15:00 PM 4 39.2 0.261 8.24 5.66 13.66
12/26/2021 6:30:00 PM 3.98 39.164 0.261 8.22 5.78 13.62
12/26/2021 6:45:00 PM 3.97 39.146 0.261 8.21 6.02 13.58
12/26/2021 7:00:00 PM 3.95 39.11 0.261 8.2 5.58 13.56
12/26/2021 7:15:00 PM 3.94 39.092 0.261 8.19 5.58 13.55
12/26/2021 7:30:00 PM 3.93 39.074 0.261 8.19 5.73 13.54
12/26/2021 7:45:00 PM 3.93 39.074 0.26 8.19 5.61 13.53
12/26/2021 8:00:00 PM 3.93 39.074 0.26 8.19 5.77 13.52
12/26/2021 8:15:00 PM 3.94 39.092 0.26 8.19 5.71 13.51
12/26/2021 8:30:00 PM 3.94 39.092 0.26 8.18 6.13 13.51
12/26/2021 8:45:00 PM 3.94 39.092 0.26 8.19 5.98 13.5
12/26/2021 9:00:00 PM 3.95 39.11 0.26 8.19 5.84 13.5
12/26/2021 9:15:00 PM 3.94 39.092 0.26 8.19 5.36 13.48
12/26/2021 9:30:00 PM 3.94 39.092 0.26 8.18 5.78 13.46
12/26/2021 9:45:00 PM 3.93 39.074 0.26 8.18 5.51 13.46
12/26/2021 10:00:00 PM 3.92 39.056 0.26 8.18 5.45 13.44
12/26/2021 10:15:00 PM 3.9 39.02 0.26 8.17 5.53 13.41
12/26/2021 10:30:00 PM 3.89 39.002 0.26 8.16 5.34 13.4
12/26/2021 10:45:00 PM 3.87 38.966 0.26 8.16 5.74 13.37
12/26/2021 11:00:00 PM 3.86 38.948 0.26 8.15 5.52 13.36
12/26/2021 11:15:00 PM 3.85 38.93 0.26 8.15 5.5 13.35
12/26/2021 11:30:00 PM 3.84 38.912 0.26 8.15 5.59 13.33
12/26/2021 11:45:00 PM 3.83 38.894 0.26 8.14 5.45 13.33
12/27/2021 12:00:00 AM 3.83 38.894 0.26 8.13 5.06 13.31
12/27/2021 12:15:00 AM 3.82 38.876 0.259 8.14 5.2 13.3
12/27/2021 12:30:00 AM 3.82 38.876 0.259 8.13 5.48 13.28
12/27/2021 12:45:00 AM 3.81 38.858 0.259 8.13 5.08 13.27
12/27/2021 1:00:00 AM 3.8 38.84 0.259 8.13 5.44 13.26
12/27/2021 1:15:00 AM 3.8 38.84 0.259 8.13 5.2 13.25
12/27/2021 1:30:00 AM 3.79 38.822 0.26 8.12 5.74 13.23
12/27/2021 1:45:00 AM 3.78 38.804 0.26 8.12 4.92 13.21
12/27/2021 2:00:00 AM 3.77 38.786 0.26 8.11 4.95 13.2
12/27/2021 2:15:00 AM 3.76 38.768 0.26 8.11 4.96 13.18
12/27/2021 2:30:00 AM 3.75 38.75 0.26 8.1 5.09 13.16
12/27/2021 2:45:00 AM 3.74 38.732 0.26 8.1 5.12 13.15
12/27/2021 3:00:00 AM 3.72 38.696 0.26 8.08 5.26 13.12
12/27/2021 3:15:00 AM 3.71 38.678 0.26 8.08 5.07 13.11
12/27/2021 3:30:00 AM 3.69 38.642 0.26 8.07 4.96 13.09
12/27/2021 3:45:00 AM 3.68 38.624 0.261 8.07 5.25 13.07
12/27/2021 4:00:00 AM 3.67 38.606 0.261 8.06 4.77 13.05
12/27/2021 4:15:00 AM 3.66 38.588 0.261 8.05 4.9 13.03
12/27/2021 4:30:00 AM 3.65 38.57 0.261 8.04 5.09 13.01
12/27/2021 4:45:00 AM 3.63 38.534 0.261 8.03 4.75 12.99
12/27/2021 5:00:00 AM 3.62 38.516 0.26 8.02 5.02 12.97
12/27/2021 5:15:00 AM 3.6 38.48 0.26 8.02 4.85 12.96
12/27/2021 5:30:00 AM 3.59 38.462 0.26 8.01 4.84 12.94
12/27/2021 5:45:00 AM 3.57 38.426 0.26 8 5.2 12.93
12/27/2021 6:00:00 AM 3.56 38.408 0.26 7.99 5.23 12.91
12/27/2021 6:15:00 AM 3.54 38.372 0.26 7.99 4.83 12.89
12/27/2021 6:30:00 AM 3.53 38.354 0.26 7.98 5.35 12.87
12/27/2021 6:45:00 AM 3.51 38.318 0.26 7.97 5.02 12.87
12/27/2021 7:00:00 AM 3.5 38.3 0.26 7.96 4.88 12.85
12/27/2021 7:15:00 AM 3.49 38.282 0.26 7.96 4.74 12.84
12/27/2021 7:30:00 AM 3.47 38.246 0.26 7.95 5.01 12.82
12/27/2021 7:45:00 AM 3.46 38.228 0.26 7.95 5.13 12.81
12/27/2021 8:00:00 AM 3.45 38.21 0.259 7.94 5.13 12.81
12/27/2021 8:15:00 AM 3.44 38.192 0.259 7.93 5.13 12.79
12/27/2021 8:30:00 AM 3.43 38.174 0.259 7.93 5.15 12.8
12/27/2021 8:45:00 AM 3.42 38.156 0.259 7.92 5.18 12.79
12/27/2021 9:00:00 AM 3.41 38.138 0.259 7.92 6.16 12.8
12/27/2021 9:15:00 AM 3.4 38.12 0.259 7.92 5.52 12.8
12/27/2021 9:30:00 AM 3.39 38.102 0.259 7.92 5.31 12.83
12/27/2021 9:45:00 AM 3.38 38.084 0.259 7.93 5.44 12.86
12/27/2021 10:00:00 AM 3.37 38.066 0.258 7.92 5.5 12.91
12/27/2021 10:15:00 AM 3.37 38.066 0.258 7.94 5.65 12.97
12/27/2021 10:30:00 AM 3.38 38.084 0.258 7.96 5.41 13.05
12/27/2021 10:45:00 AM 3.39 38.102 0.258 7.98 5.33 13.14
12/27/2021 11:00:00 AM 3.4 38.12 0.258 8 5.36 13.23
12/27/2021 11:15:00 AM 3.4 38.12 0.258 8.01 5.59 13.3
12/27/2021 11:30:00 AM 3.4 38.12 0.258 8.04 5.33 13.4
12/27/2021 11:45:00 AM 3.38 38.084 0.258 8.05 5.31 13.45
12/27/2021 12:00:00 PM 3.37 38.066 0.258 8.06 5.29 13.49
12/27/2021 12:15:00 PM 3.35 38.03 0.258 8.07 5.66 13.52
12/27/2021 12:30:00 PM 3.32 37.976 0.258 8.08 5.28 13.55
12/27/2021 12:45:00 PM 3.28 37.904 0.258 8.09 5.39 13.61
12/27/2021 1:00:00 PM 3.23 37.814 0.258 8.11 5.64 13.65
12/27/2021 1:15:00 PM 3.21 37.778 0.258 8.12 5.36 13.7
12/27/2021 1:30:00 PM 3.2 37.76 0.258 8.13 5.29 13.74
12/27/2021 1:45:00 PM 3.19 37.742 0.258 8.14 5.31 13.76
12/27/2021 2:00:00 PM 3.19 37.742 0.259 8.15 5.47 13.79
12/27/2021 2:15:00 PM 3.19 37.742 0.259 8.16 5.29 13.82
12/27/2021 2:30:00 PM 3.18 37.724 0.259 8.16 5.55 13.84
12/27/2021 2:45:00 PM 3.16 37.688 0.259 8.17 5.29 13.86
12/27/2021 3:00:00 PM 3.15 37.67 0.259 8.17 5.37 13.85
12/27/2021 3:15:00 PM 3.14 37.652 0.259 8.17 5.41 13.85
12/27/2021 3:30:00 PM 3.12 37.616 0.259 8.17 5.3 13.84
12/27/2021 3:45:00 PM 3.12 37.616 0.26 8.16 5.62 13.82
12/27/2021 4:00:00 PM 3.11 37.598 0.26 8.15 5.11 13.8
12/27/2021 4:15:00 PM 3.1 37.58 0.26 8.15 5.35 13.78
12/27/2021 4:30:00 PM 3.09 37.562 0.26 8.14 5.21 13.75
12/27/2021 4:45:00 PM 3.08 37.544 0.26 8.13 5.18 13.71
12/27/2021 5:00:00 PM 3.07 37.526 0.26 8.12 5.04 13.68
12/27/2021 5:15:00 PM 3.05 37.49 0.261 8.11 5.35 13.65
12/27/2021 5:30:00 PM 3.04 37.472 0.261 8.1 5.18 13.61
12/27/2021 5:45:00 PM 3.03 37.454 0.261 8.09 5.58 13.58
12/27/2021 6:00:00 PM 3.01 37.418 0.261 8.07 5.13 13.55
12/27/2021 6:15:00 PM 3 37.4 0.261 8.07 5.01 13.53
12/27/2021 6:30:00 PM 2.98 37.364 0.261 8.06 5.23 13.51
12/27/2021 6:45:00 PM 2.98 37.364 0.261 8.05 5.16 13.49
12/27/2021 7:00:00 PM 2.96 37.328 0.261 8.04 4.98 13.47
12/27/2021 7:15:00 PM 2.96 37.328 0.261 8.04 5.29 13.44
12/27/2021 7:30:00 PM 2.95 37.31 0.261 8.02 5.16 13.43
12/27/2021 7:45:00 PM 2.94 37.292 0.261 8.02 5.5 13.41
12/27/2021 8:00:00 PM 2.93 37.274 0.261 8.01 5.26 13.4
12/27/2021 8:15:00 PM 2.93 37.274 0.261 8.01 4.79 13.39
12/27/2021 8:30:00 PM 2.92 37.256 0.261 8 5.06 13.37
12/27/2021 8:45:00 PM 2.92 37.256 0.261 8 4.88 13.36
12/27/2021 9:00:00 PM 2.91 37.238 0.261 7.99 4.85 13.35
12/27/2021 9:15:00 PM 2.91 37.238 0.262 7.99 5 13.34
12/27/2021 9:30:00 PM 2.9 37.22 0.261 7.99 5.43 13.33
12/27/2021 9:45:00 PM 2.9 37.22 0.261 7.98 4.6 13.32
12/27/2021 10:00:00 PM 2.9 37.22 0.261 7.98 4.81 13.31
12/27/2021 10:15:00 PM 2.89 37.202 0.261 7.97 5.27 13.3
12/27/2021 10:30:00 PM 2.89 37.202 0.261 7.97 4.43 13.3
12/27/2021 10:45:00 PM 2.88 37.184 0.261 7.97 4.98 13.28
12/27/2021 11:00:00 PM 2.88 37.184 0.261 7.97 4.84 13.28
12/27/2021 11:15:00 PM 2.88 37.184 0.26 7.96 5.06 13.27
12/27/2021 11:30:00 PM 2.87 37.166 0.26 7.96 4.83 13.26
12/27/2021 11:45:00 PM 2.87 37.166 0.261 7.96 4.33 13.26
12/28/2021 12:00:00 AM 2.86 37.148 0.261 7.95 4.65 13.25
12/28/2021 12:15:00 AM 2.86 37.148 0.261 7.96 4.71 13.24
12/28/2021 12:30:00 AM 2.86 37.148 0.262 7.95 4.39 13.23
12/28/2021 12:45:00 AM 2.86 37.148 0.262 7.94 4.63 13.23
12/28/2021 1:00:00 AM 2.86 37.148 0.263 7.95 4.64 13.22
12/28/2021 1:15:00 AM 2.85 37.13 0.263 7.94 4.7 13.21
12/28/2021 1:30:00 AM 2.85 37.13 0.263 7.94 4.32 13.2
12/28/2021 1:45:00 AM 2.85 37.13 0.263 7.93 4.41 13.2
12/28/2021 2:00:00 AM 2.85 37.13 0.263 7.94 4.23 13.18
12/28/2021 2:15:00 AM 2.85 37.13 0.263 7.93 4.57 13.17
12/28/2021 2:30:00 AM 2.85 37.13 0.263 7.93 4.39 13.16
12/28/2021 2:45:00 AM 2.85 37.13 0.263 7.93 4.73 13.15
12/28/2021 3:00:00 AM 2.85 37.13 0.263 7.92 4.54 13.14
12/28/2021 3:15:00 AM 2.84 37.112 0.263 7.92 4.58 13.13
12/28/2021 3:30:00 AM 2.83 37.094 0.264 7.91 4.67 13.12
12/28/2021 3:45:00 AM 2.83 37.094 0.264 7.91 4.61 13.11
12/28/2021 4:00:00 AM 2.82 37.076 0.264 7.91 4.57 13.09
12/28/2021 4:15:00 AM 2.8 37.04 0.264 7.91 4.51 13.08
12/28/2021 4:30:00 AM 2.79 37.022 0.265 7.9 4.47 13.06
12/28/2021 4:45:00 AM 2.77 36.986 0.265 7.9 4.31 13.05
12/28/2021 5:00:00 AM 2.76 36.968 0.266 7.9 4.31 13.05
12/28/2021 5:15:00 AM 2.74 36.932 0.266 7.9 4.3 13.03
12/28/2021 5:30:00 AM 2.72 36.896 0.267 7.89 4.17 13.02
12/28/2021 5:45:00 AM 2.7 36.86 0.268 7.89 4.33 13.01
12/28/2021 6:00:00 AM 2.68 36.824 0.269 7.89 4.6 13.01
12/28/2021 6:15:00 AM 2.67 36.806 0.269 7.88 4.44 12.99
12/28/2021 6:30:00 AM 2.65 36.77 0.27 7.88 4.55 12.98
12/28/2021 6:45:00 AM 2.64 36.752 0.27 7.87 4.51 12.97
12/28/2021 7:00:00 AM 2.62 36.716 0.27 7.87 4.62 12.96
12/28/2021 7:15:00 AM 2.6 36.68 0.271 7.87 4.62 12.97
12/28/2021 7:30:00 AM 2.59 36.662 0.271 7.87 4.49 12.95
12/28/2021 7:45:00 AM 2.58 36.644 0.271 7.87 4.62 12.96
12/28/2021 8:00:00 AM 2.57 36.626 0.271 7.87 4.5 12.96
12/28/2021 8:15:00 AM 2.56 36.608 0.271 7.87 4.59 12.98
12/28/2021 8:30:00 AM 2.55 36.59 0.271 7.86 4.7 13
12/28/2021 8:45:00 AM 2.54 36.572 0.271 7.88 4.45 13.04
12/28/2021 9:00:00 AM 2.54 36.572 0.271 7.89 4.28 13.09
12/28/2021 9:15:00 AM 2.54 36.572 0.271 7.89 4.18 13.16
12/28/2021 9:30:00 AM 2.54 36.572 0.271 7.92 4.28 13.24
12/28/2021 9:45:00 AM 2.56 36.608 0.271 7.93 5.04 13.35
12/28/2021 10:00:00 AM 2.59 36.662 0.271 7.96 4.35 13.48
12/28/2021 10:15:00 AM 2.63 36.734 0.27 8 4.21 13.6
12/28/2021 10:30:00 AM 2.67 36.806 0.27 8.03 4.16 13.75
12/28/2021 10:45:00 AM 2.71 36.878 0.27 8.07 4.05 13.88
12/28/2021 11:00:00 AM 2.76 36.968 0.27 8.1 4.04 14
12/28/2021 11:15:00 AM 2.79 37.022 0.27 8.13 4.04 14.09
12/28/2021 11:30:00 AM 2.81 37.058 0.27 8.15 4.37 14.17
12/28/2021 11:45:00 AM 2.83 37.094 0.27 8.19 3.94 14.26
12/28/2021 12:00:00 PM 2.87 37.166 0.27 8.22 4.08 14.36
12/28/2021 12:15:00 PM 2.9 37.22 0.27 8.25 3.82 14.44
12/28/2021 12:30:00 PM 2.94 37.292 0.27 8.28 3.94 14.54
12/28/2021 12:45:00 PM 2.98 37.364 0.27 8.31 4.16 14.63
12/28/2021 1:00:00 PM 3.01 37.418 0.27 8.35 3.65 14.73
12/28/2021 1:15:00 PM 3.03 37.454 0.27 8.38 4.03 14.81
12/28/2021 1:30:00 PM 3.04 37.472 0.27 8.4 3.98 14.87
12/28/2021 1:45:00 PM 3.04 37.472 0.27 8.42 3.99 14.89
12/28/2021 2:00:00 PM 3.04 37.472 0.27 8.43 3.86 14.89
12/28/2021 2:15:00 PM 3.04 37.472 0.27 8.44 3.83 14.89
12/28/2021 2:30:00 PM 3.05 37.49 0.27 8.45 3.97 14.91
12/28/2021 2:45:00 PM 3.06 37.508 0.27 8.45 3.99 14.91
12/28/2021 3:00:00 PM 3.07 37.526 0.27 8.46 3.8 14.91
12/28/2021 3:15:00 PM 3.09 37.562 0.27 8.47 3.83 14.91
12/28/2021 3:30:00 PM 3.1 37.58 0.27 8.47 3.67 14.9
12/28/2021 3:45:00 PM 3.11 37.598 0.27 8.47 3.86 14.87
12/28/2021 4:00:00 PM 3.11 37.598 0.27 8.46 3.89 14.81
12/28/2021 4:15:00 PM 3.12 37.616 0.27 8.45 3.91 14.74
12/28/2021 4:30:00 PM 3.12 37.616 0.27 8.44 3.8 14.68
12/28/2021 4:45:00 PM 3.12 37.616 0.27 8.42 4.01 14.63
12/28/2021 5:00:00 PM 3.12 37.616 0.271 8.41 3.63 14.57
12/28/2021 5:15:00 PM 3.12 37.616 0.271 8.4 3.68 14.52
12/28/2021 5:30:00 PM 3.12 37.616 0.271 8.38 3.77 14.46
12/28/2021 5:45:00 PM 3.13 37.634 0.271 8.37 3.93 14.41
12/28/2021 6:00:00 PM 3.13 37.634 0.271 8.36 3.83 14.36
12/28/2021 6:15:00 PM 3.13 37.634 0.271 8.34 3.75 14.31
12/28/2021 6:30:00 PM 3.13 37.634 0.271 8.33 3.83 14.27
12/28/2021 6:45:00 PM 3.12 37.616 0.271 8.32 3.73 14.23
12/28/2021 7:00:00 PM 3.12 37.616 0.27 8.31 3.79 14.18
12/28/2021 7:15:00 PM 3.08 37.544 0.27 8.29 3.98 14.15
12/28/2021 7:30:00 PM 3.05 37.49 0.27 8.28 3.71 14.11
12/28/2021 7:45:00 PM 3.02 37.436 0.27 8.28 4.13 14.08
12/28/2021 8:00:00 PM 3 37.4 0.27 8.27 3.69 14.04
12/28/2021 8:15:00 PM 2.96 37.328 0.27 8.26 3.86 14.01
12/28/2021 8:30:00 PM 2.95 37.31 0.27 8.24 3.76 13.98
12/28/2021 8:45:00 PM 2.92 37.256 0.27 8.24 3.74 13.95
12/28/2021 9:00:00 PM 2.9 37.22 0.27 8.23 3.89 13.91
12/28/2021 9:15:00 PM 2.89 37.202 0.27 8.22 3.77 13.89
12/28/2021 9:30:00 PM 2.89 37.202 0.27 8.21 3.57 13.86
12/28/2021 9:45:00 PM 2.89 37.202 0.27 8.2 3.86 13.83
12/28/2021 10:00:00 PM 2.9 37.22 0.271 8.19 3.86 13.81
12/28/2021 10:15:00 PM 2.9 37.22 0.271 8.18 3.84 13.78
12/28/2021 10:30:00 PM 2.9 37.22 0.271 8.18 3.82 13.75
12/28/2021 10:45:00 PM 2.91 37.238 0.272 8.17 3.77 13.74
12/28/2021 11:00:00 PM 2.91 37.238 0.272 8.16 3.77 13.72
12/28/2021 11:15:00 PM 2.92 37.256 0.272 8.16 3.95 13.69
12/28/2021 11:30:00 PM 2.92 37.256 0.272 8.15 3.95 13.68
12/28/2021 11:45:00 PM 2.93 37.274 0.272 8.14 4 13.66
12/29/2021 12:00:00 AM 2.93 37.274 0.272 8.14 3.62 13.64
12/29/2021 12:15:00 AM 2.93 37.274 0.272 8.13 4.06 13.61
12/29/2021 12:30:00 AM 2.94 37.292 0.272 8.14 3.66 13.6
12/29/2021 12:45:00 AM 2.94 37.292 0.272 8.13 3.74 13.58
12/29/2021 1:00:00 AM 2.95 37.31 0.272 8.12 3.84 13.56
12/29/2021 1:15:00 AM 2.95 37.31 0.272 8.13 3.62 13.54
12/29/2021 1:30:00 AM 2.95 37.31 0.272 8.12 3.68 13.52
12/29/2021 1:45:00 AM 2.95 37.31 0.272 8.12 3.78 13.5
12/29/2021 2:00:00 AM 2.96 37.328 0.271 8.12 3.69 13.48
12/29/2021 2:15:00 AM 2.96 37.328 0.271 8.11 3.79 13.46
12/29/2021 2:30:00 AM 2.96 37.328 0.271 8.11 3.8 13.44
12/29/2021 2:45:00 AM 2.97 37.346 0.272 8.1 3.83 13.41
12/29/2021 3:00:00 AM 2.97 37.346 0.272 8.1 3.91 13.39
12/29/2021 3:15:00 AM 2.97 37.346 0.272 8.09 3.66 13.36
12/29/2021 3:30:00 AM 2.98 37.364 0.272 8.09 3.85 13.34
12/29/2021 3:45:00 AM 2.98 37.364 0.272 8.08 3.74 13.31
12/29/2021 4:00:00 AM 2.98 37.364 0.272 8.07 3.64 13.28
12/29/2021 4:15:00 AM 2.99 37.382 0.272 8.06 3.74 13.26
12/29/2021 4:30:00 AM 2.99 37.382 0.272 8.05 3.69 13.23
12/29/2021 4:45:00 AM 2.99 37.382 0.272 8.05 3.85 13.2
12/29/2021 5:00:00 AM 3 37.4 0.272 8.04 3.71 13.18
12/29/2021 5:15:00 AM 3 37.4 0.272 8.03 3.77 13.15
12/29/2021 5:30:00 AM 3 37.4 0.273 8.03 3.81 13.13
12/29/2021 5:45:00 AM 3.01 37.418 0.273 8.02 3.68 13.1
12/29/2021 6:00:00 AM 3 37.4 0.274 8.01 3.65 13.08
12/29/2021 6:15:00 AM 3 37.4 0.274 8 3.68 13.06
12/29/2021 6:30:00 AM 3 37.4 0.275 7.99 3.77 13.04
12/29/2021 6:45:00 AM 3 37.4 0.276 7.98 3.75 13.01
12/29/2021 7:00:00 AM 3 37.4 0.277 7.97 3.63 13
12/29/2021 7:15:00 AM 2.99 37.382 0.278 7.97 3.81 12.98
12/29/2021 7:30:00 AM 2.99 37.382 0.278 7.96 3.83 12.97
12/29/2021 7:45:00 AM 2.99 37.382 0.279 7.95 3.68 12.96
12/29/2021 8:00:00 AM 2.98 37.364 0.279 7.94 3.81 12.94
12/29/2021 8:15:00 AM 2.98 37.364 0.28 7.94 3.7 12.94
12/29/2021 8:30:00 AM 2.97 37.346 0.28 7.94 3.84 12.94
12/29/2021 8:45:00 AM 2.97 37.346 0.28 7.93 3.7 12.95
12/29/2021 9:00:00 AM 2.97 37.346 0.28 7.93 3.95 12.97
12/29/2021 9:15:00 AM 2.97 37.346 0.279 7.94 3.56 12.99
12/29/2021 9:30:00 AM 2.97 37.346 0.279 7.94 3.76 13.03
12/29/2021 9:45:00 AM 2.97 37.346 0.279 7.95 3.62 13.07
12/29/2021 10:00:00 AM 2.98 37.364 0.279 7.95 3.58 13.12
12/29/2021 10:15:00 AM 2.98 37.364 0.278 7.96 3.64 13.17
12/29/2021 10:30:00 AM 2.99 37.382 0.278 7.97 3.77 13.25
12/29/2021 10:45:00 AM 3 37.4 0.277 7.99 3.6 13.33
12/29/2021 11:00:00 AM 3.02 37.436 0.277 8.01 3.64 13.41
12/29/2021 11:15:00 AM 3.04 37.472 0.277 8.03 3.48 13.51
12/29/2021 11:30:00 AM 3.06 37.508 0.276 8.06 3.6 13.62
12/29/2021 11:45:00 AM 3.09 37.562 0.276 8.09 3.74 13.74
12/29/2021 12:00:00 PM 3.12 37.616 0.276 8.12 3.72 13.84
12/29/2021 12:15:00 PM 3.15 37.67 0.275 8.15 3.54 13.96
12/29/2021 12:30:00 PM 3.19 37.742 0.275 8.19 3.51 14.06
12/29/2021 12:45:00 PM 3.22 37.796 0.275 8.23 3.68 14.17
12/29/2021 1:00:00 PM 3.25 37.85 0.275 8.26 3.58 14.27
12/29/2021 1:15:00 PM 3.27 37.886 0.274 8.29 3.53 14.36
12/29/2021 1:30:00 PM 3.29 37.922 0.274 8.32 3.49 14.42
12/29/2021 1:45:00 PM 3.31 37.958 0.274 8.34 3.52 14.48
12/29/2021 2:00:00 PM 3.33 37.994 0.274 8.36 3.53 14.54
12/29/2021 2:15:00 PM 3.35 38.03 0.274 8.38 3.76 14.58
12/29/2021 2:30:00 PM 3.37 38.066 0.274 8.4 3.55 14.62
12/29/2021 2:45:00 PM 3.38 38.084 0.274 8.41 3.58 14.65
12/29/2021 3:00:00 PM 3.39 38.102 0.273 8.42 3.63 14.66
12/29/2021 3:15:00 PM 3.4 38.12 0.273 8.43 3.67 14.67
12/29/2021 3:30:00 PM 3.4 38.12 0.273 8.43 3.74 14.66
12/29/2021 3:45:00 PM 3.41 38.138 0.272 8.44 3.73 14.65
12/29/2021 4:00:00 PM 3.42 38.156 0.272 8.43 3.62 14.66
12/29/2021 4:15:00 PM 3.42 38.156 0.272 8.44 3.92 14.64
12/29/2021 4:30:00 PM 3.42 38.156 0.272 8.44 3.83 14.62
12/29/2021 4:45:00 PM 3.42 38.156 0.272 8.43 3.63 14.56
12/29/2021 5:00:00 PM 3.42 38.156 0.272 8.41 3.98 14.49
12/29/2021 5:15:00 PM 3.42 38.156 0.272 8.38 3.73 14.4
12/29/2021 5:30:00 PM 3.42 38.156 0.272 8.37 3.92 14.33
12/29/2021 5:45:00 PM 3.41 38.138 0.272 8.34 3.73 14.26
12/29/2021 6:00:00 PM 3.41 38.138 0.272 8.32 3.61 14.2
12/29/2021 6:15:00 PM 3.41 38.138 0.272 8.31 3.93 14.14
12/29/2021 6:30:00 PM 3.41 38.138 0.272 8.29 3.82 14.09
12/29/2021 6:45:00 PM 3.41 38.138 0.272 8.27 3.72 14.04
12/29/2021 7:00:00 PM 3.41 38.138 0.271 8.26 3.83 13.99
12/29/2021 7:15:00 PM 3.41 38.138 0.271 8.24 3.96 13.95
12/29/2021 7:30:00 PM 3.41 38.138 0.271 8.23 3.84 13.92
12/29/2021 7:45:00 PM 3.41 38.138 0.271 8.22 3.69 13.89
12/29/2021 8:00:00 PM 3.41 38.138 0.271 8.22 3.88 13.87
12/29/2021 8:15:00 PM 3.42 38.156 0.271 8.21 3.86 13.84
12/29/2021 8:30:00 PM 3.42 38.156 0.271 8.2 3.91 13.81
12/29/2021 8:45:00 PM 3.42 38.156 0.271 8.19 4.08 13.79
12/29/2021 9:00:00 PM 3.43 38.174 0.271 8.18 3.66 13.76
12/29/2021 9:15:00 PM 3.43 38.174 0.271 8.17 4.06 13.73
12/29/2021 9:30:00 PM 3.43 38.174 0.271 8.17 3.92 13.71
12/29/2021 9:45:00 PM 3.43 38.174 0.271 8.15 3.75 13.67
12/29/2021 10:00:00 PM 3.44 38.192 0.271 8.15 3.78 13.66
12/29/2021 10:15:00 PM 3.44 38.192 0.272 8.14 3.67 13.63
12/29/2021 10:30:00 PM 3.45 38.21 0.272 8.13 3.87 13.61
12/29/2021 10:45:00 PM 3.45 38.21 0.272 8.13 3.74 13.58
12/29/2021 11:00:00 PM 3.46 38.228 0.272 8.12 3.78 13.56
12/29/2021 11:15:00 PM 3.46 38.228 0.273 8.12 3.96 13.54
12/29/2021 11:30:00 PM 3.47 38.246 0.273 8.11 3.92 13.53
12/29/2021 11:45:00 PM 3.48 38.264 0.273 8.11 3.93 13.5
12/30/2021 12:00:00 AM 3.49 38.282 0.273 8.11 3.93 13.49
12/30/2021 12:15:00 AM 3.5 38.3 0.274 8.11 3.74 13.47
12/30/2021 12:30:00 AM 3.51 38.318 0.274 8.1 4.17 13.46
12/30/2021 12:45:00 AM 3.52 38.336 0.274 8.1 4.02 13.43
12/30/2021 1:00:00 AM 3.52 38.336 0.274 8.1 4.01 13.42
12/30/2021 1:15:00 AM 3.53 38.354 0.274 8.09 4 13.39
12/30/2021 1:30:00 AM 3.54 38.372 0.274 8.09 4.08 13.37
12/30/2021 1:45:00 AM 3.55 38.39 0.274 8.09 4.18 13.35
12/30/2021 2:00:00 AM 3.56 38.408 0.274 8.08 4.35 13.32
12/30/2021 2:15:00 AM 3.57 38.426 0.274 8.07 4.47 13.3
12/30/2021 2:30:00 AM 3.58 38.444 0.273 8.07 4.02 13.26
12/30/2021 2:45:00 AM 3.58 38.444 0.273 8.06 4.42 13.24
12/30/2021 3:00:00 AM 3.59 38.462 0.272 8.05 4.4 13.22
12/30/2021 3:15:00 AM 3.6 38.48 0.271 8.05 4.28 13.18
12/30/2021 3:30:00 AM 3.6 38.48 0.271 8.03 4.07 13.15
12/30/2021 3:45:00 AM 3.61 38.498 0.27 8.03 4.24 13.13
12/30/2021 4:00:00 AM 3.62 38.516 0.269 8.02 4.48 13.11
12/30/2021 4:15:00 AM 3.62 38.516 0.268 8.02 4.4 13.07
12/30/2021 4:30:00 AM 3.63 38.534 0.267 8.01 4.37 13.05
12/30/2021 4:45:00 AM 3.63 38.534 0.266 8 4.71 13.02
12/30/2021 5:00:00 AM 3.64 38.552 0.265 7.98 4.38 12.99
12/30/2021 5:15:00 AM 3.64 38.552 0.265 7.98 4.29 12.97
12/30/2021 5:30:00 AM 3.65 38.57 0.264 7.97 4.74 12.95
12/30/2021 5:45:00 AM 3.65 38.57 0.264 7.97 4.99 12.92
12/30/2021 6:00:00 AM 3.66 38.588 0.263 7.96 4.87 12.9
12/30/2021 6:15:00 AM 3.66 38.588 0.263 7.95 4.63 12.88
12/30/2021 6:30:00 AM 3.67 38.606 0.262 7.94 4.61 12.86
12/30/2021 6:45:00 AM 3.67 38.606 0.262 7.93 4.72 12.84
12/30/2021 7:00:00 AM 3.68 38.624 0.261 7.93 5.09 12.82
12/30/2021 7:15:00 AM 3.68 38.624 0.261 7.92 5.14 12.81
12/30/2021 7:30:00 AM 3.68 38.624 0.261 7.91 4.73 12.79
12/30/2021 7:45:00 AM 3.69 38.642 0.26 7.91 5.05 12.78
12/30/2021 8:00:00 AM 3.69 38.642 0.26 7.9 5.57 12.77
12/30/2021 8:15:00 AM 3.7 38.66 0.26 7.89 5.53 12.76
12/30/2021 8:30:00 AM 3.71 38.678 0.259 7.9 5.29 12.77
12/30/2021 8:45:00 AM 3.71 38.678 0.259 7.9 6.19 12.78
12/30/2021 9:00:00 AM 3.72 38.696 0.259 7.9 5.72 12.79
12/30/2021 9:15:00 AM 3.73 38.714 0.259 7.91 5.67 12.82
12/30/2021 9:30:00 AM 3.74 38.732 0.258 7.91 5.29 12.84
12/30/2021 9:45:00 AM 3.75 38.75 0.258 7.91 5.46 12.87
12/30/2021 10:00:00 AM 3.77 38.786 0.258 7.93 5.29 12.92
12/30/2021 10:15:00 AM 3.78 38.804 0.258 7.93 5.66 12.95
12/30/2021 10:30:00 AM 3.8 38.84 0.258 7.95 5.62 13
12/30/2021 10:45:00 AM 3.81 38.858 0.258 7.96 5.65 13.05
12/30/2021 11:00:00 AM 3.82 38.876 0.258 7.97 5.75 13.1
12/30/2021 11:15:00 AM 3.84 38.912 0.258 7.99 5.33 13.15
12/30/2021 11:30:00 AM 3.86 38.948 0.258 7.99 5.51 13.2
12/30/2021 11:45:00 AM 3.88 38.984 0.258 8.02 5.47 13.25
12/30/2021 12:00:00 PM 3.9 39.02 0.258 8.03 5.83 13.33
12/30/2021 12:15:00 PM 3.92 39.056 0.258 8.06 5.55 13.4
12/30/2021 12:30:00 PM 3.95 39.11 0.258 8.08 5.65 13.48
12/30/2021 12:45:00 PM 3.97 39.146 0.258 8.1 5.82 13.55
12/30/2021 1:00:00 PM 3.99 39.182 0.258 8.12 5.75 13.61
12/30/2021 1:15:00 PM 4.01 39.218 0.258 8.14 5.79 13.66
12/30/2021 1:30:00 PM 4.03 39.254 0.258 8.16 5.71 13.7
12/30/2021 1:45:00 PM 4.04 39.272 0.258 8.17 6.19 13.72
12/30/2021 2:00:00 PM 4.05 39.29 0.258 8.17 6.17 13.72
12/30/2021 2:15:00 PM 4.05 39.29 0.257 8.18 6.14 13.72
12/30/2021 2:30:00 PM 4.05 39.29 0.257 8.18 6.25 13.71
12/30/2021 2:45:00 PM 4.06 39.308 0.257 8.17 6.71 13.69
12/30/2021 3:00:00 PM 4.06 39.308 0.257 8.17 6.94 13.66
12/30/2021 3:15:00 PM 4.06 39.308 0.257 8.16 6.65 13.64
12/30/2021 3:30:00 PM 4.06 39.308 0.257 8.15 7.15 13.6
12/30/2021 3:45:00 PM 4.06 39.308 0.257 8.14 6.88 13.55
12/30/2021 4:00:00 PM 4.06 39.308 0.257 8.13 7.21 13.5
12/30/2021 4:15:00 PM 4.05 39.29 0.257 8.11 8.41 13.44
12/30/2021 4:30:00 PM 4.05 39.29 0.257 8.09 7.7 13.38
12/30/2021 4:45:00 PM 4.05 39.29 0.257 8.08 8.19 13.34
12/30/2021 5:00:00 PM 4.05 39.29 0.257 8.06 8.18 13.28
12/30/2021 5:15:00 PM 4.05 39.29 0.257 8.05 7.89 13.24
12/30/2021 5:30:00 PM 4.05 39.29 0.257 8.04 8.01 13.2
12/30/2021 5:45:00 PM 4.05 39.29 0.257 8.02 8.76 13.18
12/30/2021 6:00:00 PM 4.06 39.308 0.257 8.02 8.56 13.15
12/30/2021 6:15:00 PM 4.06 39.308 0.257 8.01 8.8 13.13
12/30/2021 6:30:00 PM 4.07 39.326 0.256 8 8.83 13.11
12/30/2021 6:45:00 PM 4.07 39.326 0.256 8 9.01 13.09
12/30/2021 7:00:00 PM 4.08 39.344 0.256 7.99 8.61 13.07
12/30/2021 7:15:00 PM 4.08 39.344 0.255 7.99 8.9 13.06
12/30/2021 7:30:00 PM 4.09 39.362 0.255 7.99 8.63 13.05
12/30/2021 7:45:00 PM 4.1 39.38 0.254 7.98 8.52 13.04
12/30/2021 8:00:00 PM 4.1 39.38 0.254 7.98 8.17 13.03
12/30/2021 8:15:00 PM 4.11 39.398 0.254 7.98 7.94 13.02
12/30/2021 8:30:00 PM 4.11 39.398 0.253 7.97 13.21 13.01
12/30/2021 8:45:00 PM 4.12 39.416 0.252 7.98 7.89 13.01
12/30/2021 9:00:00 PM 4.12 39.416 0.252 7.97 8.61 13.01
12/30/2021 9:15:00 PM 4.13 39.434 0.252 7.97 8 13.01
12/30/2021 9:30:00 PM 4.14 39.452 0.251 7.97 8.08 13
12/30/2021 9:45:00 PM 4.14 39.452 0.251 7.97 7.7 13
12/30/2021 10:00:00 PM 4.15 39.47 0.251 7.97 8.23 12.99
12/30/2021 10:15:00 PM 4.16 39.488 0.251 7.97 8.03 12.99
12/30/2021 10:30:00 PM 4.16 39.488 0.251 7.97 8.09 12.99
12/30/2021 10:45:00 PM 4.17 39.506 0.25 7.97 8 12.99
12/30/2021 11:00:00 PM 4.18 39.524 0.25 7.97 7.66 12.97
12/30/2021 11:15:00 PM 4.18 39.524 0.25 7.97 7.94 12.96
12/30/2021 11:30:00 PM 4.19 39.542 0.25 7.97 7.74 12.95
12/30/2021 11:45:00 PM 4.19 39.542 0.25 7.97 7.35 12.94
12/31/2021 12:00:00 AM 4.2 39.56 0.25 7.96 7.49 12.93
12/31/2021 12:15:00 AM 4.2 39.56 0.25 7.96 7.66 12.92
12/31/2021 12:30:00 AM 4.21 39.578 0.25 7.96 7.52 12.9
12/31/2021 12:45:00 AM 4.21 39.578 0.25 7.95 7.57 12.88
12/31/2021 1:00:00 AM 4.22 39.596 0.25 7.95 7.63 12.86
12/31/2021 1:15:00 AM 4.22 39.596 0.251 7.95 7.99 12.85
12/31/2021 1:30:00 AM 4.23 39.614 0.251 7.95 8.06 12.83
12/31/2021 1:45:00 AM 4.23 39.614 0.251 7.94 8.19 12.81
12/31/2021 2:00:00 AM 4.23 39.614 0.251 7.93 7.85 12.8
12/31/2021 2:15:00 AM 4.24 39.632 0.251 7.93 7.39 12.78
12/31/2021 2:30:00 AM 4.24 39.632 0.251 7.93 8.32 12.76
12/31/2021 2:45:00 AM 4.24 39.632 0.251 7.93 7.37 12.74
12/31/2021 3:00:00 AM 4.24 39.632 0.251 7.92 8.04 12.73
12/31/2021 3:15:00 AM 4.25 39.65 0.251 7.91 7.48 12.71
12/31/2021 3:30:00 AM 4.25 39.65 0.251 7.91 7.92 12.69
12/31/2021 3:45:00 AM 4.25 39.65 0.251 7.9 7.42 12.68
12/31/2021 4:00:00 AM 4.25 39.65 0.251 7.9 7.75 12.67
12/31/2021 4:15:00 AM 4.25 39.65 0.251 7.89 7.61 12.65
12/31/2021 4:30:00 AM 4.26 39.668 0.251 7.89 7.92 12.64
12/31/2021 4:45:00 AM 4.26 39.668 0.251 7.88 7.36 12.62
12/31/2021 5:00:00 AM 4.26 39.668 0.25 7.88 7.26 12.61
12/31/2021 5:15:00 AM 4.27 39.686 0.25 7.87 9.73 12.58
12/31/2021 5:30:00 AM 4.27 39.686 0.251 7.87 7.23 12.58
12/31/2021 5:45:00 AM 4.27 39.686 0.25 7.86 7.62 12.57
12/31/2021 6:00:00 AM 4.28 39.704 0.25 7.86 7.36 12.56
12/31/2021 6:15:00 AM 4.28 39.704 0.25 7.86 7.38 12.54
12/31/2021 6:30:00 AM 4.28 39.704 0.25 7.86 7.6 12.54
12/31/2021 6:45:00 AM 4.28 39.704 0.25 7.86 7.15 12.53
12/31/2021 7:00:00 AM 4.29 39.722 0.25 7.85 7.15 12.52
12/31/2021 7:15:00 AM 4.29 39.722 0.249 7.85 7.21 12.51
12/31/2021 7:30:00 AM 4.29 39.722 0.249 7.85 7.61 12.5
12/31/2021 7:45:00 AM 4.29 39.722 0.249 7.85 7.02 12.5
12/31/2021 8:00:00 AM 4.29 39.722 0.249 7.85 6.82 12.49
12/31/2021 8:15:00 AM 4.3 39.74 0.248 7.85 6.92 12.5
12/31/2021 8:30:00 AM 4.3 39.74 0.248 7.85 7.33 12.5
12/31/2021 8:45:00 AM 4.31 39.758 0.248 7.85 7.24 12.53
12/31/2021 9:00:00 AM 4.31 39.758 0.248 7.85 7.47 12.56
12/31/2021 9:15:00 AM 4.31 39.758 0.247 7.86 6.71 12.6
12/31/2021 9:30:00 AM 4.32 39.776 0.247 7.87 6.67 12.63
12/31/2021 9:45:00 AM 4.33 39.794 0.247 7.87 6.73 12.68
12/31/2021 10:00:00 AM 4.34 39.812 0.246 7.89 6.7 12.73
12/31/2021 10:15:00 AM 4.36 39.848 0.246 7.9 6.74 12.79
12/31/2021 10:30:00 AM 4.39 39.902 0.246 7.92 6.98 12.87
12/31/2021 10:45:00 AM 4.41 39.938 0.246 7.94 6.73 12.95
12/31/2021 11:00:00 AM 4.43 39.974 0.246 7.97 6.54 13.03
12/31/2021 11:15:00 AM 4.45 40.01 0.246 7.99 6.21 13.12
12/31/2021 11:30:00 AM 4.5 40.1 0.245 8.02 6.89 13.23
12/31/2021 11:45:00 AM 4.54 40.172 0.245 8.05 6.24 13.31
12/31/2021 12:00:00 PM 4.58 40.244 0.245 8.08 6.41 13.41
12/31/2021 12:15:00 PM 4.63 40.334 0.245 8.1 6.54 13.5
12/31/2021 12:30:00 PM 4.66 40.388 0.245 8.14 6.28 13.57
12/31/2021 12:45:00 PM 4.7 40.46 0.244 8.17 6.1 13.65
12/31/2021 1:00:00 PM 4.72 40.496 0.244 8.19 6.91 13.71
12/31/2021 1:15:00 PM 4.75 40.55 0.244 8.22 6.61 13.78
12/31/2021 1:30:00 PM 4.78 40.604 0.244 8.24 6.75 13.84
12/31/2021 1:45:00 PM 4.81 40.658 0.243 8.26 6.43 13.88
12/31/2021 2:00:00 PM 4.81 40.658 0.243 8.27 7.29 13.87
12/31/2021 2:15:00 PM 4.79 40.622 0.243 8.27 6.77 13.86
12/31/2021 2:30:00 PM 4.77 40.586 0.243 8.26 6.41 13.82
12/31/2021 2:45:00 PM 4.75 40.55 0.243 8.25 6.72 13.78
12/31/2021 3:00:00 PM 4.72 40.496 0.243 8.24 6.54 13.75
12/31/2021 3:15:00 PM 4.71 40.478 0.243 8.24 6.26 13.72
12/31/2021 3:30:00 PM 4.68 40.424 0.243 8.23 6.47 13.69
12/31/2021 3:45:00 PM 4.67 40.406 0.243 8.22 6.45 13.66
12/31/2021 4:00:00 PM 4.65 40.37 0.243 8.21 6.31 13.63
12/31/2021 4:15:00 PM 4.64 40.352 0.243 8.2 6.25 13.61
12/31/2021 4:30:00 PM 4.63 40.334 0.243 8.19 6.43 13.57
12/31/2021 4:45:00 PM 4.62 40.316 0.243 8.18 6.62 13.54
12/31/2021 5:00:00 PM 4.61 40.298 0.243 8.17 6.91 13.52
12/31/2021 5:15:00 PM 4.61 40.298 0.243 8.17 6.6 13.49
12/31/2021 5:30:00 PM 4.6 40.28 0.243 8.16 6.6 13.46
12/31/2021 5:45:00 PM 4.61 40.298 0.243 8.14 6.3 13.44
12/31/2021 6:00:00 PM 4.61 40.298 0.243 8.14 6.22 13.42
12/31/2021 6:15:00 PM 4.61 40.298 0.243 8.13 6.56 13.4
12/31/2021 6:30:00 PM 4.62 40.316 0.243 8.13 6.05 13.37
12/31/2021 6:45:00 PM 4.63 40.334 0.243 8.12 6.39 13.36
12/31/2021 7:00:00 PM 4.63 40.334 0.243 8.12 6.11 13.34
12/31/2021 7:15:00 PM 4.64 40.352 0.243 8.12 6.23 13.33
12/31/2021 7:30:00 PM 4.66 40.388 0.243 8.12 6.68 13.32
12/31/2021 7:45:00 PM 4.67 40.406 0.243 8.11 6.02 13.31
12/31/2021 8:00:00 PM 4.68 40.424 0.243 8.12 5.86 13.3
12/31/2021 8:15:00 PM 4.69 40.442 0.243 8.11 5.9 13.28
12/31/2021 8:30:00 PM 4.69 40.442 0.243 8.11 6.34 13.26
12/31/2021 8:45:00 PM 4.69 40.442 0.243 8.1 5.95 13.23
12/31/2021 9:00:00 PM 4.69 40.442 0.243 8.1 6.17 13.21
12/31/2021 9:15:00 PM 4.69 40.442 0.243 8.1 6.15 13.19
12/31/2021 9:30:00 PM 4.69 40.442 0.243 8.09 5.84 13.16
12/31/2021 9:45:00 PM 4.69 40.442 0.243 8.08 6.16 13.14
12/31/2021 10:00:00 PM 4.69 40.442 0.243 8.07 6.07 13.11
12/31/2021 10:15:00 PM 4.69 40.442 0.243 8.07 6.23 13.09
12/31/2021 10:30:00 PM 4.69 40.442 0.243 8.07 6.1 13.07
12/31/2021 10:45:00 PM 4.69 40.442 0.243 8.06 5.88 13.05
12/31/2021 11:00:00 PM 4.69 40.442 0.243 8.06 5.98 13.02
12/31/2021 11:15:00 PM 4.7 40.46 0.243 8.05 5.89 13.01
12/31/2021 11:30:00 PM 4.71 40.478 0.243 8.05 6.14 12.99
12/31/2021 11:45:00 PM 4.72 40.496 0.243 8.04 6.27 12.96
1/1/2022 12:00:00 AM 4.73 40.514 0.243 8.04 5.68 12.94
1/1/2022 12:15:00 AM 4.73 40.514 0.243 8.03 6.01 12.91
1/1/2022 12:30:00 AM 4.74 40.532 0.243 8.03 5.93 12.89
1/1/2022 12:45:00 AM 4.75 40.55 0.243 8.03 5.63 12.87
1/1/2022 1:00:00 AM 4.76 40.568 0.243 8.02 5.84 12.84
1/1/2022 1:15:00 AM 4.76 40.568 0.243 8.02 6.03 12.82
1/1/2022 1:30:00 AM 4.76 40.568 0.244 8.01 5.61 12.79
1/1/2022 1:45:00 AM 4.77 40.586 0.244 8 5.91 12.76
1/1/2022 2:00:00 AM 4.77 40.586 0.244 8 5.86 12.74
1/1/2022 2:15:00 AM 4.78 40.604 0.244 8 5.81 12.72
1/1/2022 2:30:00 AM 4.78 40.604 0.245 7.99 5.53 12.7
1/1/2022 2:45:00 AM 4.79 40.622 0.245 7.98 5.9 12.67
1/1/2022 3:00:00 AM 4.8 40.64 0.245 7.98 6.38 12.65
1/1/2022 3:15:00 AM 4.81 40.658 0.245 7.97 5.66 12.62
1/1/2022 3:30:00 AM 4.82 40.676 0.246 7.97 5.55 12.6
1/1/2022 3:45:00 AM 4.83 40.694 0.246 7.96 5.36 12.57
1/1/2022 4:00:00 AM 4.84 40.712 0.246 7.96 5.6 12.55
1/1/2022 4:15:00 AM 4.85 40.73 0.247 7.95 5.45 12.52
1/1/2022 4:30:00 AM 4.86 40.748 0.247 7.95 5.15 12.5
1/1/2022 4:45:00 AM 4.86 40.748 0.247 7.94 5.47 12.46
1/1/2022 5:00:00 AM 4.87 40.766 0.248 7.94 5.44 12.45
1/1/2022 5:15:00 AM 4.87 40.766 0.248 7.93 5.13 12.42
1/1/2022 5:30:00 AM 4.88 40.784 0.248 7.92 6.08 12.4
1/1/2022 5:45:00 AM 4.89 40.802 0.249 7.92 5.43 12.37
1/1/2022 6:00:00 AM 4.89 40.802 0.249 7.92 5.32 12.35
1/1/2022 6:15:00 AM 4.9 40.82 0.25 7.9 5.01 12.33
1/1/2022 6:30:00 AM 4.9 40.82 0.25 7.9 5.29 12.31
1/1/2022 6:45:00 AM 4.9 40.82 0.25 7.89 5.12 12.29
1/1/2022 7:00:00 AM 4.91 40.838 0.251 7.89 5.1 12.27
1/1/2022 7:15:00 AM 4.91 40.838 0.251 7.88 4.99 12.26
1/1/2022 7:30:00 AM 4.91 40.838 0.251 7.88 5.12 12.24
1/1/2022 7:45:00 AM 4.92 40.856 0.251 7.88 4.99 12.23
1/1/2022 8:00:00 AM 4.92 40.856 0.252 7.87 5.14 12.22
1/1/2022 8:15:00 AM 4.92 40.856 0.252 7.87 5.16 12.22
1/1/2022 8:30:00 AM 4.92 40.856 0.252 7.87 4.77 12.22
1/1/2022 8:45:00 AM 4.93 40.874 0.252 7.87 4.88 12.24
1/1/2022 9:00:00 AM 4.93 40.874 0.252 7.87 4.74 12.26
1/1/2022 9:15:00 AM 4.94 40.892 0.252 7.88 4.68 12.28
1/1/2022 9:30:00 AM 4.95 40.91 0.252 7.88 4.74 12.3
1/1/2022 9:45:00 AM 4.96 40.928 0.252 7.88 4.9 12.33
1/1/2022 10:00:00 AM 4.97 40.946 0.252 7.89 4.75 12.36
1/1/2022 10:15:00 AM 4.98 40.964 0.252 7.89 4.63 12.39
1/1/2022 10:30:00 AM 5 41 0.252 7.9 4.59 12.45
1/1/2022 10:45:00 AM 5.01 41.018 0.253 7.92 4.58 12.51
1/1/2022 11:00:00 AM 5.02 41.036 0.253 7.93 4.52 12.55
1/1/2022 11:15:00 AM 5.04 41.072 0.253 7.94 4.57 12.6
1/1/2022 11:30:00 AM 5.06 41.108 0.253 7.95 4.4 12.65
1/1/2022 11:45:00 AM 5.07 41.126 0.254 7.97 4.52 12.69
1/1/2022 12:00:00 PM 5.09 41.162 0.254 7.98 4.46 12.74
1/1/2022 12:15:00 PM 5.11 41.198 0.254 7.99 4.46 12.8
1/1/2022 12:30:00 PM 5.12 41.216 0.254 8.01 4.54 12.84
1/1/2022 12:45:00 PM 5.14 41.252 0.254 8.03 4.52 12.9
1/1/2022 1:00:00 PM 5.16 41.288 0.254 8.04 4.62 12.93
1/1/2022 1:15:00 PM 5.18 41.324 0.254 8.05 4.34 12.97
1/1/2022 1:30:00 PM 5.19 41.342 0.254 8.06 4.56 13.01
1/1/2022 1:45:00 PM 5.2 41.36 0.255 8.08 4.41 13.06
1/1/2022 2:00:00 PM 5.22 41.396 0.255 8.09 4.59 13.09
1/1/2022 2:15:00 PM 5.23 41.414 0.255 8.11 4.57 13.14
1/1/2022 2:30:00 PM 5.24 41.432 0.255 8.12 4.38 13.17
1/1/2022 2:45:00 PM 5.25 41.45 0.255 8.13 4.54 13.19
1/1/2022 3:00:00 PM 5.25 41.45 0.255 8.14 4.31 13.21
1/1/2022 3:15:00 PM 5.25 41.45 0.254 8.14 4.46 13.2
1/1/2022 3:30:00 PM 5.25 41.45 0.254 8.14 4.68 13.21
1/1/2022 3:45:00 PM 5.25 41.45 0.254 8.14 4.23 13.19
1/1/2022 4:00:00 PM 5.25 41.45 0.254 8.13 4.47 13.16
1/1/2022 4:15:00 PM 5.24 41.432 0.255 8.12 4.31 13.12
1/1/2022 4:30:00 PM 5.24 41.432 0.255 8.11 4.67 13.08
1/1/2022 4:45:00 PM 5.24 41.432 0.254 8.09 4.19 13.03
1/1/2022 5:00:00 PM 5.23 41.414 0.254 8.08 5.06 12.97
1/1/2022 5:15:00 PM 5.23 41.414 0.255 8.07 4.81 12.93
1/1/2022 5:30:00 PM 5.23 41.414 0.255 8.05 4.54 12.89
1/1/2022 5:45:00 PM 5.23 41.414 0.255 8.04 4.46 12.84
1/1/2022 6:00:00 PM 5.23 41.414 0.255 8.03 4.49 12.8
1/1/2022 6:15:00 PM 5.23 41.414 0.255 8.02 4.59 12.77
1/1/2022 6:30:00 PM 5.23 41.414 0.255 8.01 4.7 12.73
1/1/2022 6:45:00 PM 5.24 41.432 0.254 8 4.56 12.71
1/1/2022 7:00:00 PM 5.24 41.432 0.254 8 4.86 12.69
1/1/2022 7:15:00 PM 5.25 41.45 0.254 7.98 4.87 12.66
1/1/2022 7:30:00 PM 5.25 41.45 0.254 7.98 4.34 12.64
1/1/2022 7:45:00 PM 5.25 41.45 0.254 7.98 4.76 12.62
1/1/2022 8:00:00 PM 5.25 41.45 0.253 7.97 5.07 12.6
1/1/2022 8:15:00 PM 5.25 41.45 0.253 7.96 4.74 12.58
1/1/2022 8:30:00 PM 5.25 41.45 0.253 7.96 4.85 12.57
1/1/2022 8:45:00 PM 5.25 41.45 0.253 7.96 4.85 12.56
1/1/2022 9:00:00 PM 5.25 41.45 0.253 7.95 4.71 12.55
1/1/2022 9:15:00 PM 5.26 41.468 0.253 7.95 5.09 12.53
1/1/2022 9:30:00 PM 5.26 41.468 0.252 7.95 4.93 12.52
1/1/2022 9:45:00 PM 5.26 41.468 0.252 7.95 4.65 12.51
1/1/2022 10:00:00 PM 5.25 41.45 0.252 7.94 5.09 12.5
1/1/2022 10:15:00 PM 5.25 41.45 0.252 7.95 4.88 12.5
1/1/2022 10:30:00 PM 5.25 41.45 0.251 7.94 4.89 12.49
1/1/2022 10:45:00 PM 5.24 41.432 0.251 7.94 5.15 12.47
1/1/2022 11:00:00 PM 5.24 41.432 0.251 7.93 5.38 12.46
1/1/2022 11:15:00 PM 5.23 41.414 0.25 7.94 5.07 12.46
1/1/2022 11:30:00 PM 5.23 41.414 0.25 7.93 5.54 12.45
1/1/2022 11:45:00 PM 5.22 41.396 0.25 7.93 5.06 12.44
1/2/2022 12:00:00 AM 5.21 41.378 0.249 7.93 5.14 12.43
1/2/2022 12:15:00 AM 5.2 41.36 0.249 7.93 5.05 12.42
1/2/2022 12:30:00 AM 5.19 41.342 0.248 7.92 5.25 12.41
1/2/2022 12:45:00 AM 5.19 41.342 0.248 7.92 5.33 12.39
1/2/2022 1:00:00 AM 5.18 41.324 0.248 7.91 5.23 12.38
1/2/2022 1:15:00 AM 5.17 41.306 0.248 7.91 5.43 12.36
1/2/2022 1:30:00 AM 5.16 41.288 0.247 7.91 5.4 12.34
1/2/2022 1:45:00 AM 5.15 41.27 0.247 7.9 5.2 12.33
1/2/2022 2:00:00 AM 5.14 41.252 0.246 7.9 5.34 12.31
1/2/2022 2:15:00 AM 5.12 41.216 0.246 7.89 5.3 12.29
1/2/2022 2:30:00 AM 5.11 41.198 0.246 7.87 5.52 12.28
1/2/2022 2:45:00 AM 5.1 41.18 0.245 7.87 5.61 12.27
1/2/2022 3:00:00 AM 5.09 41.162 0.245 7.87 5.4 12.24
1/2/2022 3:15:00 AM 5.08 41.144 0.244 7.86 5.67 12.24
1/2/2022 3:30:00 AM 5.07 41.126 0.244 7.86 5.48 12.22
1/2/2022 3:45:00 AM 5.06 41.108 0.243 7.86 5.44 12.2
1/2/2022 4:00:00 AM 5.05 41.09 0.243 7.84 6.1 12.19
1/2/2022 4:15:00 AM 5.03 41.054 0.242 7.85 5.7 12.18
1/2/2022 4:30:00 AM 5.02 41.036 0.242 7.83 6.14 12.17
1/2/2022 4:45:00 AM 5.02 41.036 0.242 7.84 6.22 12.16
1/2/2022 5:00:00 AM 5.01 41.018 0.242 7.83 6 12.15
1/2/2022 5:15:00 AM 5 41 0.242 7.83 6.22 12.14
1/2/2022 5:30:00 AM 4.98 40.964 0.242 7.83 6.22 12.13
1/2/2022 5:45:00 AM 4.98 40.964 0.242 7.83 6.47 12.13
1/2/2022 6:00:00 AM 4.97 40.946 0.241 7.82 6.09 12.12
1/2/2022 6:15:00 AM 4.96 40.928 0.241 7.82 7.43 12.11
1/2/2022 6:30:00 AM 4.95 40.91 0.241 7.82 6.97 12.11
1/2/2022 6:45:00 AM 4.93 40.874 0.241 7.82 6.92 12.11
1/2/2022 7:00:00 AM 4.92 40.856 0.241 7.82 6.79 12.1
1/2/2022 7:15:00 AM 4.91 40.838 0.241 7.81 6.66 12.1
1/2/2022 7:30:00 AM 4.9 40.82 0.241 7.81 8.13 12.1
1/2/2022 7:45:00 AM 4.89 40.802 0.241 7.81 7.25 12.09
1/2/2022 8:00:00 AM 4.88 40.784 0.241 7.8 7.23 12.09
1/2/2022 8:15:00 AM 4.87 40.766 0.241 7.8 8.04 12.09
1/2/2022 8:30:00 AM 4.86 40.748 0.241 7.8 8.18 12.09
1/2/2022 8:45:00 AM 4.85 40.73 0.241 7.81 8.51 12.11
1/2/2022 9:00:00 AM 4.84 40.712 0.241 7.81 8.78 12.12
1/2/2022 9:15:00 AM 4.83 40.694 0.241 7.8 8.28 12.12
1/2/2022 9:30:00 AM 4.81 40.658 0.241 7.81 8.16 12.15
1/2/2022 9:45:00 AM 4.8 40.64 0.241 7.81 7.91 12.16
1/2/2022 10:00:00 AM 4.79 40.622 0.241 7.82 9.47 12.18
1/2/2022 10:15:00 AM 4.78 40.604 0.241 7.82 8.77 12.2
1/2/2022 10:30:00 AM 4.77 40.586 0.241 7.83 10.14 12.23
1/2/2022 10:45:00 AM 4.76 40.568 0.24 7.82 9.3 12.25
1/2/2022 11:00:00 AM 4.75 40.55 0.24 7.82 9.19 12.27
1/2/2022 11:15:00 AM 4.74 40.532 0.24 7.83 11.29 12.29
1/2/2022 11:30:00 AM 4.73 40.514 0.24 7.83 10.02 12.32
1/2/2022 11:45:00 AM 4.72 40.496 0.24 7.84 12.23 12.34
1/2/2022 12:00:00 PM 4.72 40.496 0.239 7.83 10.99 12.36
1/2/2022 12:15:00 PM 4.72 40.496 0.238 7.85 10.97 12.39
1/2/2022 12:30:00 PM 4.71 40.478 0.238 7.86 11.55 12.43
1/2/2022 12:45:00 PM 4.7 40.46 0.237 7.86 12.82 12.46
1/2/2022 1:00:00 PM 4.69 40.442 0.236 7.87 11.61 12.46
1/2/2022 1:15:00 PM 4.68 40.424 0.236 7.86 13.05 12.47
1/2/2022 1:30:00 PM 4.66 40.388 0.235 7.87 13.51 12.48
1/2/2022 1:45:00 PM 4.64 40.352 0.235 7.87 14.74 12.48
1/2/2022 2:00:00 PM 4.63 40.334 0.234 7.87 15.2 12.47
1/2/2022 2:15:00 PM 4.62 40.316 0.234 7.87 38.72 12.49
1/2/2022 2:30:00 PM 4.6 40.28 0.233 7.86 17.15 12.5
1/2/2022 2:45:00 PM 4.58 40.244 0.233 7.87 11.44 12.5
1/2/2022 3:00:00 PM 4.56 40.208 0.233 7.87 13.15 12.5
1/2/2022 3:15:00 PM 4.54 40.172 0.233 7.86 11.08 12.5
1/2/2022 3:30:00 PM 4.52 40.136 0.233 7.87 17.74 12.5
1/2/2022 3:45:00 PM 4.5 40.1 0.233 7.87 16.44 12.5
1/2/2022 4:00:00 PM 4.48 40.064 0.233 7.85 16.03 12.5
1/2/2022 4:15:00 PM 4.46 40.028 0.233 7.86 18.44 12.49
1/2/2022 4:30:00 PM 4.44 39.992 0.233 7.86 26.92 12.49
1/2/2022 4:45:00 PM 4.42 39.956 0.233 7.86 16.25 12.48
1/2/2022 5:00:00 PM 4.4 39.92 0.233 7.86 27.81 12.47
1/2/2022 5:15:00 PM 4.38 39.884 0.233 7.85 17.72 12.46
1/2/2022 5:30:00 PM 4.37 39.866 0.233 7.84 18.26 12.45
1/2/2022 5:45:00 PM 4.35 39.83 0.233 7.84 25.57 12.45
1/2/2022 6:00:00 PM 4.33 39.794 0.233 7.84 22.02 12.44
1/2/2022 6:15:00 PM 4.32 39.776 0.233 7.83 23.42 12.44
1/2/2022 6:30:00 PM 4.3 39.74 0.233 7.83 24.95 12.43
1/2/2022 6:45:00 PM 4.28 39.704 0.232 7.83 22.48 12.42
1/2/2022 7:00:00 PM 4.26 39.668 0.232 7.82 31.26 12.42
1/2/2022 7:15:00 PM 4.24 39.632 0.232 7.83 30.98 12.42
1/2/2022 7:30:00 PM 4.22 39.596 0.232 7.82 29.04 12.43
1/2/2022 7:45:00 PM 4.21 39.578 0.231 7.83 31.45 12.43
1/2/2022 8:00:00 PM 4.19 39.542 0.231 7.81 39.36 12.43
1/2/2022 8:15:00 PM 4.17 39.506 0.231 7.82 84.56 12.44
1/2/2022 8:30:00 PM 4.15 39.47 0.231 7.82 23.68 12.44
1/2/2022 8:45:00 PM 4.13 39.434 0.231 7.81 47.48 12.45
1/2/2022 9:00:00 PM 4.11 39.398 0.23 7.82 37.42 12.45
1/2/2022 9:15:00 PM 4.09 39.362 0.23 7.82 29.22 12.45
1/2/2022 9:30:00 PM 4.07 39.326 0.23 7.82 43.01 12.46
1/2/2022 9:45:00 PM 4.05 39.29 0.23 7.82 70.05 12.46
1/2/2022 10:00:00 PM 4.03 39.254 0.23 7.82 25.22 12.47
1/2/2022 10:15:00 PM 4.01 39.218 0.23 7.82 19.96 12.48
1/2/2022 10:30:00 PM 3.99 39.182 0.23 7.82 32.12 12.48
1/2/2022 10:45:00 PM 3.97 39.146 0.231 7.82 49.79 12.49
1/2/2022 11:00:00 PM 3.95 39.11 0.231 7.81 29.74 12.49
1/2/2022 11:15:00 PM 3.93 39.074 0.231 7.82 26.86 12.5
1/2/2022 11:30:00 PM 3.9 39.02 0.231 7.81 34.18 12.5
1/2/2022 11:45:00 PM 3.88 38.984 0.23 7.82 24.77 12.51
1/3/2022 12:00:00 AM 3.85 38.93 0.23 7.82 33.84 12.53
1/3/2022 12:15:00 AM 3.82 38.876 0.23 7.81 51.74 12.52
1/3/2022 12:30:00 AM 3.78 38.804 0.23 7.82 26.7 12.54
1/3/2022 12:45:00 AM 3.74 38.732 0.23 7.81 30.68 12.54
1/3/2022 1:00:00 AM 3.7 38.66 0.23 7.82 25.15 12.56
1/3/2022 1:15:00 AM 3.67 38.606 0.229 7.82 40.79 12.56
1/3/2022 1:30:00 AM 3.63 38.534 0.229 7.81 23.8 12.58
1/3/2022 1:45:00 AM 3.59 38.462 0.228 7.81 26.07 12.59
1/3/2022 2:00:00 AM 3.56 38.408 0.228 7.81 27.01 12.6
1/3/2022 2:15:00 AM 3.52 38.336 0.227 7.81 21.29 12.6
1/3/2022 2:30:00 AM 3.49 38.282 0.227 7.81 25.98 12.62
1/3/2022 2:45:00 AM 3.46 38.228 0.226 7.81 33.12 12.62
1/3/2022 3:00:00 AM 3.42 38.156 0.225 7.8 30.25 12.63
1/3/2022 3:15:00 AM 3.39 38.102 0.225 7.8 37.65 12.64
1/3/2022 3:30:00 AM 3.35 38.03 0.224 7.8 58.71 12.65
1/3/2022 3:45:00 AM 3.31 37.958 0.224 7.8 44.04 12.67
1/3/2022 4:00:00 AM 3.27 37.886 0.223 7.8 55.63 12.68
1/3/2022 4:15:00 AM 3.23 37.814 0.223 7.8 50.96 12.69
1/3/2022 4:30:00 AM 3.19 37.742 0.222 7.8 47.02 12.71
1/3/2022 4:45:00 AM 3.15 37.67 0.222 7.8 44.32 12.73
1/3/2022 5:00:00 AM 3.09 37.562 0.221 7.8 54.47 12.75
1/3/2022 5:15:00 AM 3.05 37.49 0.221 7.8 40.68 12.76
1/3/2022 5:30:00 AM 3.01 37.418 0.22 7.79 54.22 12.77
1/3/2022 5:45:00 AM 2.98 37.364 0.22 7.79 41.39 12.79
1/3/2022 6:00:00 AM 2.94 37.292 0.22 7.79 76.87 12.8
1/3/2022 6:15:00 AM 2.91 37.238 0.22 7.79 39.97 12.82
1/3/2022 6:30:00 AM 2.87 37.166 0.219 7.79 41.38 12.83
1/3/2022 6:45:00 AM 2.84 37.112 0.219 7.79 54.28 12.83
1/3/2022 7:00:00 AM 2.81 37.058 0.219 7.78 36.64 12.84
1/3/2022 7:15:00 AM 2.77 36.986 0.219 7.79 40.16 12.86
1/3/2022 7:30:00 AM 2.74 36.932 0.219 7.78 43.02 12.87
1/3/2022 7:45:00 AM 2.7 36.86 0.219 7.78 47.38 12.88
1/3/2022 8:00:00 AM 2.67 36.806 0.219 7.78 53.68 12.89
1/3/2022 8:15:00 AM 2.64 36.752 0.219 7.77 38.8 12.91
1/3/2022 8:30:00 AM 2.61 36.698 0.219 7.78 41.25 12.92
1/3/2022 8:45:00 AM 2.58 36.644 0.22 7.77 40.48 12.94
1/3/2022 9:00:00 AM 2.56 36.608 0.22 7.78 46.48 12.95
1/3/2022 9:15:00 AM 2.54 36.572 0.22 7.77 45.13 12.97
1/3/2022 9:30:00 AM 2.52 36.536 0.22 7.78 33.74 12.99
1/3/2022 9:45:00 AM 2.5 36.5 0.22 7.77 58.97 13.01
1/3/2022 10:00:00 AM 2.49 36.482 0.22 7.78 41.24 13.03
1/3/2022 10:15:00 AM 2.48 36.464 0.22 7.79 41.1 13.06
1/3/2022 10:30:00 AM 2.47 36.446 0.22 7.78 43.18 13.07
1/3/2022 10:45:00 AM 2.46 36.428 0.221 7.79 30.96 13.09
1/3/2022 11:00:00 AM 2.44 36.392 0.221 7.79 28.15 13.12
1/3/2022 11:15:00 AM 2.43 36.374 0.221 7.8 30.96 13.14
1/3/2022 11:30:00 AM 2.43 36.374 0.22 7.8 42.53 13.17
1/3/2022 11:45:00 AM 2.41 36.338 0.22 7.8 29.75 13.19
1/3/2022 12:00:00 PM 2.4 36.32 0.22 7.8 40.17 13.22
1/3/2022 12:15:00 PM 2.39 36.302 0.22 7.81 27.92 13.25
1/3/2022 12:30:00 PM 2.38 36.284 0.219 7.82 33.78 13.27
1/3/2022 12:45:00 PM 2.36 36.248 0.219 7.82 23.75 13.3
1/3/2022 1:00:00 PM 2.35 36.23 0.219 7.82 28.21 13.33
1/3/2022 1:15:00 PM 2.33 36.194 0.219 7.83 29.26 13.36
1/3/2022 1:30:00 PM 2.31 36.158 0.218 7.83 28.03 13.39
1/3/2022 1:45:00 PM 2.29 36.122 0.218 7.83 23.63 13.4
1/3/2022 2:00:00 PM 2.26 36.068 0.218 7.83 31.82 13.43
1/3/2022 2:15:00 PM 2.22 35.996 0.218 7.83 26.56 13.44
1/3/2022 2:30:00 PM 2.19 35.942 0.218 7.84 20.89 13.45
1/3/2022 2:45:00 PM 2.16 35.888 0.218 7.84 26.25 13.46
1/3/2022 3:00:00 PM 2.13 35.834 0.219 7.83 23.83 13.47
1/3/2022 3:15:00 PM 2.09 35.762 0.219 7.83 22.12 13.49
1/3/2022 3:30:00 PM 2.07 35.726 0.219 7.83 26.33 13.51
1/3/2022 3:45:00 PM 2.04 35.672 0.219 7.84 27.34 13.53
1/3/2022 4:00:00 PM 2.02 35.636 0.219 7.84 28.11 13.55
1/3/2022 4:15:00 PM 1.99 35.582 0.22 7.84 22.95 13.56
1/3/2022 4:30:00 PM 1.96 35.528 0.22 7.84 21.7 13.58
1/3/2022 4:45:00 PM 1.92 35.456 0.22 7.84 24.21 13.59
1/3/2022 5:00:00 PM 1.89 35.402 0.221 7.84 20.56 13.6
1/3/2022 5:15:00 PM 1.86 35.348 0.221 7.84 20.29 13.6
1/3/2022 5:30:00 PM 1.83 35.294 0.221 7.84 18.77 13.61
1/3/2022 5:45:00 PM 1.81 35.258 0.221 7.84 19.53 13.62
1/3/2022 6:00:00 PM 1.8 35.24 0.222 7.84 21.51 13.63
1/3/2022 6:15:00 PM 1.78 35.204 0.222 7.84 19.83 13.64
1/3/2022 6:30:00 PM 1.76 35.168 0.222 7.84 19.29 13.66
1/3/2022 6:45:00 PM 1.74 35.132 0.222 7.84 19.94 13.67
1/3/2022 7:00:00 PM 1.72 35.096 0.223 7.85 20.03 13.69
1/3/2022 7:15:00 PM 1.69 35.042 0.223 7.84 19.5 13.71
1/3/2022 7:30:00 PM 1.65 34.97 0.223 7.85 19.32 13.72
1/3/2022 7:45:00 PM 1.63 34.934 0.223 7.85 20.06 13.74
1/3/2022 8:00:00 PM 1.61 34.898 0.223 7.85 19.53 13.76
1/3/2022 8:15:00 PM 1.59 34.862 0.224 7.85 19.07 13.76
1/3/2022 8:30:00 PM 1.57 34.826 0.224 7.85 18.01 13.78
1/3/2022 8:45:00 PM 1.55 34.79 0.224 7.86 18.19 13.79
1/3/2022 9:00:00 PM 1.52 34.736 0.224 7.86 17.24 13.8
1/3/2022 9:15:00 PM 1.5 34.7 0.224 7.86 16.87 13.82
1/3/2022 9:30:00 PM 1.47 34.646 0.224 7.86 26.26 13.83
1/3/2022 9:45:00 PM 1.45 34.61 0.225 7.86 18.1 13.84
1/3/2022 10:00:00 PM 1.42 34.556 0.225 7.87 19.19 13.85
1/3/2022 10:15:00 PM 1.4 34.52 0.225 7.87 17.24 13.88
1/3/2022 10:30:00 PM 1.37 34.466 0.225 7.87 16.77 13.89
1/3/2022 10:45:00 PM 1.34 34.412 0.225 7.87 20.24 13.91
1/3/2022 11:00:00 PM 1.3 34.34 0.225 7.87 16.96 13.91
1/3/2022 11:15:00 PM 1.26 34.268 0.226 7.87 18.93 13.93
1/3/2022 11:30:00 PM 1.23 34.214 0.226 7.87 15.03 13.93
1/3/2022 11:45:00 PM 1.19 34.142 0.226 7.87 17.83 13.94
1/4/2022 12:00:00 AM 1.16 34.088 0.227 7.87 14.98 13.96
1/4/2022 12:15:00 AM 1.12 34.016 0.227 7.87 15.36 13.96
1/4/2022 12:30:00 AM 1.09 33.962 0.227 7.87 14.89 13.97
1/4/2022 12:45:00 AM 1.05 33.89 0.228 7.87 16.11 13.99
1/4/2022 1:00:00 AM 1.02 33.836 0.228 7.87 15.98 13.98
1/4/2022 1:15:00 AM 0.99 33.782 0.228 7.87 15.34 13.99
1/4/2022 1:30:00 AM 0.96 33.728 0.228 7.87 14.98 14
1/4/2022 1:45:00 AM 0.93 33.674 0.228 7.87 14.75 14
1/4/2022 2:00:00 AM 0.9 33.62 0.229 7.87 14.95 13.99
1/4/2022 2:15:00 AM 0.87 33.566 0.229 7.86 15.49 14
1/4/2022 2:30:00 AM 0.84 33.512 0.229 7.86 14.6 14.01
1/4/2022 2:45:00 AM 0.81 33.458 0.23 7.87 14.86 14.01
1/4/2022 3:00:00 AM 0.78 33.404 0.23 7.85 13.91 14.01
1/4/2022 3:15:00 AM 0.76 33.368 0.23 7.86 14.23 14.01
1/4/2022 3:30:00 AM 0.74 33.332 0.23 7.86 13.59 14.01
1/4/2022 3:45:00 AM 0.72 33.296 0.231 7.86 14.22 14.01
1/4/2022 4:00:00 AM 0.7 33.26 0.231 7.86 13.54 14.01
1/4/2022 4:15:00 AM 0.67 33.206 0.231 7.85 12.75 14.01
1/4/2022 4:30:00 AM 0.65 33.17 0.231 7.85 13.85 14.01
1/4/2022 4:45:00 AM 0.64 33.152 0.232 7.85 15.01 14.01
1/4/2022 5:00:00 AM 0.62 33.116 0.232 7.84 13.43 14.01
1/4/2022 5:15:00 AM 0.6 33.08 0.232 7.85 13.96 14.01
1/4/2022 5:30:00 AM 0.59 33.062 0.233 7.84 13.81 14.01
1/4/2022 5:45:00 AM 0.57 33.026 0.233 7.84 13.67 14.01
1/4/2022 6:00:00 AM 0.55 32.99 0.233 7.84 13.4 14.02
1/4/2022 6:15:00 AM 0.52 32.936 0.233 7.83 10.49 14.02
1/4/2022 6:30:00 AM 0.5 32.9 0.233 7.83 13.35 14.02
1/4/2022 6:45:00 AM 0.47 32.846 0.233 7.83 13.26 14.03
1/4/2022 7:00:00 AM 0.44 32.792 0.233 7.83 13.69 14.04
1/4/2022 7:15:00 AM 0.41 32.738 0.234 7.83 13.22 14.04
1/4/2022 7:30:00 AM 0.38 32.684 0.234 7.81 13.82 14.05
1/4/2022 7:45:00 AM 0.35 32.63 0.234 7.82 12.91 14.05
1/4/2022 8:00:00 AM 0.33 32.594 0.234 7.82 13.39 14.06
1/4/2022 8:15:00 AM 0.3 32.54 0.235 7.82 13.53 14.06
1/4/2022 8:30:00 AM 0.27 32.486 0.235 7.82 11.96 14.09
1/4/2022 8:45:00 AM 0.25 32.45 0.235 7.82 12.8 14.1
1/4/2022 9:00:00 AM 0.23 32.414 0.235 7.82 14.37 14.13
1/4/2022 9:15:00 AM 0.22 32.396 0.235 7.82 12.36 14.16